<?xml version="1.0" encoding="UTF-8" standalone="no" ?>
<gpx xmlns="http://www.topografix.com/GPX/1/1" xmlns:xsi="http://www.w3.org/2001/XMLSchema-instance" xsi:schemaLocation="http://www.topografix.com/GPX/1/1 http://www.topografix.com/GPX/1/1/gpx.xsd" version="1.1" creator="VisuGPX - https://www.visugpx.com">
  <metadata>
    <name>ESPAGNE - PEDESTRE - Jaizkibel - Du cap du figuier à Guadalupeko</name>
    <desc><![CDATA[Sortie dans les nuages]]></desc>
  </metadata>
  <wpt lat="43.36942" lon="-1.8649">
    <ele>78.953491210938</ele>
    <name><![CDATA[Croisement]]></name>
    <desc><![CDATA[Croisement]]></desc>
    <cmt><![CDATA[Croisement]]></cmt>
  </wpt>
  <wpt lat="43.39137" lon="-1.79237">
    <ele>46.4</ele>
    <name><![CDATA[Depart-voiture]]></name>
    <desc><![CDATA[Depart-voiture-N2]]></desc>
    <cmt><![CDATA[Depart-voiture-N2]]></cmt>
  </wpt>
  <wpt lat="43.39205" lon="-1.79195">
    <ele>38.09765625</ele>
    <name><![CDATA[FARO DE HIGUER]]></name>
    <desc><![CDATA[FARO DE HIGUER]]></desc>
    <cmt><![CDATA[FARO DE HIGUER]]></cmt>
  </wpt>
  <wpt lat="43.36696" lon="-1.8209">
    <ele>189.98486328125</ele>
    <name><![CDATA[Guadalupeko Am]]></name>
    <desc><![CDATA[Guadalupeko Amaren Santutegia]]></desc>
    <cmt><![CDATA[Guadalupeko Amaren Santutegia]]></cmt>
  </wpt>
  <wpt lat="43.37044" lon="-1.81804">
    <ele>200.07861328125</ele>
    <name><![CDATA[Guadalupeko Go]]></name>
    <desc><![CDATA[Guadalupeko Gotorlekua]]></desc>
    <cmt><![CDATA[Guadalupeko Gotorlekua]]></cmt>
  </wpt>
  <wpt lat="43.34529" lon="-1.85594">
    <ele>543.0263671875</ele>
    <name><![CDATA[Jaizkibel-543m]]></name>
    <desc><![CDATA[Jaizkibel-543m]]></desc>
    <cmt><![CDATA[Jaizkibel-543m]]></cmt>
  </wpt>
  <wpt lat="43.35357" lon="-1.84088">
    <ele>430.072265625</ele>
    <name><![CDATA[Jaizkibel-monu]]></name>
    <desc><![CDATA[Jaizkibel-monument]]></desc>
    <cmt><![CDATA[Jaizkibel-monument]]></cmt>
  </wpt>
  <wpt lat="43.36849" lon="-1.86903">
    <ele>58.044799804688</ele>
    <name><![CDATA[La Concha]]></name>
    <desc><![CDATA[La Concha]]></desc>
    <cmt><![CDATA[La Concha]]></cmt>
  </wpt>
  <wpt lat="43.36798" lon="-1.82109">
    <ele>196.95434570312</ele>
    <name><![CDATA[Parking-voitur]]></name>
    <desc><![CDATA[Parking-voiture-N1]]></desc>
    <cmt><![CDATA[Parking-voiture-N1]]></cmt>
  </wpt>
  <wpt lat="43.37407" lon="-1.85877">
    <ele>3.009765625</ele>
    <name><![CDATA[Playa de Los F]]></name>
    <desc><![CDATA[Playa de Los Fósiles]]></desc>
    <cmt><![CDATA[Playa de Los Fósiles]]></cmt>
  </wpt>
  <trk>
    <name><![CDATA[ACTIVE LOG 003]]></name>
    <trkseg>
      <trkpt lat="43.39112" lon="-1.79454">
        <ele>42.435424804688</ele>
        <time>2015-11-10T08:26:10Z</time>
      </trkpt>
      <trkpt lat="43.39112" lon="-1.79454">
        <ele>43.877319335938</ele>
        <time>2015-11-10T08:26:11Z</time>
      </trkpt>
      <trkpt lat="43.39112" lon="-1.79454">
        <ele>43.877319335938</ele>
        <time>2015-11-10T08:26:12Z</time>
      </trkpt>
      <trkpt lat="43.39112" lon="-1.79451">
        <ele>42.435424804688</ele>
        <time>2015-11-10T08:26:28Z</time>
      </trkpt>
      <trkpt lat="43.39113" lon="-1.79452">
        <ele>43.396606445312</ele>
        <time>2015-11-10T08:26:45Z</time>
      </trkpt>
      <trkpt lat="43.39112" lon="-1.79457">
        <ele>42.435424804688</ele>
        <time>2015-11-10T08:27:02Z</time>
      </trkpt>
      <trkpt lat="43.3911" lon="-1.79454">
        <ele>43.396606445312</ele>
        <time>2015-11-10T08:27:16Z</time>
      </trkpt>
      <trkpt lat="43.39111" lon="-1.79456">
        <ele>42.916015625</ele>
        <time>2015-11-10T08:27:29Z</time>
      </trkpt>
      <trkpt lat="43.39111" lon="-1.79463">
        <ele>42.916015625</ele>
        <time>2015-11-10T08:27:35Z</time>
      </trkpt>
      <trkpt lat="43.3911" lon="-1.79468">
        <ele>42.435424804688</ele>
        <time>2015-11-10T08:27:39Z</time>
      </trkpt>
      <trkpt lat="43.39106" lon="-1.79477">
        <ele>42.916015625</ele>
        <time>2015-11-10T08:27:46Z</time>
      </trkpt>
      <trkpt lat="43.39101" lon="-1.79496">
        <ele>43.396606445312</ele>
        <time>2015-11-10T08:28:04Z</time>
      </trkpt>
      <trkpt lat="43.39089" lon="-1.79528">
        <ele>43.396606445312</ele>
        <time>2015-11-10T08:28:27Z</time>
      </trkpt>
      <trkpt lat="43.39076" lon="-1.79553">
        <ele>43.396606445312</ele>
        <time>2015-11-10T08:28:45Z</time>
      </trkpt>
      <trkpt lat="43.39064" lon="-1.79577">
        <ele>44.358032226562</ele>
        <time>2015-11-10T08:29:03Z</time>
      </trkpt>
      <trkpt lat="43.39044" lon="-1.79594">
        <ele>43.396606445312</ele>
        <time>2015-11-10T08:29:24Z</time>
      </trkpt>
      <trkpt lat="43.39027" lon="-1.79588">
        <ele>41.954711914062</ele>
        <time>2015-11-10T08:29:40Z</time>
      </trkpt>
      <trkpt lat="43.39014" lon="-1.7959">
        <ele>41.473999023438</ele>
        <time>2015-11-10T08:29:58Z</time>
      </trkpt>
      <trkpt lat="43.39005" lon="-1.79606">
        <ele>40.512817382812</ele>
        <time>2015-11-10T08:30:12Z</time>
      </trkpt>
      <trkpt lat="43.38997" lon="-1.79611">
        <ele>40.032104492188</ele>
        <time>2015-11-10T08:30:19Z</time>
      </trkpt>
      <trkpt lat="43.38976" lon="-1.7962">
        <ele>38.109375</ele>
        <time>2015-11-10T08:30:36Z</time>
      </trkpt>
      <trkpt lat="43.38974" lon="-1.79621">
        <ele>38.109375</ele>
        <time>2015-11-10T08:30:38Z</time>
      </trkpt>
      <trkpt lat="43.38965" lon="-1.79643">
        <ele>36.66748046875</ele>
        <time>2015-11-10T08:30:55Z</time>
      </trkpt>
      <trkpt lat="43.38969" lon="-1.79658">
        <ele>34.744873046875</ele>
        <time>2015-11-10T08:31:09Z</time>
      </trkpt>
      <trkpt lat="43.38976" lon="-1.79681">
        <ele>33.783447265625</ele>
        <time>2015-11-10T08:31:24Z</time>
      </trkpt>
      <trkpt lat="43.38989" lon="-1.79706">
        <ele>34.26416015625</ele>
        <time>2015-11-10T08:31:42Z</time>
      </trkpt>
      <trkpt lat="43.39002" lon="-1.79734">
        <ele>35.225463867188</ele>
        <time>2015-11-10T08:32:01Z</time>
      </trkpt>
      <trkpt lat="43.39012" lon="-1.7976">
        <ele>36.186767578125</ele>
        <time>2015-11-10T08:32:18Z</time>
      </trkpt>
      <trkpt lat="43.39018" lon="-1.79785">
        <ele>38.109375</ele>
        <time>2015-11-10T08:32:34Z</time>
      </trkpt>
      <trkpt lat="43.39018" lon="-1.79794">
        <ele>38.590087890625</ele>
        <time>2015-11-10T08:32:40Z</time>
      </trkpt>
      <trkpt lat="43.39017" lon="-1.79806">
        <ele>39.070678710938</ele>
        <time>2015-11-10T08:32:47Z</time>
      </trkpt>
      <trkpt lat="43.39019" lon="-1.79823">
        <ele>39.55126953125</ele>
        <time>2015-11-10T08:32:58Z</time>
      </trkpt>
      <trkpt lat="43.39025" lon="-1.79847">
        <ele>40.032104492188</ele>
        <time>2015-11-10T08:33:12Z</time>
      </trkpt>
      <trkpt lat="43.39024" lon="-1.79875">
        <ele>39.55126953125</ele>
        <time>2015-11-10T08:33:30Z</time>
      </trkpt>
      <trkpt lat="43.39028" lon="-1.79901">
        <ele>41.473999023438</ele>
        <time>2015-11-10T08:33:46Z</time>
      </trkpt>
      <trkpt lat="43.39029" lon="-1.79927">
        <ele>43.877319335938</ele>
        <time>2015-11-10T08:34:04Z</time>
      </trkpt>
      <trkpt lat="43.39028" lon="-1.7994">
        <ele>44.838623046875</ele>
        <time>2015-11-10T08:34:18Z</time>
      </trkpt>
      <trkpt lat="43.39023" lon="-1.79953">
        <ele>44.838623046875</ele>
        <time>2015-11-10T08:34:33Z</time>
      </trkpt>
      <trkpt lat="43.39022" lon="-1.79954">
        <ele>45.319213867188</ele>
        <time>2015-11-10T08:34:59Z</time>
      </trkpt>
      <trkpt lat="43.39022" lon="-1.79955">
        <ele>44.838623046875</ele>
        <time>2015-11-10T08:35:20Z</time>
      </trkpt>
      <trkpt lat="43.39021" lon="-1.79954">
        <ele>45.319213867188</ele>
        <time>2015-11-10T08:35:50Z</time>
      </trkpt>
      <trkpt lat="43.39021" lon="-1.79953">
        <ele>44.358032226562</ele>
        <time>2015-11-10T08:36:17Z</time>
      </trkpt>
      <trkpt lat="43.39021" lon="-1.79953">
        <ele>44.358032226562</ele>
        <time>2015-11-10T08:36:51Z</time>
      </trkpt>
      <trkpt lat="43.3902" lon="-1.79957">
        <ele>44.358032226562</ele>
        <time>2015-11-10T08:37:28Z</time>
      </trkpt>
      <trkpt lat="43.39014" lon="-1.79966">
        <ele>44.358032226562</ele>
        <time>2015-11-10T08:37:45Z</time>
      </trkpt>
      <trkpt lat="43.39008" lon="-1.79975">
        <ele>45.319213867188</ele>
        <time>2015-11-10T08:38:11Z</time>
      </trkpt>
      <trkpt lat="43.39005" lon="-1.79982">
        <ele>45.799926757812</ele>
        <time>2015-11-10T08:38:17Z</time>
      </trkpt>
      <trkpt lat="43.38987" lon="-1.7999">
        <ele>45.319213867188</ele>
        <time>2015-11-10T08:38:36Z</time>
      </trkpt>
      <trkpt lat="43.38984" lon="-1.79992">
        <ele>45.799926757812</ele>
        <time>2015-11-10T08:38:40Z</time>
      </trkpt>
      <trkpt lat="43.38982" lon="-1.79999">
        <ele>45.319213867188</ele>
        <time>2015-11-10T08:38:45Z</time>
      </trkpt>
      <trkpt lat="43.3898" lon="-1.80035">
        <ele>42.435424804688</ele>
        <time>2015-11-10T08:39:08Z</time>
      </trkpt>
      <trkpt lat="43.38976" lon="-1.80064">
        <ele>40.032104492188</ele>
        <time>2015-11-10T08:39:27Z</time>
      </trkpt>
      <trkpt lat="43.38972" lon="-1.80068">
        <ele>39.55126953125</ele>
        <time>2015-11-10T08:39:31Z</time>
      </trkpt>
      <trkpt lat="43.38948" lon="-1.80076">
        <ele>39.070678710938</ele>
        <time>2015-11-10T08:39:51Z</time>
      </trkpt>
      <trkpt lat="43.38925" lon="-1.80067">
        <ele>41.473999023438</ele>
        <time>2015-11-10T08:40:11Z</time>
      </trkpt>
      <trkpt lat="43.38905" lon="-1.80077">
        <ele>42.435424804688</ele>
        <time>2015-11-10T08:40:29Z</time>
      </trkpt>
      <trkpt lat="43.38896" lon="-1.80096">
        <ele>41.954711914062</ele>
        <time>2015-11-10T08:40:44Z</time>
      </trkpt>
      <trkpt lat="43.38888" lon="-1.80115">
        <ele>41.954711914062</ele>
        <time>2015-11-10T08:40:57Z</time>
      </trkpt>
      <trkpt lat="43.38883" lon="-1.80121">
        <ele>42.435424804688</ele>
        <time>2015-11-10T08:41:02Z</time>
      </trkpt>
      <trkpt lat="43.38864" lon="-1.80139">
        <ele>40.993408203125</ele>
        <time>2015-11-10T08:41:22Z</time>
      </trkpt>
      <trkpt lat="43.38862" lon="-1.80159">
        <ele>39.070678710938</ele>
        <time>2015-11-10T08:41:37Z</time>
      </trkpt>
      <trkpt lat="43.38854" lon="-1.80181">
        <ele>36.66748046875</ele>
        <time>2015-11-10T08:41:54Z</time>
      </trkpt>
      <trkpt lat="43.38848" lon="-1.80193">
        <ele>36.186767578125</ele>
        <time>2015-11-10T08:42:06Z</time>
      </trkpt>
      <trkpt lat="43.38847" lon="-1.80203">
        <ele>34.26416015625</ele>
        <time>2015-11-10T08:42:13Z</time>
      </trkpt>
      <trkpt lat="43.38845" lon="-1.80208">
        <ele>33.302856445312</ele>
        <time>2015-11-10T08:42:17Z</time>
      </trkpt>
      <trkpt lat="43.38835" lon="-1.80233">
        <ele>30.418823242188</ele>
        <time>2015-11-10T08:42:32Z</time>
      </trkpt>
      <trkpt lat="43.38818" lon="-1.80246">
        <ele>27.054321289062</ele>
        <time>2015-11-10T08:42:48Z</time>
      </trkpt>
      <trkpt lat="43.38797" lon="-1.80252">
        <ele>24.651000976562</ele>
        <time>2015-11-10T08:43:06Z</time>
      </trkpt>
      <trkpt lat="43.38791" lon="-1.80256">
        <ele>21.766967773438</ele>
        <time>2015-11-10T08:43:16Z</time>
      </trkpt>
      <trkpt lat="43.38779" lon="-1.80263">
        <ele>20.324951171875</ele>
        <time>2015-11-10T08:43:33Z</time>
      </trkpt>
      <trkpt lat="43.38777" lon="-1.80265">
        <ele>18.40234375</ele>
        <time>2015-11-10T08:43:37Z</time>
      </trkpt>
      <trkpt lat="43.38768" lon="-1.80263">
        <ele>17.921752929688</ele>
        <time>2015-11-10T08:43:47Z</time>
      </trkpt>
      <trkpt lat="43.38765" lon="-1.80269">
        <ele>18.40234375</ele>
        <time>2015-11-10T08:43:51Z</time>
      </trkpt>
      <trkpt lat="43.38765" lon="-1.8028">
        <ele>19.36376953125</ele>
        <time>2015-11-10T08:43:59Z</time>
      </trkpt>
      <trkpt lat="43.3877" lon="-1.8029">
        <ele>20.8056640625</ele>
        <time>2015-11-10T08:44:11Z</time>
      </trkpt>
      <trkpt lat="43.3877" lon="-1.80295">
        <ele>21.766967773438</ele>
        <time>2015-11-10T08:44:15Z</time>
      </trkpt>
      <trkpt lat="43.38769" lon="-1.80299">
        <ele>21.766967773438</ele>
        <time>2015-11-10T08:44:18Z</time>
      </trkpt>
      <trkpt lat="43.38757" lon="-1.80322">
        <ele>24.651000976562</ele>
        <time>2015-11-10T08:44:38Z</time>
      </trkpt>
      <trkpt lat="43.38749" lon="-1.80331">
        <ele>28.015502929688</ele>
        <time>2015-11-10T08:44:49Z</time>
      </trkpt>
      <trkpt lat="43.38747" lon="-1.80359">
        <ele>29.45751953125</ele>
        <time>2015-11-10T08:45:08Z</time>
      </trkpt>
      <trkpt lat="43.38748" lon="-1.8036">
        <ele>29.45751953125</ele>
        <time>2015-11-10T08:45:10Z</time>
      </trkpt>
      <trkpt lat="43.38757" lon="-1.80371">
        <ele>31.860717773438</ele>
        <time>2015-11-10T08:45:24Z</time>
      </trkpt>
      <trkpt lat="43.38767" lon="-1.80381">
        <ele>30.899536132812</ele>
        <time>2015-11-10T08:45:36Z</time>
      </trkpt>
      <trkpt lat="43.38772" lon="-1.80408">
        <ele>29.45751953125</ele>
        <time>2015-11-10T08:45:52Z</time>
      </trkpt>
      <trkpt lat="43.38776" lon="-1.8042">
        <ele>26.092895507812</ele>
        <time>2015-11-10T08:46:01Z</time>
      </trkpt>
      <trkpt lat="43.38776" lon="-1.80421">
        <ele>26.092895507812</ele>
        <time>2015-11-10T08:46:02Z</time>
      </trkpt>
      <trkpt lat="43.38782" lon="-1.8043">
        <ele>23.208984375</ele>
        <time>2015-11-10T08:46:11Z</time>
      </trkpt>
      <trkpt lat="43.38781" lon="-1.80459">
        <ele>22.24755859375</ele>
        <time>2015-11-10T08:46:29Z</time>
      </trkpt>
      <trkpt lat="43.38776" lon="-1.80469">
        <ele>20.8056640625</ele>
        <time>2015-11-10T08:46:37Z</time>
      </trkpt>
      <trkpt lat="43.38778" lon="-1.8047">
        <ele>20.8056640625</ele>
        <time>2015-11-10T08:46:39Z</time>
      </trkpt>
      <trkpt lat="43.38791" lon="-1.80469">
        <ele>17.921752929688</ele>
        <time>2015-11-10T08:46:54Z</time>
      </trkpt>
      <trkpt lat="43.38786" lon="-1.8048">
        <ele>16.96044921875</ele>
        <time>2015-11-10T08:47:10Z</time>
      </trkpt>
      <trkpt lat="43.38781" lon="-1.80486">
        <ele>15.518432617188</ele>
        <time>2015-11-10T08:47:28Z</time>
      </trkpt>
      <trkpt lat="43.3878" lon="-1.80494">
        <ele>12.634399414062</ele>
        <time>2015-11-10T08:47:40Z</time>
      </trkpt>
      <trkpt lat="43.38777" lon="-1.80498">
        <ele>12.634399414062</ele>
        <time>2015-11-10T08:47:44Z</time>
      </trkpt>
      <trkpt lat="43.38764" lon="-1.80519">
        <ele>13.595825195312</ele>
        <time>2015-11-10T08:48:04Z</time>
      </trkpt>
      <trkpt lat="43.38752" lon="-1.80525">
        <ele>16.479736328125</ele>
        <time>2015-11-10T08:48:21Z</time>
      </trkpt>
      <trkpt lat="43.38743" lon="-1.80533">
        <ele>19.844360351562</ele>
        <time>2015-11-10T08:48:36Z</time>
      </trkpt>
      <trkpt lat="43.38732" lon="-1.80544">
        <ele>21.286376953125</ele>
        <time>2015-11-10T08:48:55Z</time>
      </trkpt>
      <trkpt lat="43.38724" lon="-1.80553">
        <ele>24.170288085938</ele>
        <time>2015-11-10T08:49:11Z</time>
      </trkpt>
      <trkpt lat="43.38716" lon="-1.80562">
        <ele>27.534912109375</ele>
        <time>2015-11-10T08:49:24Z</time>
      </trkpt>
      <trkpt lat="43.38712" lon="-1.80572">
        <ele>30.899536132812</ele>
        <time>2015-11-10T08:49:38Z</time>
      </trkpt>
      <trkpt lat="43.38709" lon="-1.8058">
        <ele>32.822265625</ele>
        <time>2015-11-10T08:49:51Z</time>
      </trkpt>
      <trkpt lat="43.38716" lon="-1.80587">
        <ele>36.186767578125</ele>
        <time>2015-11-10T08:50:05Z</time>
      </trkpt>
      <trkpt lat="43.38721" lon="-1.80594">
        <ele>38.109375</ele>
        <time>2015-11-10T08:50:15Z</time>
      </trkpt>
      <trkpt lat="43.38714" lon="-1.80601">
        <ele>40.032104492188</ele>
        <time>2015-11-10T08:50:28Z</time>
      </trkpt>
      <trkpt lat="43.38706" lon="-1.80613">
        <ele>42.435424804688</ele>
        <time>2015-11-10T08:50:46Z</time>
      </trkpt>
      <trkpt lat="43.38704" lon="-1.8062">
        <ele>45.799926757812</ele>
        <time>2015-11-10T08:50:58Z</time>
      </trkpt>
      <trkpt lat="43.38709" lon="-1.80635">
        <ele>47.241821289062</ele>
        <time>2015-11-10T08:51:13Z</time>
      </trkpt>
      <trkpt lat="43.38709" lon="-1.8064">
        <ele>46.76123046875</ele>
        <time>2015-11-10T08:51:28Z</time>
      </trkpt>
      <trkpt lat="43.3871" lon="-1.80639">
        <ele>47.241821289062</ele>
        <time>2015-11-10T08:51:54Z</time>
      </trkpt>
      <trkpt lat="43.38709" lon="-1.8064">
        <ele>48.203369140625</ele>
        <time>2015-11-10T08:52:06Z</time>
      </trkpt>
      <trkpt lat="43.38703" lon="-1.80633">
        <ele>46.280639648438</ele>
        <time>2015-11-10T08:52:21Z</time>
      </trkpt>
      <trkpt lat="43.38701" lon="-1.80627">
        <ele>45.799926757812</ele>
        <time>2015-11-10T08:52:43Z</time>
      </trkpt>
      <trkpt lat="43.38703" lon="-1.80624">
        <ele>46.280639648438</ele>
        <time>2015-11-10T08:53:12Z</time>
      </trkpt>
      <trkpt lat="43.38707" lon="-1.80629">
        <ele>47.722534179688</ele>
        <time>2015-11-10T08:53:28Z</time>
      </trkpt>
      <trkpt lat="43.38711" lon="-1.8064">
        <ele>48.683959960938</ele>
        <time>2015-11-10T08:53:41Z</time>
      </trkpt>
      <trkpt lat="43.38712" lon="-1.80644">
        <ele>48.683959960938</ele>
        <time>2015-11-10T08:54:09Z</time>
      </trkpt>
      <trkpt lat="43.38717" lon="-1.80654">
        <ele>49.16455078125</ele>
        <time>2015-11-10T08:54:20Z</time>
      </trkpt>
      <trkpt lat="43.38718" lon="-1.80675">
        <ele>49.645263671875</ele>
        <time>2015-11-10T08:54:33Z</time>
      </trkpt>
      <trkpt lat="43.38716" lon="-1.8068">
        <ele>50.1259765625</ele>
        <time>2015-11-10T08:54:37Z</time>
      </trkpt>
      <trkpt lat="43.38709" lon="-1.80699">
        <ele>51.087158203125</ele>
        <time>2015-11-10T08:54:53Z</time>
      </trkpt>
      <trkpt lat="43.38717" lon="-1.80718">
        <ele>51.56787109375</ele>
        <time>2015-11-10T08:55:10Z</time>
      </trkpt>
      <trkpt lat="43.38723" lon="-1.80728">
        <ele>52.048583984375</ele>
        <time>2015-11-10T08:55:17Z</time>
      </trkpt>
      <trkpt lat="43.38728" lon="-1.8073">
        <ele>50.606567382812</ele>
        <time>2015-11-10T08:55:23Z</time>
      </trkpt>
      <trkpt lat="43.38731" lon="-1.80739">
        <ele>50.1259765625</ele>
        <time>2015-11-10T08:55:29Z</time>
      </trkpt>
      <trkpt lat="43.38729" lon="-1.80763">
        <ele>53.97119140625</ele>
        <time>2015-11-10T08:55:46Z</time>
      </trkpt>
      <trkpt lat="43.38723" lon="-1.80776">
        <ele>56.37451171875</ele>
        <time>2015-11-10T08:55:57Z</time>
      </trkpt>
      <trkpt lat="43.38718" lon="-1.80793">
        <ele>57.335815429688</ele>
        <time>2015-11-10T08:56:13Z</time>
      </trkpt>
      <trkpt lat="43.38712" lon="-1.80812">
        <ele>57.816528320312</ele>
        <time>2015-11-10T08:56:28Z</time>
      </trkpt>
      <trkpt lat="43.38706" lon="-1.80821">
        <ele>58.297119140625</ele>
        <time>2015-11-10T08:56:38Z</time>
      </trkpt>
      <trkpt lat="43.38697" lon="-1.80828">
        <ele>58.777709960938</ele>
        <time>2015-11-10T08:56:47Z</time>
      </trkpt>
      <trkpt lat="43.38695" lon="-1.80839">
        <ele>58.777709960938</ele>
        <time>2015-11-10T08:56:53Z</time>
      </trkpt>
      <trkpt lat="43.38701" lon="-1.8087">
        <ele>56.855102539062</ele>
        <time>2015-11-10T08:57:13Z</time>
      </trkpt>
      <trkpt lat="43.38704" lon="-1.80901">
        <ele>56.37451171875</ele>
        <time>2015-11-10T08:57:32Z</time>
      </trkpt>
      <trkpt lat="43.38696" lon="-1.80925">
        <ele>57.335815429688</ele>
        <time>2015-11-10T08:57:50Z</time>
      </trkpt>
      <trkpt lat="43.38687" lon="-1.80945">
        <ele>60.2197265625</ele>
        <time>2015-11-10T08:58:09Z</time>
      </trkpt>
      <trkpt lat="43.3868" lon="-1.80953">
        <ele>63.103637695312</ele>
        <time>2015-11-10T08:58:22Z</time>
      </trkpt>
      <trkpt lat="43.3868" lon="-1.80954">
        <ele>63.103637695312</ele>
        <time>2015-11-10T08:58:23Z</time>
      </trkpt>
      <trkpt lat="43.38672" lon="-1.80962">
        <ele>66.46826171875</ele>
        <time>2015-11-10T08:58:36Z</time>
      </trkpt>
      <trkpt lat="43.38667" lon="-1.80982">
        <ele>69.352294921875</ele>
        <time>2015-11-10T08:58:53Z</time>
      </trkpt>
      <trkpt lat="43.38666" lon="-1.81002">
        <ele>68.87158203125</ele>
        <time>2015-11-10T08:59:09Z</time>
      </trkpt>
      <trkpt lat="43.38666" lon="-1.81004">
        <ele>68.87158203125</ele>
        <time>2015-11-10T08:59:10Z</time>
      </trkpt>
      <trkpt lat="43.38665" lon="-1.81011">
        <ele>67.4296875</ele>
        <time>2015-11-10T08:59:14Z</time>
      </trkpt>
      <trkpt lat="43.38653" lon="-1.81034">
        <ele>65.507080078125</ele>
        <time>2015-11-10T08:59:32Z</time>
      </trkpt>
      <trkpt lat="43.38652" lon="-1.81037">
        <ele>66.46826171875</ele>
        <time>2015-11-10T08:59:34Z</time>
      </trkpt>
      <trkpt lat="43.38651" lon="-1.81044">
        <ele>65.987670898438</ele>
        <time>2015-11-10T08:59:38Z</time>
      </trkpt>
      <trkpt lat="43.38646" lon="-1.81061">
        <ele>65.987670898438</ele>
        <time>2015-11-10T08:59:49Z</time>
      </trkpt>
      <trkpt lat="43.38647" lon="-1.81064">
        <ele>65.0263671875</ele>
        <time>2015-11-10T08:59:51Z</time>
      </trkpt>
      <trkpt lat="43.38647" lon="-1.81069">
        <ele>64.545654296875</ele>
        <time>2015-11-10T08:59:55Z</time>
      </trkpt>
      <trkpt lat="43.38643" lon="-1.81091">
        <ele>62.622924804688</ele>
        <time>2015-11-10T09:00:09Z</time>
      </trkpt>
      <trkpt lat="43.3863" lon="-1.81111">
        <ele>64.065063476562</ele>
        <time>2015-11-10T09:00:25Z</time>
      </trkpt>
      <trkpt lat="43.38618" lon="-1.81134">
        <ele>66.46826171875</ele>
        <time>2015-11-10T09:00:42Z</time>
      </trkpt>
      <trkpt lat="43.38617" lon="-1.81145">
        <ele>67.4296875</ele>
        <time>2015-11-10T09:00:52Z</time>
      </trkpt>
      <trkpt lat="43.38625" lon="-1.81182">
        <ele>66.948974609375</ele>
        <time>2015-11-10T09:01:14Z</time>
      </trkpt>
      <trkpt lat="43.38631" lon="-1.81205">
        <ele>64.065063476562</ele>
        <time>2015-11-10T09:01:30Z</time>
      </trkpt>
      <trkpt lat="43.38634" lon="-1.8121">
        <ele>62.142333984375</ele>
        <time>2015-11-10T09:01:36Z</time>
      </trkpt>
      <trkpt lat="43.38636" lon="-1.81216">
        <ele>60.700317382812</ele>
        <time>2015-11-10T09:01:41Z</time>
      </trkpt>
      <trkpt lat="43.38636" lon="-1.81237">
        <ele>58.777709960938</ele>
        <time>2015-11-10T09:01:55Z</time>
      </trkpt>
      <trkpt lat="43.38646" lon="-1.8125">
        <ele>55.893798828125</ele>
        <time>2015-11-10T09:02:09Z</time>
      </trkpt>
      <trkpt lat="43.38648" lon="-1.81254">
        <ele>55.893798828125</ele>
        <time>2015-11-10T09:02:12Z</time>
      </trkpt>
      <trkpt lat="43.38649" lon="-1.8127">
        <ele>53.97119140625</ele>
        <time>2015-11-10T09:02:21Z</time>
      </trkpt>
      <trkpt lat="43.38648" lon="-1.81275">
        <ele>53.97119140625</ele>
        <time>2015-11-10T09:02:24Z</time>
      </trkpt>
      <trkpt lat="43.3865" lon="-1.813">
        <ele>50.606567382812</ele>
        <time>2015-11-10T09:02:40Z</time>
      </trkpt>
      <trkpt lat="43.38651" lon="-1.81301">
        <ele>50.1259765625</ele>
        <time>2015-11-10T09:02:41Z</time>
      </trkpt>
      <trkpt lat="43.38654" lon="-1.81315">
        <ele>48.683959960938</ele>
        <time>2015-11-10T09:02:53Z</time>
      </trkpt>
      <trkpt lat="43.38654" lon="-1.81316">
        <ele>48.203369140625</ele>
        <time>2015-11-10T09:02:54Z</time>
      </trkpt>
      <trkpt lat="43.38653" lon="-1.81322">
        <ele>48.203369140625</ele>
        <time>2015-11-10T09:02:59Z</time>
      </trkpt>
      <trkpt lat="43.38648" lon="-1.81332">
        <ele>47.241821289062</ele>
        <time>2015-11-10T09:03:17Z</time>
      </trkpt>
      <trkpt lat="43.38643" lon="-1.81335">
        <ele>45.799926757812</ele>
        <time>2015-11-10T09:03:24Z</time>
      </trkpt>
      <trkpt lat="43.38635" lon="-1.81343">
        <ele>42.435424804688</ele>
        <time>2015-11-10T09:03:41Z</time>
      </trkpt>
      <trkpt lat="43.38632" lon="-1.8135">
        <ele>40.032104492188</ele>
        <time>2015-11-10T09:03:54Z</time>
      </trkpt>
      <trkpt lat="43.3863" lon="-1.81351">
        <ele>39.070678710938</ele>
        <time>2015-11-10T09:03:58Z</time>
      </trkpt>
      <trkpt lat="43.38636" lon="-1.81369">
        <ele>37.628662109375</ele>
        <time>2015-11-10T09:04:13Z</time>
      </trkpt>
      <trkpt lat="43.38638" lon="-1.81372">
        <ele>36.66748046875</ele>
        <time>2015-11-10T09:04:16Z</time>
      </trkpt>
      <trkpt lat="43.38629" lon="-1.81373">
        <ele>33.302856445312</ele>
        <time>2015-11-10T09:04:29Z</time>
      </trkpt>
      <trkpt lat="43.38624" lon="-1.81372">
        <ele>31.860717773438</ele>
        <time>2015-11-10T09:04:35Z</time>
      </trkpt>
      <trkpt lat="43.38618" lon="-1.81352">
        <ele>28.976928710938</ele>
        <time>2015-11-10T09:04:50Z</time>
      </trkpt>
      <trkpt lat="43.38616" lon="-1.81348">
        <ele>28.976928710938</ele>
        <time>2015-11-10T09:04:53Z</time>
      </trkpt>
      <trkpt lat="43.38609" lon="-1.8134">
        <ele>28.496215820312</ele>
        <time>2015-11-10T09:05:01Z</time>
      </trkpt>
      <trkpt lat="43.38605" lon="-1.81341">
        <ele>27.534912109375</ele>
        <time>2015-11-10T09:05:05Z</time>
      </trkpt>
      <trkpt lat="43.38607" lon="-1.81353">
        <ele>25.131713867188</ele>
        <time>2015-11-10T09:05:18Z</time>
      </trkpt>
      <trkpt lat="43.38607" lon="-1.81354">
        <ele>24.651000976562</ele>
        <time>2015-11-10T09:05:19Z</time>
      </trkpt>
      <trkpt lat="43.38606" lon="-1.81373">
        <ele>21.766967773438</ele>
        <time>2015-11-10T09:05:35Z</time>
      </trkpt>
      <trkpt lat="43.3861" lon="-1.81387">
        <ele>19.36376953125</ele>
        <time>2015-11-10T09:05:51Z</time>
      </trkpt>
      <trkpt lat="43.38612" lon="-1.81397">
        <ele>16.96044921875</ele>
        <time>2015-11-10T09:06:07Z</time>
      </trkpt>
      <trkpt lat="43.38612" lon="-1.81408">
        <ele>15.518432617188</ele>
        <time>2015-11-10T09:06:24Z</time>
      </trkpt>
      <trkpt lat="43.38612" lon="-1.81408">
        <ele>15.518432617188</ele>
        <time>2015-11-10T09:06:25Z</time>
      </trkpt>
      <trkpt lat="43.38609" lon="-1.81413">
        <ele>15.518432617188</ele>
        <time>2015-11-10T09:06:29Z</time>
      </trkpt>
      <trkpt lat="43.386" lon="-1.81418">
        <ele>17.441162109375</ele>
        <time>2015-11-10T09:06:43Z</time>
      </trkpt>
      <trkpt lat="43.38592" lon="-1.8142">
        <ele>19.844360351562</ele>
        <time>2015-11-10T09:06:57Z</time>
      </trkpt>
      <trkpt lat="43.38588" lon="-1.8142">
        <ele>20.8056640625</ele>
        <time>2015-11-10T09:07:03Z</time>
      </trkpt>
      <trkpt lat="43.38585" lon="-1.8143">
        <ele>23.208984375</ele>
        <time>2015-11-10T09:07:18Z</time>
      </trkpt>
      <trkpt lat="43.38586" lon="-1.81443">
        <ele>26.092895507812</ele>
        <time>2015-11-10T09:07:32Z</time>
      </trkpt>
      <trkpt lat="43.38579" lon="-1.81446">
        <ele>28.015502929688</ele>
        <time>2015-11-10T09:07:43Z</time>
      </trkpt>
      <trkpt lat="43.3857" lon="-1.81447">
        <ele>30.418823242188</ele>
        <time>2015-11-10T09:07:54Z</time>
      </trkpt>
      <trkpt lat="43.38562" lon="-1.81445">
        <ele>33.302856445312</ele>
        <time>2015-11-10T09:08:10Z</time>
      </trkpt>
      <trkpt lat="43.38557" lon="-1.81444">
        <ele>35.7060546875</ele>
        <time>2015-11-10T09:08:20Z</time>
      </trkpt>
      <trkpt lat="43.38549" lon="-1.81448">
        <ele>37.628662109375</ele>
        <time>2015-11-10T09:08:34Z</time>
      </trkpt>
      <trkpt lat="43.38545" lon="-1.81464">
        <ele>40.993408203125</ele>
        <time>2015-11-10T09:08:52Z</time>
      </trkpt>
      <trkpt lat="43.38548" lon="-1.81469">
        <ele>38.590087890625</ele>
        <time>2015-11-10T09:09:04Z</time>
      </trkpt>
      <trkpt lat="43.38551" lon="-1.8149">
        <ele>36.66748046875</ele>
        <time>2015-11-10T09:09:21Z</time>
      </trkpt>
      <trkpt lat="43.38552" lon="-1.81495">
        <ele>35.7060546875</ele>
        <time>2015-11-10T09:09:26Z</time>
      </trkpt>
      <trkpt lat="43.38554" lon="-1.81524">
        <ele>36.66748046875</ele>
        <time>2015-11-10T09:09:43Z</time>
      </trkpt>
      <trkpt lat="43.38547" lon="-1.81539">
        <ele>34.744873046875</ele>
        <time>2015-11-10T09:09:59Z</time>
      </trkpt>
      <trkpt lat="43.38537" lon="-1.81551">
        <ele>32.822265625</ele>
        <time>2015-11-10T09:10:11Z</time>
      </trkpt>
      <trkpt lat="43.38535" lon="-1.81558">
        <ele>33.783447265625</ele>
        <time>2015-11-10T09:10:15Z</time>
      </trkpt>
      <trkpt lat="43.3853" lon="-1.81573">
        <ele>36.66748046875</ele>
        <time>2015-11-10T09:10:27Z</time>
      </trkpt>
      <trkpt lat="43.38527" lon="-1.81583">
        <ele>36.66748046875</ele>
        <time>2015-11-10T09:10:39Z</time>
      </trkpt>
      <trkpt lat="43.38525" lon="-1.81601">
        <ele>34.26416015625</ele>
        <time>2015-11-10T09:10:57Z</time>
      </trkpt>
      <trkpt lat="43.38529" lon="-1.81612">
        <ele>31.380126953125</ele>
        <time>2015-11-10T09:11:13Z</time>
      </trkpt>
      <trkpt lat="43.38534" lon="-1.81616">
        <ele>28.496215820312</ele>
        <time>2015-11-10T09:11:27Z</time>
      </trkpt>
      <trkpt lat="43.38542" lon="-1.81622">
        <ele>25.131713867188</ele>
        <time>2015-11-10T09:11:39Z</time>
      </trkpt>
      <trkpt lat="43.38546" lon="-1.81629">
        <ele>22.728271484375</ele>
        <time>2015-11-10T09:11:49Z</time>
      </trkpt>
      <trkpt lat="43.38547" lon="-1.81641">
        <ele>22.24755859375</ele>
        <time>2015-11-10T09:11:57Z</time>
      </trkpt>
      <trkpt lat="43.38551" lon="-1.81648">
        <ele>21.766967773438</ele>
        <time>2015-11-10T09:12:03Z</time>
      </trkpt>
      <trkpt lat="43.38549" lon="-1.81663">
        <ele>25.131713867188</ele>
        <time>2015-11-10T09:12:15Z</time>
      </trkpt>
      <trkpt lat="43.3854" lon="-1.81676">
        <ele>28.015502929688</ele>
        <time>2015-11-10T09:12:30Z</time>
      </trkpt>
      <trkpt lat="43.38532" lon="-1.81695">
        <ele>30.899536132812</ele>
        <time>2015-11-10T09:12:49Z</time>
      </trkpt>
      <trkpt lat="43.38531" lon="-1.81697">
        <ele>31.380126953125</ele>
        <time>2015-11-10T09:12:51Z</time>
      </trkpt>
      <trkpt lat="43.38518" lon="-1.81722">
        <ele>30.418823242188</ele>
        <time>2015-11-10T09:13:11Z</time>
      </trkpt>
      <trkpt lat="43.38499" lon="-1.81743">
        <ele>31.380126953125</ele>
        <time>2015-11-10T09:13:33Z</time>
      </trkpt>
      <trkpt lat="43.38495" lon="-1.81759">
        <ele>34.744873046875</ele>
        <time>2015-11-10T09:13:48Z</time>
      </trkpt>
      <trkpt lat="43.38495" lon="-1.8177">
        <ele>37.148071289062</ele>
        <time>2015-11-10T09:13:56Z</time>
      </trkpt>
      <trkpt lat="43.38487" lon="-1.81799">
        <ele>39.070678710938</ele>
        <time>2015-11-10T09:14:17Z</time>
      </trkpt>
      <trkpt lat="43.38481" lon="-1.81816">
        <ele>40.032104492188</ele>
        <time>2015-11-10T09:14:30Z</time>
      </trkpt>
      <trkpt lat="43.38485" lon="-1.81827">
        <ele>40.032104492188</ele>
        <time>2015-11-10T09:14:40Z</time>
      </trkpt>
      <trkpt lat="43.38498" lon="-1.81828">
        <ele>41.954711914062</ele>
        <time>2015-11-10T09:14:56Z</time>
      </trkpt>
      <trkpt lat="43.38499" lon="-1.81827">
        <ele>41.473999023438</ele>
        <time>2015-11-10T09:15:20Z</time>
      </trkpt>
      <trkpt lat="43.38497" lon="-1.81827">
        <ele>41.473999023438</ele>
        <time>2015-11-10T09:16:02Z</time>
      </trkpt>
      <trkpt lat="43.38497" lon="-1.81825">
        <ele>40.993408203125</ele>
        <time>2015-11-10T09:16:21Z</time>
      </trkpt>
      <trkpt lat="43.38493" lon="-1.81833">
        <ele>41.954711914062</ele>
        <time>2015-11-10T09:16:43Z</time>
      </trkpt>
      <trkpt lat="43.3849" lon="-1.8184">
        <ele>42.435424804688</ele>
        <time>2015-11-10T09:16:50Z</time>
      </trkpt>
      <trkpt lat="43.38477" lon="-1.8186">
        <ele>44.838623046875</ele>
        <time>2015-11-10T09:17:10Z</time>
      </trkpt>
      <trkpt lat="43.38468" lon="-1.81875">
        <ele>45.799926757812</ele>
        <time>2015-11-10T09:17:24Z</time>
      </trkpt>
      <trkpt lat="43.38466" lon="-1.81882">
        <ele>45.319213867188</ele>
        <time>2015-11-10T09:17:30Z</time>
      </trkpt>
      <trkpt lat="43.38466" lon="-1.81894">
        <ele>41.954711914062</ele>
        <time>2015-11-10T09:17:40Z</time>
      </trkpt>
      <trkpt lat="43.38467" lon="-1.81903">
        <ele>40.032104492188</ele>
        <time>2015-11-10T09:17:48Z</time>
      </trkpt>
      <trkpt lat="43.38466" lon="-1.81922">
        <ele>37.148071289062</ele>
        <time>2015-11-10T09:18:06Z</time>
      </trkpt>
      <trkpt lat="43.38466" lon="-1.81937">
        <ele>33.783447265625</ele>
        <time>2015-11-10T09:18:25Z</time>
      </trkpt>
      <trkpt lat="43.38459" lon="-1.81943">
        <ele>31.380126953125</ele>
        <time>2015-11-10T09:18:36Z</time>
      </trkpt>
      <trkpt lat="43.38442" lon="-1.81966">
        <ele>30.899536132812</ele>
        <time>2015-11-10T09:18:56Z</time>
      </trkpt>
      <trkpt lat="43.38423" lon="-1.81982">
        <ele>29.45751953125</ele>
        <time>2015-11-10T09:19:14Z</time>
      </trkpt>
      <trkpt lat="43.38415" lon="-1.81989">
        <ele>31.380126953125</ele>
        <time>2015-11-10T09:19:24Z</time>
      </trkpt>
      <trkpt lat="43.38413" lon="-1.81993">
        <ele>31.860717773438</ele>
        <time>2015-11-10T09:19:27Z</time>
      </trkpt>
      <trkpt lat="43.38406" lon="-1.82">
        <ele>32.341552734375</ele>
        <time>2015-11-10T09:19:34Z</time>
      </trkpt>
      <trkpt lat="43.38398" lon="-1.8201">
        <ele>34.26416015625</ele>
        <time>2015-11-10T09:19:50Z</time>
      </trkpt>
      <trkpt lat="43.38396" lon="-1.82008">
        <ele>34.26416015625</ele>
        <time>2015-11-10T09:20:47Z</time>
      </trkpt>
      <trkpt lat="43.38392" lon="-1.82008">
        <ele>32.822265625</ele>
        <time>2015-11-10T09:20:55Z</time>
      </trkpt>
      <trkpt lat="43.38387" lon="-1.82008">
        <ele>31.380126953125</ele>
        <time>2015-11-10T09:21:00Z</time>
      </trkpt>
      <trkpt lat="43.38385" lon="-1.82012">
        <ele>29.938110351562</ele>
        <time>2015-11-10T09:21:03Z</time>
      </trkpt>
      <trkpt lat="43.38382" lon="-1.82032">
        <ele>27.054321289062</ele>
        <time>2015-11-10T09:21:18Z</time>
      </trkpt>
      <trkpt lat="43.38378" lon="-1.82044">
        <ele>25.6123046875</ele>
        <time>2015-11-10T09:21:28Z</time>
      </trkpt>
      <trkpt lat="43.38372" lon="-1.82048">
        <ele>24.651000976562</ele>
        <time>2015-11-10T09:21:35Z</time>
      </trkpt>
      <trkpt lat="43.38369" lon="-1.82061">
        <ele>20.8056640625</ele>
        <time>2015-11-10T09:21:49Z</time>
      </trkpt>
      <trkpt lat="43.38371" lon="-1.82071">
        <ele>17.441162109375</ele>
        <time>2015-11-10T09:22:04Z</time>
      </trkpt>
      <trkpt lat="43.38375" lon="-1.82079">
        <ele>15.518432617188</ele>
        <time>2015-11-10T09:22:19Z</time>
      </trkpt>
      <trkpt lat="43.38371" lon="-1.82083">
        <ele>15.037719726562</ele>
        <time>2015-11-10T09:22:24Z</time>
      </trkpt>
      <trkpt lat="43.38354" lon="-1.82096">
        <ele>15.518432617188</ele>
        <time>2015-11-10T09:22:43Z</time>
      </trkpt>
      <trkpt lat="43.38352" lon="-1.82096">
        <ele>15.9990234375</ele>
        <time>2015-11-10T09:22:45Z</time>
      </trkpt>
      <trkpt lat="43.38329" lon="-1.82095">
        <ele>19.844360351562</ele>
        <time>2015-11-10T09:23:07Z</time>
      </trkpt>
      <trkpt lat="43.3832" lon="-1.82103">
        <ele>22.24755859375</ele>
        <time>2015-11-10T09:23:20Z</time>
      </trkpt>
      <trkpt lat="43.38304" lon="-1.82112">
        <ele>22.728271484375</ele>
        <time>2015-11-10T09:23:35Z</time>
      </trkpt>
      <trkpt lat="43.38302" lon="-1.82113">
        <ele>22.728271484375</ele>
        <time>2015-11-10T09:23:37Z</time>
      </trkpt>
      <trkpt lat="43.38289" lon="-1.82134">
        <ele>22.24755859375</ele>
        <time>2015-11-10T09:23:52Z</time>
      </trkpt>
      <trkpt lat="43.38285" lon="-1.82144">
        <ele>21.286376953125</ele>
        <time>2015-11-10T09:23:59Z</time>
      </trkpt>
      <trkpt lat="43.38281" lon="-1.82158">
        <ele>18.883056640625</ele>
        <time>2015-11-10T09:24:10Z</time>
      </trkpt>
      <trkpt lat="43.38277" lon="-1.82176">
        <ele>17.441162109375</ele>
        <time>2015-11-10T09:24:24Z</time>
      </trkpt>
      <trkpt lat="43.38276" lon="-1.82181">
        <ele>16.479736328125</ele>
        <time>2015-11-10T09:24:27Z</time>
      </trkpt>
      <trkpt lat="43.3827" lon="-1.82205">
        <ele>15.037719726562</ele>
        <time>2015-11-10T09:24:41Z</time>
      </trkpt>
      <trkpt lat="43.38265" lon="-1.82227">
        <ele>11.673217773438</ele>
        <time>2015-11-10T09:24:56Z</time>
      </trkpt>
      <trkpt lat="43.38264" lon="-1.82237">
        <ele>11.192504882812</ele>
        <time>2015-11-10T09:25:04Z</time>
      </trkpt>
      <trkpt lat="43.38266" lon="-1.82247">
        <ele>10.231201171875</ele>
        <time>2015-11-10T09:25:11Z</time>
      </trkpt>
      <trkpt lat="43.38262" lon="-1.82264">
        <ele>10.711791992188</ele>
        <time>2015-11-10T09:25:25Z</time>
      </trkpt>
      <trkpt lat="43.3826" lon="-1.82264">
        <ele>10.231201171875</ele>
        <time>2015-11-10T09:25:43Z</time>
      </trkpt>
      <trkpt lat="43.38259" lon="-1.82266">
        <ele>10.231201171875</ele>
        <time>2015-11-10T09:25:44Z</time>
      </trkpt>
      <trkpt lat="43.38261" lon="-1.82283">
        <ele>10.711791992188</ele>
        <time>2015-11-10T09:25:59Z</time>
      </trkpt>
      <trkpt lat="43.38265" lon="-1.82282">
        <ele>10.711791992188</ele>
        <time>2015-11-10T09:26:34Z</time>
      </trkpt>
      <trkpt lat="43.38262" lon="-1.8228">
        <ele>11.192504882812</ele>
        <time>2015-11-10T09:27:04Z</time>
      </trkpt>
      <trkpt lat="43.3826" lon="-1.82284">
        <ele>11.192504882812</ele>
        <time>2015-11-10T09:27:48Z</time>
      </trkpt>
      <trkpt lat="43.38259" lon="-1.8228">
        <ele>11.192504882812</ele>
        <time>2015-11-10T09:28:04Z</time>
      </trkpt>
      <trkpt lat="43.38257" lon="-1.82269">
        <ele>10.711791992188</ele>
        <time>2015-11-10T09:28:17Z</time>
      </trkpt>
      <trkpt lat="43.38264" lon="-1.82266">
        <ele>11.192504882812</ele>
        <time>2015-11-10T09:28:31Z</time>
      </trkpt>
      <trkpt lat="43.38273" lon="-1.82265">
        <ele>12.15380859375</ele>
        <time>2015-11-10T09:28:48Z</time>
      </trkpt>
      <trkpt lat="43.38278" lon="-1.8226">
        <ele>14.557006835938</ele>
        <time>2015-11-10T09:29:01Z</time>
      </trkpt>
      <trkpt lat="43.38288" lon="-1.82254">
        <ele>15.518432617188</ele>
        <time>2015-11-10T09:29:15Z</time>
      </trkpt>
      <trkpt lat="43.38293" lon="-1.82247">
        <ele>16.479736328125</ele>
        <time>2015-11-10T09:29:29Z</time>
      </trkpt>
      <trkpt lat="43.38294" lon="-1.82246">
        <ele>17.921752929688</ele>
        <time>2015-11-10T09:29:31Z</time>
      </trkpt>
      <trkpt lat="43.38297" lon="-1.82244">
        <ele>18.883056640625</ele>
        <time>2015-11-10T09:29:36Z</time>
      </trkpt>
      <trkpt lat="43.38319" lon="-1.82228">
        <ele>19.36376953125</ele>
        <time>2015-11-10T09:29:59Z</time>
      </trkpt>
      <trkpt lat="43.38332" lon="-1.82216">
        <ele>19.844360351562</ele>
        <time>2015-11-10T09:30:16Z</time>
      </trkpt>
      <trkpt lat="43.38346" lon="-1.82208">
        <ele>21.286376953125</ele>
        <time>2015-11-10T09:30:32Z</time>
      </trkpt>
      <trkpt lat="43.38353" lon="-1.82208">
        <ele>23.689575195312</ele>
        <time>2015-11-10T09:30:46Z</time>
      </trkpt>
      <trkpt lat="43.38358" lon="-1.8221">
        <ele>26.092895507812</ele>
        <time>2015-11-10T09:30:59Z</time>
      </trkpt>
      <trkpt lat="43.38361" lon="-1.82217">
        <ele>28.496215820312</ele>
        <time>2015-11-10T09:31:11Z</time>
      </trkpt>
      <trkpt lat="43.38362" lon="-1.82218">
        <ele>27.534912109375</ele>
        <time>2015-11-10T09:31:13Z</time>
      </trkpt>
      <trkpt lat="43.38379" lon="-1.82223">
        <ele>28.976928710938</ele>
        <time>2015-11-10T09:31:31Z</time>
      </trkpt>
      <trkpt lat="43.38387" lon="-1.82216">
        <ele>31.860717773438</ele>
        <time>2015-11-10T09:31:45Z</time>
      </trkpt>
      <trkpt lat="43.38393" lon="-1.82213">
        <ele>33.302856445312</ele>
        <time>2015-11-10T09:31:55Z</time>
      </trkpt>
      <trkpt lat="43.38403" lon="-1.82211">
        <ele>34.26416015625</ele>
        <time>2015-11-10T09:32:09Z</time>
      </trkpt>
      <trkpt lat="43.3841" lon="-1.82214">
        <ele>35.7060546875</ele>
        <time>2015-11-10T09:32:22Z</time>
      </trkpt>
      <trkpt lat="43.38412" lon="-1.8222">
        <ele>36.186767578125</ele>
        <time>2015-11-10T09:32:36Z</time>
      </trkpt>
      <trkpt lat="43.38413" lon="-1.82222">
        <ele>35.225463867188</ele>
        <time>2015-11-10T09:32:41Z</time>
      </trkpt>
      <trkpt lat="43.3843" lon="-1.82252">
        <ele>36.186767578125</ele>
        <time>2015-11-10T09:33:06Z</time>
      </trkpt>
      <trkpt lat="43.38443" lon="-1.82274">
        <ele>38.590087890625</ele>
        <time>2015-11-10T09:33:25Z</time>
      </trkpt>
      <trkpt lat="43.38446" lon="-1.82283">
        <ele>39.55126953125</ele>
        <time>2015-11-10T09:33:39Z</time>
      </trkpt>
      <trkpt lat="43.38443" lon="-1.82293">
        <ele>40.032104492188</ele>
        <time>2015-11-10T09:33:54Z</time>
      </trkpt>
      <trkpt lat="43.38435" lon="-1.82305">
        <ele>41.473999023438</ele>
        <time>2015-11-10T09:34:10Z</time>
      </trkpt>
      <trkpt lat="43.38431" lon="-1.8231">
        <ele>42.435424804688</ele>
        <time>2015-11-10T09:34:30Z</time>
      </trkpt>
      <trkpt lat="43.38431" lon="-1.82313">
        <ele>42.435424804688</ele>
        <time>2015-11-10T09:34:32Z</time>
      </trkpt>
      <trkpt lat="43.3842" lon="-1.82339">
        <ele>45.319213867188</ele>
        <time>2015-11-10T09:34:53Z</time>
      </trkpt>
      <trkpt lat="43.38418" lon="-1.82341">
        <ele>46.280639648438</ele>
        <time>2015-11-10T09:34:55Z</time>
      </trkpt>
      <trkpt lat="43.38412" lon="-1.82352">
        <ele>45.799926757812</ele>
        <time>2015-11-10T09:35:04Z</time>
      </trkpt>
      <trkpt lat="43.38407" lon="-1.82359">
        <ele>45.319213867188</ele>
        <time>2015-11-10T09:35:13Z</time>
      </trkpt>
      <trkpt lat="43.3839" lon="-1.82378">
        <ele>43.877319335938</ele>
        <time>2015-11-10T09:35:31Z</time>
      </trkpt>
      <trkpt lat="43.38367" lon="-1.82399">
        <ele>47.241821289062</ele>
        <time>2015-11-10T09:35:54Z</time>
      </trkpt>
      <trkpt lat="43.38358" lon="-1.82407">
        <ele>48.683959960938</ele>
        <time>2015-11-10T09:36:04Z</time>
      </trkpt>
      <trkpt lat="43.3835" lon="-1.82416">
        <ele>46.76123046875</ele>
        <time>2015-11-10T09:36:13Z</time>
      </trkpt>
      <trkpt lat="43.3834" lon="-1.82432">
        <ele>45.319213867188</ele>
        <time>2015-11-10T09:36:28Z</time>
      </trkpt>
      <trkpt lat="43.38339" lon="-1.82433">
        <ele>45.319213867188</ele>
        <time>2015-11-10T09:36:29Z</time>
      </trkpt>
      <trkpt lat="43.38337" lon="-1.82437">
        <ele>43.396606445312</ele>
        <time>2015-11-10T09:36:33Z</time>
      </trkpt>
      <trkpt lat="43.38336" lon="-1.82449">
        <ele>42.435424804688</ele>
        <time>2015-11-10T09:36:40Z</time>
      </trkpt>
      <trkpt lat="43.38335" lon="-1.82455">
        <ele>41.954711914062</ele>
        <time>2015-11-10T09:36:44Z</time>
      </trkpt>
      <trkpt lat="43.38333" lon="-1.82486">
        <ele>41.954711914062</ele>
        <time>2015-11-10T09:37:02Z</time>
      </trkpt>
      <trkpt lat="43.38323" lon="-1.82517">
        <ele>41.473999023438</ele>
        <time>2015-11-10T09:37:22Z</time>
      </trkpt>
      <trkpt lat="43.38324" lon="-1.82524">
        <ele>41.473999023438</ele>
        <time>2015-11-10T09:37:27Z</time>
      </trkpt>
      <trkpt lat="43.38326" lon="-1.82526">
        <ele>41.954711914062</ele>
        <time>2015-11-10T09:37:29Z</time>
      </trkpt>
      <trkpt lat="43.38328" lon="-1.82534">
        <ele>44.358032226562</ele>
        <time>2015-11-10T09:37:35Z</time>
      </trkpt>
      <trkpt lat="43.38329" lon="-1.8255">
        <ele>47.241821289062</ele>
        <time>2015-11-10T09:37:51Z</time>
      </trkpt>
      <trkpt lat="43.38331" lon="-1.82576">
        <ele>47.722534179688</ele>
        <time>2015-11-10T09:38:07Z</time>
      </trkpt>
      <trkpt lat="43.38332" lon="-1.82608">
        <ele>47.241821289062</ele>
        <time>2015-11-10T09:38:26Z</time>
      </trkpt>
      <trkpt lat="43.38336" lon="-1.82651">
        <ele>47.722534179688</ele>
        <time>2015-11-10T09:38:50Z</time>
      </trkpt>
      <trkpt lat="43.38339" lon="-1.82693">
        <ele>44.838623046875</ele>
        <time>2015-11-10T09:39:14Z</time>
      </trkpt>
      <trkpt lat="43.38345" lon="-1.82722">
        <ele>41.954711914062</ele>
        <time>2015-11-10T09:39:31Z</time>
      </trkpt>
      <trkpt lat="43.38352" lon="-1.82743">
        <ele>38.590087890625</ele>
        <time>2015-11-10T09:39:45Z</time>
      </trkpt>
      <trkpt lat="43.38353" lon="-1.82773">
        <ele>36.66748046875</ele>
        <time>2015-11-10T09:40:04Z</time>
      </trkpt>
      <trkpt lat="43.38349" lon="-1.82793">
        <ele>33.783447265625</ele>
        <time>2015-11-10T09:40:18Z</time>
      </trkpt>
      <trkpt lat="43.38347" lon="-1.82812">
        <ele>30.418823242188</ele>
        <time>2015-11-10T09:40:33Z</time>
      </trkpt>
      <trkpt lat="43.38346" lon="-1.8282">
        <ele>29.45751953125</ele>
        <time>2015-11-10T09:40:40Z</time>
      </trkpt>
      <trkpt lat="43.38351" lon="-1.82832">
        <ele>27.534912109375</ele>
        <time>2015-11-10T09:40:54Z</time>
      </trkpt>
      <trkpt lat="43.38352" lon="-1.82847">
        <ele>26.092895507812</ele>
        <time>2015-11-10T09:41:09Z</time>
      </trkpt>
      <trkpt lat="43.38353" lon="-1.82863">
        <ele>24.170288085938</ele>
        <time>2015-11-10T09:41:24Z</time>
      </trkpt>
      <trkpt lat="43.38355" lon="-1.82883">
        <ele>25.131713867188</ele>
        <time>2015-11-10T09:41:38Z</time>
      </trkpt>
      <trkpt lat="43.38355" lon="-1.82886">
        <ele>24.651000976562</ele>
        <time>2015-11-10T09:41:40Z</time>
      </trkpt>
      <trkpt lat="43.3835" lon="-1.82918">
        <ele>25.6123046875</ele>
        <time>2015-11-10T09:42:02Z</time>
      </trkpt>
      <trkpt lat="43.38348" lon="-1.82929">
        <ele>25.6123046875</ele>
        <time>2015-11-10T09:42:09Z</time>
      </trkpt>
      <trkpt lat="43.3834" lon="-1.82943">
        <ele>26.573608398438</ele>
        <time>2015-11-10T09:42:20Z</time>
      </trkpt>
      <trkpt lat="43.3833" lon="-1.82963">
        <ele>27.534912109375</ele>
        <time>2015-11-10T09:42:36Z</time>
      </trkpt>
      <trkpt lat="43.38316" lon="-1.82983">
        <ele>24.651000976562</ele>
        <time>2015-11-10T09:42:55Z</time>
      </trkpt>
      <trkpt lat="43.38319" lon="-1.82998">
        <ele>27.054321289062</ele>
        <time>2015-11-10T09:43:10Z</time>
      </trkpt>
      <trkpt lat="43.38327" lon="-1.83004">
        <ele>28.976928710938</ele>
        <time>2015-11-10T09:43:25Z</time>
      </trkpt>
      <trkpt lat="43.3833" lon="-1.83011">
        <ele>30.899536132812</ele>
        <time>2015-11-10T09:43:32Z</time>
      </trkpt>
      <trkpt lat="43.38317" lon="-1.8303">
        <ele>32.341552734375</ele>
        <time>2015-11-10T09:43:49Z</time>
      </trkpt>
      <trkpt lat="43.38311" lon="-1.83037">
        <ele>32.341552734375</ele>
        <time>2015-11-10T09:43:56Z</time>
      </trkpt>
      <trkpt lat="43.38308" lon="-1.83045">
        <ele>31.860717773438</ele>
        <time>2015-11-10T09:44:02Z</time>
      </trkpt>
      <trkpt lat="43.38296" lon="-1.83075">
        <ele>28.976928710938</ele>
        <time>2015-11-10T09:44:23Z</time>
      </trkpt>
      <trkpt lat="43.38296" lon="-1.83089">
        <ele>27.054321289062</ele>
        <time>2015-11-10T09:44:35Z</time>
      </trkpt>
      <trkpt lat="43.38298" lon="-1.83095">
        <ele>26.573608398438</ele>
        <time>2015-11-10T09:44:39Z</time>
      </trkpt>
      <trkpt lat="43.38298" lon="-1.83126">
        <ele>27.534912109375</ele>
        <time>2015-11-10T09:44:59Z</time>
      </trkpt>
      <trkpt lat="43.38299" lon="-1.83133">
        <ele>28.496215820312</ele>
        <time>2015-11-10T09:45:04Z</time>
      </trkpt>
      <trkpt lat="43.38303" lon="-1.8314">
        <ele>30.899536132812</ele>
        <time>2015-11-10T09:45:11Z</time>
      </trkpt>
      <trkpt lat="43.3831" lon="-1.83149">
        <ele>30.899536132812</ele>
        <time>2015-11-10T09:45:20Z</time>
      </trkpt>
      <trkpt lat="43.38316" lon="-1.83166">
        <ele>28.496215820312</ele>
        <time>2015-11-10T09:45:33Z</time>
      </trkpt>
      <trkpt lat="43.38318" lon="-1.83187">
        <ele>31.380126953125</ele>
        <time>2015-11-10T09:45:51Z</time>
      </trkpt>
      <trkpt lat="43.383" lon="-1.83209">
        <ele>32.341552734375</ele>
        <time>2015-11-10T09:46:12Z</time>
      </trkpt>
      <trkpt lat="43.38294" lon="-1.83216">
        <ele>31.860717773438</ele>
        <time>2015-11-10T09:46:27Z</time>
      </trkpt>
      <trkpt lat="43.38295" lon="-1.83216">
        <ele>31.860717773438</ele>
        <time>2015-11-10T09:46:54Z</time>
      </trkpt>
      <trkpt lat="43.38296" lon="-1.83216">
        <ele>31.860717773438</ele>
        <time>2015-11-10T09:47:35Z</time>
      </trkpt>
      <trkpt lat="43.38294" lon="-1.83219">
        <ele>31.860717773438</ele>
        <time>2015-11-10T09:48:03Z</time>
      </trkpt>
      <trkpt lat="43.38287" lon="-1.83232">
        <ele>33.302856445312</ele>
        <time>2015-11-10T09:48:18Z</time>
      </trkpt>
      <trkpt lat="43.38287" lon="-1.83242">
        <ele>32.822265625</ele>
        <time>2015-11-10T09:48:27Z</time>
      </trkpt>
      <trkpt lat="43.38279" lon="-1.83269">
        <ele>33.302856445312</ele>
        <time>2015-11-10T09:48:46Z</time>
      </trkpt>
      <trkpt lat="43.38274" lon="-1.833">
        <ele>34.26416015625</ele>
        <time>2015-11-10T09:49:06Z</time>
      </trkpt>
      <trkpt lat="43.3825" lon="-1.83316">
        <ele>34.26416015625</ele>
        <time>2015-11-10T09:49:27Z</time>
      </trkpt>
      <trkpt lat="43.38244" lon="-1.83337">
        <ele>33.302856445312</ele>
        <time>2015-11-10T09:49:42Z</time>
      </trkpt>
      <trkpt lat="43.3824" lon="-1.83355">
        <ele>36.186767578125</ele>
        <time>2015-11-10T09:49:57Z</time>
      </trkpt>
      <trkpt lat="43.38234" lon="-1.83374">
        <ele>35.7060546875</ele>
        <time>2015-11-10T09:50:10Z</time>
      </trkpt>
      <trkpt lat="43.38222" lon="-1.83395">
        <ele>35.7060546875</ele>
        <time>2015-11-10T09:50:27Z</time>
      </trkpt>
      <trkpt lat="43.38211" lon="-1.83415">
        <ele>33.302856445312</ele>
        <time>2015-11-10T09:50:44Z</time>
      </trkpt>
      <trkpt lat="43.38201" lon="-1.83431">
        <ele>29.938110351562</ele>
        <time>2015-11-10T09:51:00Z</time>
      </trkpt>
      <trkpt lat="43.38193" lon="-1.83445">
        <ele>27.054321289062</ele>
        <time>2015-11-10T09:51:16Z</time>
      </trkpt>
      <trkpt lat="43.38185" lon="-1.83462">
        <ele>24.170288085938</ele>
        <time>2015-11-10T09:51:34Z</time>
      </trkpt>
      <trkpt lat="43.38182" lon="-1.8347">
        <ele>23.689575195312</ele>
        <time>2015-11-10T09:51:41Z</time>
      </trkpt>
      <trkpt lat="43.38174" lon="-1.83476">
        <ele>22.24755859375</ele>
        <time>2015-11-10T09:51:50Z</time>
      </trkpt>
      <trkpt lat="43.38171" lon="-1.83481">
        <ele>22.24755859375</ele>
        <time>2015-11-10T09:51:56Z</time>
      </trkpt>
      <trkpt lat="43.38164" lon="-1.83495">
        <ele>24.170288085938</ele>
        <time>2015-11-10T09:52:10Z</time>
      </trkpt>
      <trkpt lat="43.38153" lon="-1.83499">
        <ele>26.573608398438</ele>
        <time>2015-11-10T09:52:26Z</time>
      </trkpt>
      <trkpt lat="43.38148" lon="-1.83501">
        <ele>27.054321289062</ele>
        <time>2015-11-10T09:52:32Z</time>
      </trkpt>
      <trkpt lat="43.38144" lon="-1.83505">
        <ele>27.054321289062</ele>
        <time>2015-11-10T09:52:37Z</time>
      </trkpt>
      <trkpt lat="43.38131" lon="-1.83515">
        <ele>28.015502929688</ele>
        <time>2015-11-10T09:52:52Z</time>
      </trkpt>
      <trkpt lat="43.38116" lon="-1.83528">
        <ele>30.418823242188</ele>
        <time>2015-11-10T09:53:12Z</time>
      </trkpt>
      <trkpt lat="43.38115" lon="-1.83529">
        <ele>30.418823242188</ele>
        <time>2015-11-10T09:53:13Z</time>
      </trkpt>
      <trkpt lat="43.38116" lon="-1.83535">
        <ele>28.976928710938</ele>
        <time>2015-11-10T09:53:17Z</time>
      </trkpt>
      <trkpt lat="43.38111" lon="-1.83549">
        <ele>29.938110351562</ele>
        <time>2015-11-10T09:53:27Z</time>
      </trkpt>
      <trkpt lat="43.38112" lon="-1.83558">
        <ele>31.380126953125</ele>
        <time>2015-11-10T09:53:35Z</time>
      </trkpt>
      <trkpt lat="43.38108" lon="-1.83567">
        <ele>32.341552734375</ele>
        <time>2015-11-10T09:53:44Z</time>
      </trkpt>
      <trkpt lat="43.38098" lon="-1.83593">
        <ele>35.225463867188</ele>
        <time>2015-11-10T09:54:05Z</time>
      </trkpt>
      <trkpt lat="43.38094" lon="-1.83606">
        <ele>38.109375</ele>
        <time>2015-11-10T09:54:20Z</time>
      </trkpt>
      <trkpt lat="43.38094" lon="-1.83607">
        <ele>38.109375</ele>
        <time>2015-11-10T09:54:21Z</time>
      </trkpt>
      <trkpt lat="43.38095" lon="-1.8361">
        <ele>38.590087890625</ele>
        <time>2015-11-10T09:54:24Z</time>
      </trkpt>
      <trkpt lat="43.38099" lon="-1.83626">
        <ele>38.590087890625</ele>
        <time>2015-11-10T09:54:38Z</time>
      </trkpt>
      <trkpt lat="43.38092" lon="-1.83655">
        <ele>38.590087890625</ele>
        <time>2015-11-10T09:54:58Z</time>
      </trkpt>
      <trkpt lat="43.38088" lon="-1.8369">
        <ele>38.109375</ele>
        <time>2015-11-10T09:55:19Z</time>
      </trkpt>
      <trkpt lat="43.38093" lon="-1.83735">
        <ele>38.109375</ele>
        <time>2015-11-10T09:55:44Z</time>
      </trkpt>
      <trkpt lat="43.3809" lon="-1.83776">
        <ele>37.148071289062</ele>
        <time>2015-11-10T09:56:07Z</time>
      </trkpt>
      <trkpt lat="43.38074" lon="-1.83806">
        <ele>37.628662109375</ele>
        <time>2015-11-10T09:56:28Z</time>
      </trkpt>
      <trkpt lat="43.38053" lon="-1.83835">
        <ele>39.55126953125</ele>
        <time>2015-11-10T09:56:51Z</time>
      </trkpt>
      <trkpt lat="43.38044" lon="-1.83841">
        <ele>40.512817382812</ele>
        <time>2015-11-10T09:56:59Z</time>
      </trkpt>
      <trkpt lat="43.38022" lon="-1.83855">
        <ele>41.954711914062</ele>
        <time>2015-11-10T09:57:18Z</time>
      </trkpt>
      <trkpt lat="43.37996" lon="-1.83874">
        <ele>42.916015625</ele>
        <time>2015-11-10T09:57:41Z</time>
      </trkpt>
      <trkpt lat="43.37969" lon="-1.8388">
        <ele>44.358032226562</ele>
        <time>2015-11-10T09:58:04Z</time>
      </trkpt>
      <trkpt lat="43.37955" lon="-1.83864">
        <ele>44.838623046875</ele>
        <time>2015-11-10T09:58:23Z</time>
      </trkpt>
      <trkpt lat="43.37943" lon="-1.83868">
        <ele>43.877319335938</ele>
        <time>2015-11-10T09:58:42Z</time>
      </trkpt>
      <trkpt lat="43.37937" lon="-1.83874">
        <ele>41.954711914062</ele>
        <time>2015-11-10T09:58:52Z</time>
      </trkpt>
      <trkpt lat="43.37933" lon="-1.83875">
        <ele>40.512817382812</ele>
        <time>2015-11-10T09:59:09Z</time>
      </trkpt>
      <trkpt lat="43.37926" lon="-1.83881">
        <ele>37.148071289062</ele>
        <time>2015-11-10T09:59:22Z</time>
      </trkpt>
      <trkpt lat="43.37925" lon="-1.83892">
        <ele>35.7060546875</ele>
        <time>2015-11-10T09:59:37Z</time>
      </trkpt>
      <trkpt lat="43.37922" lon="-1.83905">
        <ele>32.341552734375</ele>
        <time>2015-11-10T09:59:50Z</time>
      </trkpt>
      <trkpt lat="43.3792" lon="-1.83922">
        <ele>29.45751953125</ele>
        <time>2015-11-10T10:00:09Z</time>
      </trkpt>
      <trkpt lat="43.37923" lon="-1.83938">
        <ele>27.054321289062</ele>
        <time>2015-11-10T10:00:27Z</time>
      </trkpt>
      <trkpt lat="43.37918" lon="-1.83953">
        <ele>24.170288085938</ele>
        <time>2015-11-10T10:00:41Z</time>
      </trkpt>
      <trkpt lat="43.37911" lon="-1.83961">
        <ele>21.766967773438</ele>
        <time>2015-11-10T10:00:54Z</time>
      </trkpt>
      <trkpt lat="43.37911" lon="-1.83962">
        <ele>21.766967773438</ele>
        <time>2015-11-10T10:00:55Z</time>
      </trkpt>
      <trkpt lat="43.37902" lon="-1.83974">
        <ele>20.8056640625</ele>
        <time>2015-11-10T10:01:08Z</time>
      </trkpt>
      <trkpt lat="43.37896" lon="-1.83978">
        <ele>19.844360351562</ele>
        <time>2015-11-10T10:01:15Z</time>
      </trkpt>
      <trkpt lat="43.37887" lon="-1.83993">
        <ele>18.40234375</ele>
        <time>2015-11-10T10:01:29Z</time>
      </trkpt>
      <trkpt lat="43.37881" lon="-1.84003">
        <ele>15.518432617188</ele>
        <time>2015-11-10T10:01:40Z</time>
      </trkpt>
      <trkpt lat="43.37873" lon="-1.84009">
        <ele>12.15380859375</ele>
        <time>2015-11-10T10:01:54Z</time>
      </trkpt>
      <trkpt lat="43.37865" lon="-1.84015">
        <ele>12.15380859375</ele>
        <time>2015-11-10T10:02:12Z</time>
      </trkpt>
      <trkpt lat="43.37861" lon="-1.84016">
        <ele>12.15380859375</ele>
        <time>2015-11-10T10:02:29Z</time>
      </trkpt>
      <trkpt lat="43.37858" lon="-1.84016">
        <ele>11.673217773438</ele>
        <time>2015-11-10T10:02:44Z</time>
      </trkpt>
      <trkpt lat="43.37856" lon="-1.84016">
        <ele>12.15380859375</ele>
        <time>2015-11-10T10:02:59Z</time>
      </trkpt>
      <trkpt lat="43.37855" lon="-1.84015">
        <ele>11.673217773438</ele>
        <time>2015-11-10T10:03:32Z</time>
      </trkpt>
      <trkpt lat="43.37852" lon="-1.8401">
        <ele>12.634399414062</ele>
        <time>2015-11-10T10:03:50Z</time>
      </trkpt>
      <trkpt lat="43.37848" lon="-1.84004">
        <ele>14.557006835938</ele>
        <time>2015-11-10T10:04:05Z</time>
      </trkpt>
      <trkpt lat="43.37845" lon="-1.83996">
        <ele>17.921752929688</ele>
        <time>2015-11-10T10:04:18Z</time>
      </trkpt>
      <trkpt lat="43.37842" lon="-1.83985">
        <ele>19.844360351562</ele>
        <time>2015-11-10T10:04:33Z</time>
      </trkpt>
      <trkpt lat="43.37844" lon="-1.83976">
        <ele>21.286376953125</ele>
        <time>2015-11-10T10:04:44Z</time>
      </trkpt>
      <trkpt lat="43.37849" lon="-1.83964">
        <ele>23.208984375</ele>
        <time>2015-11-10T10:04:57Z</time>
      </trkpt>
      <trkpt lat="43.37854" lon="-1.83948">
        <ele>26.092895507812</ele>
        <time>2015-11-10T10:05:13Z</time>
      </trkpt>
      <trkpt lat="43.37857" lon="-1.83938">
        <ele>28.496215820312</ele>
        <time>2015-11-10T10:05:30Z</time>
      </trkpt>
      <trkpt lat="43.37849" lon="-1.83933">
        <ele>30.418823242188</ele>
        <time>2015-11-10T10:05:45Z</time>
      </trkpt>
      <trkpt lat="43.37837" lon="-1.83937">
        <ele>31.380126953125</ele>
        <time>2015-11-10T10:06:01Z</time>
      </trkpt>
      <trkpt lat="43.37828" lon="-1.83937">
        <ele>34.744873046875</ele>
        <time>2015-11-10T10:06:14Z</time>
      </trkpt>
      <trkpt lat="43.37815" lon="-1.83933">
        <ele>37.148071289062</ele>
        <time>2015-11-10T10:06:32Z</time>
      </trkpt>
      <trkpt lat="43.37806" lon="-1.83931">
        <ele>40.032104492188</ele>
        <time>2015-11-10T10:06:46Z</time>
      </trkpt>
      <trkpt lat="43.37793" lon="-1.83936">
        <ele>43.877319335938</ele>
        <time>2015-11-10T10:07:02Z</time>
      </trkpt>
      <trkpt lat="43.37782" lon="-1.83947">
        <ele>46.280639648438</ele>
        <time>2015-11-10T10:07:18Z</time>
      </trkpt>
      <trkpt lat="43.37773" lon="-1.83956">
        <ele>46.280639648438</ele>
        <time>2015-11-10T10:07:29Z</time>
      </trkpt>
      <trkpt lat="43.37754" lon="-1.83968">
        <ele>47.722534179688</ele>
        <time>2015-11-10T10:07:49Z</time>
      </trkpt>
      <trkpt lat="43.37741" lon="-1.83979">
        <ele>49.645263671875</ele>
        <time>2015-11-10T10:08:07Z</time>
      </trkpt>
      <trkpt lat="43.37743" lon="-1.83995">
        <ele>49.645263671875</ele>
        <time>2015-11-10T10:08:24Z</time>
      </trkpt>
      <trkpt lat="43.37745" lon="-1.84018">
        <ele>50.606567382812</ele>
        <time>2015-11-10T10:08:42Z</time>
      </trkpt>
      <trkpt lat="43.37729" lon="-1.8404">
        <ele>50.606567382812</ele>
        <time>2015-11-10T10:09:00Z</time>
      </trkpt>
      <trkpt lat="43.37726" lon="-1.84047">
        <ele>53.490478515625</ele>
        <time>2015-11-10T10:09:06Z</time>
      </trkpt>
      <trkpt lat="43.37715" lon="-1.8406">
        <ele>56.37451171875</ele>
        <time>2015-11-10T10:09:21Z</time>
      </trkpt>
      <trkpt lat="43.37699" lon="-1.84088">
        <ele>55.893798828125</ele>
        <time>2015-11-10T10:09:42Z</time>
      </trkpt>
      <trkpt lat="43.37687" lon="-1.84114">
        <ele>56.37451171875</ele>
        <time>2015-11-10T10:10:02Z</time>
      </trkpt>
      <trkpt lat="43.37675" lon="-1.84124">
        <ele>56.855102539062</ele>
        <time>2015-11-10T10:10:15Z</time>
      </trkpt>
      <trkpt lat="43.37663" lon="-1.84139">
        <ele>57.816528320312</ele>
        <time>2015-11-10T10:10:29Z</time>
      </trkpt>
      <trkpt lat="43.37658" lon="-1.8415">
        <ele>56.855102539062</ele>
        <time>2015-11-10T10:10:41Z</time>
      </trkpt>
      <trkpt lat="43.37662" lon="-1.84153">
        <ele>56.855102539062</ele>
        <time>2015-11-10T10:10:45Z</time>
      </trkpt>
      <trkpt lat="43.37671" lon="-1.84168">
        <ele>57.335815429688</ele>
        <time>2015-11-10T10:11:00Z</time>
      </trkpt>
      <trkpt lat="43.37678" lon="-1.84184">
        <ele>60.2197265625</ele>
        <time>2015-11-10T10:11:16Z</time>
      </trkpt>
      <trkpt lat="43.37678" lon="-1.84194">
        <ele>59.258422851562</ele>
        <time>2015-11-10T10:11:34Z</time>
      </trkpt>
      <trkpt lat="43.37678" lon="-1.84195">
        <ele>59.739135742188</ele>
        <time>2015-11-10T10:11:40Z</time>
      </trkpt>
      <trkpt lat="43.37674" lon="-1.84203">
        <ele>59.258422851562</ele>
        <time>2015-11-10T10:11:47Z</time>
      </trkpt>
      <trkpt lat="43.37671" lon="-1.84224">
        <ele>57.335815429688</ele>
        <time>2015-11-10T10:12:01Z</time>
      </trkpt>
      <trkpt lat="43.37667" lon="-1.84256">
        <ele>56.855102539062</ele>
        <time>2015-11-10T10:12:21Z</time>
      </trkpt>
      <trkpt lat="43.37668" lon="-1.84267">
        <ele>57.816528320312</ele>
        <time>2015-11-10T10:12:29Z</time>
      </trkpt>
      <trkpt lat="43.37674" lon="-1.84295">
        <ele>55.893798828125</ele>
        <time>2015-11-10T10:12:49Z</time>
      </trkpt>
      <trkpt lat="43.37677" lon="-1.84321">
        <ele>53.490478515625</ele>
        <time>2015-11-10T10:13:07Z</time>
      </trkpt>
      <trkpt lat="43.37673" lon="-1.84344">
        <ele>50.606567382812</ele>
        <time>2015-11-10T10:13:24Z</time>
      </trkpt>
      <trkpt lat="43.37674" lon="-1.84353">
        <ele>49.16455078125</ele>
        <time>2015-11-10T10:13:35Z</time>
      </trkpt>
      <trkpt lat="43.37674" lon="-1.84355">
        <ele>48.683959960938</ele>
        <time>2015-11-10T10:13:37Z</time>
      </trkpt>
      <trkpt lat="43.37667" lon="-1.84362">
        <ele>47.241821289062</ele>
        <time>2015-11-10T10:13:54Z</time>
      </trkpt>
      <trkpt lat="43.37657" lon="-1.84374">
        <ele>45.799926757812</ele>
        <time>2015-11-10T10:14:10Z</time>
      </trkpt>
      <trkpt lat="43.37643" lon="-1.84384">
        <ele>42.435424804688</ele>
        <time>2015-11-10T10:14:26Z</time>
      </trkpt>
      <trkpt lat="43.37636" lon="-1.84387">
        <ele>42.916015625</ele>
        <time>2015-11-10T10:14:32Z</time>
      </trkpt>
      <trkpt lat="43.37632" lon="-1.84385">
        <ele>43.877319335938</ele>
        <time>2015-11-10T10:14:36Z</time>
      </trkpt>
      <trkpt lat="43.37618" lon="-1.84392">
        <ele>42.435424804688</ele>
        <time>2015-11-10T10:14:54Z</time>
      </trkpt>
      <trkpt lat="43.37613" lon="-1.84406">
        <ele>39.070678710938</ele>
        <time>2015-11-10T10:15:11Z</time>
      </trkpt>
      <trkpt lat="43.37612" lon="-1.84412">
        <ele>38.109375</ele>
        <time>2015-11-10T10:15:27Z</time>
      </trkpt>
      <trkpt lat="43.37612" lon="-1.84421">
        <ele>35.7060546875</ele>
        <time>2015-11-10T10:15:43Z</time>
      </trkpt>
      <trkpt lat="43.37601" lon="-1.84433">
        <ele>34.744873046875</ele>
        <time>2015-11-10T10:15:58Z</time>
      </trkpt>
      <trkpt lat="43.37598" lon="-1.84434">
        <ele>34.744873046875</ele>
        <time>2015-11-10T10:16:15Z</time>
      </trkpt>
      <trkpt lat="43.37595" lon="-1.84432">
        <ele>33.783447265625</ele>
        <time>2015-11-10T10:16:25Z</time>
      </trkpt>
      <trkpt lat="43.37584" lon="-1.84418">
        <ele>31.380126953125</ele>
        <time>2015-11-10T10:16:42Z</time>
      </trkpt>
      <trkpt lat="43.3757" lon="-1.84427">
        <ele>28.976928710938</ele>
        <time>2015-11-10T10:16:58Z</time>
      </trkpt>
      <trkpt lat="43.37553" lon="-1.8444">
        <ele>25.6123046875</ele>
        <time>2015-11-10T10:17:15Z</time>
      </trkpt>
      <trkpt lat="43.37544" lon="-1.84445">
        <ele>24.170288085938</ele>
        <time>2015-11-10T10:17:27Z</time>
      </trkpt>
      <trkpt lat="43.37527" lon="-1.84446">
        <ele>22.24755859375</ele>
        <time>2015-11-10T10:17:46Z</time>
      </trkpt>
      <trkpt lat="43.37521" lon="-1.84456">
        <ele>20.8056640625</ele>
        <time>2015-11-10T10:18:00Z</time>
      </trkpt>
      <trkpt lat="43.37502" lon="-1.84473">
        <ele>18.883056640625</ele>
        <time>2015-11-10T10:18:20Z</time>
      </trkpt>
      <trkpt lat="43.37499" lon="-1.84475">
        <ele>17.921752929688</ele>
        <time>2015-11-10T10:18:23Z</time>
      </trkpt>
      <trkpt lat="43.37496" lon="-1.84478">
        <ele>16.96044921875</ele>
        <time>2015-11-10T10:18:26Z</time>
      </trkpt>
      <trkpt lat="43.37487" lon="-1.84491">
        <ele>17.921752929688</ele>
        <time>2015-11-10T10:18:42Z</time>
      </trkpt>
      <trkpt lat="43.37492" lon="-1.84494">
        <ele>20.8056640625</ele>
        <time>2015-11-10T10:18:53Z</time>
      </trkpt>
      <trkpt lat="43.37493" lon="-1.84494">
        <ele>20.324951171875</ele>
        <time>2015-11-10T10:18:54Z</time>
      </trkpt>
      <trkpt lat="43.37509" lon="-1.84502">
        <ele>22.24755859375</ele>
        <time>2015-11-10T10:19:14Z</time>
      </trkpt>
      <trkpt lat="43.37522" lon="-1.84511">
        <ele>25.131713867188</ele>
        <time>2015-11-10T10:19:32Z</time>
      </trkpt>
      <trkpt lat="43.3754" lon="-1.8452">
        <ele>26.092895507812</ele>
        <time>2015-11-10T10:19:53Z</time>
      </trkpt>
      <trkpt lat="43.37553" lon="-1.84529">
        <ele>28.015502929688</ele>
        <time>2015-11-10T10:20:07Z</time>
      </trkpt>
      <trkpt lat="43.37565" lon="-1.84537">
        <ele>28.976928710938</ele>
        <time>2015-11-10T10:20:23Z</time>
      </trkpt>
      <trkpt lat="43.37567" lon="-1.84548">
        <ele>29.938110351562</ele>
        <time>2015-11-10T10:20:31Z</time>
      </trkpt>
      <trkpt lat="43.37562" lon="-1.84566">
        <ele>30.418823242188</ele>
        <time>2015-11-10T10:20:46Z</time>
      </trkpt>
      <trkpt lat="43.37559" lon="-1.84577">
        <ele>33.302856445312</ele>
        <time>2015-11-10T10:21:02Z</time>
      </trkpt>
      <trkpt lat="43.37564" lon="-1.84582">
        <ele>35.225463867188</ele>
        <time>2015-11-10T10:21:16Z</time>
      </trkpt>
      <trkpt lat="43.37569" lon="-1.84582">
        <ele>36.186767578125</ele>
        <time>2015-11-10T10:21:25Z</time>
      </trkpt>
      <trkpt lat="43.37577" lon="-1.8458">
        <ele>36.66748046875</ele>
        <time>2015-11-10T10:21:35Z</time>
      </trkpt>
      <trkpt lat="43.37585" lon="-1.84586">
        <ele>36.186767578125</ele>
        <time>2015-11-10T10:21:50Z</time>
      </trkpt>
      <trkpt lat="43.37589" lon="-1.84595">
        <ele>34.744873046875</ele>
        <time>2015-11-10T10:22:04Z</time>
      </trkpt>
      <trkpt lat="43.37593" lon="-1.84607">
        <ele>32.341552734375</ele>
        <time>2015-11-10T10:22:18Z</time>
      </trkpt>
      <trkpt lat="43.37605" lon="-1.84616">
        <ele>32.341552734375</ele>
        <time>2015-11-10T10:22:34Z</time>
      </trkpt>
      <trkpt lat="43.37614" lon="-1.84622">
        <ele>30.899536132812</ele>
        <time>2015-11-10T10:22:45Z</time>
      </trkpt>
      <trkpt lat="43.37624" lon="-1.84629">
        <ele>34.26416015625</ele>
        <time>2015-11-10T10:23:00Z</time>
      </trkpt>
      <trkpt lat="43.37625" lon="-1.84631">
        <ele>34.744873046875</ele>
        <time>2015-11-10T10:23:03Z</time>
      </trkpt>
      <trkpt lat="43.37628" lon="-1.8465">
        <ele>33.783447265625</ele>
        <time>2015-11-10T10:23:18Z</time>
      </trkpt>
      <trkpt lat="43.37633" lon="-1.84651">
        <ele>34.26416015625</ele>
        <time>2015-11-10T10:23:23Z</time>
      </trkpt>
      <trkpt lat="43.37642" lon="-1.84651">
        <ele>35.7060546875</ele>
        <time>2015-11-10T10:23:38Z</time>
      </trkpt>
      <trkpt lat="43.37643" lon="-1.84651">
        <ele>36.186767578125</ele>
        <time>2015-11-10T10:23:39Z</time>
      </trkpt>
      <trkpt lat="43.37655" lon="-1.84649">
        <ele>37.628662109375</ele>
        <time>2015-11-10T10:23:57Z</time>
      </trkpt>
      <trkpt lat="43.37664" lon="-1.84658">
        <ele>38.109375</ele>
        <time>2015-11-10T10:24:12Z</time>
      </trkpt>
      <trkpt lat="43.37676" lon="-1.84665">
        <ele>39.070678710938</ele>
        <time>2015-11-10T10:24:27Z</time>
      </trkpt>
      <trkpt lat="43.37686" lon="-1.84668">
        <ele>40.993408203125</ele>
        <time>2015-11-10T10:24:41Z</time>
      </trkpt>
      <trkpt lat="43.3769" lon="-1.84675">
        <ele>43.396606445312</ele>
        <time>2015-11-10T10:24:49Z</time>
      </trkpt>
      <trkpt lat="43.37691" lon="-1.84679">
        <ele>42.916015625</ele>
        <time>2015-11-10T10:24:52Z</time>
      </trkpt>
      <trkpt lat="43.377" lon="-1.84704">
        <ele>44.838623046875</ele>
        <time>2015-11-10T10:25:10Z</time>
      </trkpt>
      <trkpt lat="43.37702" lon="-1.84718">
        <ele>45.319213867188</ele>
        <time>2015-11-10T10:25:19Z</time>
      </trkpt>
      <trkpt lat="43.37701" lon="-1.84726">
        <ele>44.358032226562</ele>
        <time>2015-11-10T10:25:25Z</time>
      </trkpt>
      <trkpt lat="43.37698" lon="-1.84752">
        <ele>43.396606445312</ele>
        <time>2015-11-10T10:25:46Z</time>
      </trkpt>
      <trkpt lat="43.37699" lon="-1.84752">
        <ele>42.435424804688</ele>
        <time>2015-11-10T10:25:48Z</time>
      </trkpt>
      <trkpt lat="43.37702" lon="-1.84761">
        <ele>44.358032226562</ele>
        <time>2015-11-10T10:26:00Z</time>
      </trkpt>
      <trkpt lat="43.37703" lon="-1.84766">
        <ele>44.838623046875</ele>
        <time>2015-11-10T10:26:04Z</time>
      </trkpt>
      <trkpt lat="43.37708" lon="-1.84794">
        <ele>45.319213867188</ele>
        <time>2015-11-10T10:26:22Z</time>
      </trkpt>
      <trkpt lat="43.37709" lon="-1.84802">
        <ele>43.877319335938</ele>
        <time>2015-11-10T10:26:29Z</time>
      </trkpt>
      <trkpt lat="43.377" lon="-1.84826">
        <ele>45.319213867188</ele>
        <time>2015-11-10T10:26:49Z</time>
      </trkpt>
      <trkpt lat="43.37704" lon="-1.84827">
        <ele>44.838623046875</ele>
        <time>2015-11-10T10:26:53Z</time>
      </trkpt>
      <trkpt lat="43.37711" lon="-1.84828">
        <ele>45.319213867188</ele>
        <time>2015-11-10T10:27:01Z</time>
      </trkpt>
      <trkpt lat="43.37726" lon="-1.84851">
        <ele>44.838623046875</ele>
        <time>2015-11-10T10:27:21Z</time>
      </trkpt>
      <trkpt lat="43.37728" lon="-1.84855">
        <ele>45.799926757812</ele>
        <time>2015-11-10T10:27:25Z</time>
      </trkpt>
      <trkpt lat="43.37732" lon="-1.84862">
        <ele>45.319213867188</ele>
        <time>2015-11-10T10:27:31Z</time>
      </trkpt>
      <trkpt lat="43.37743" lon="-1.84882">
        <ele>44.838623046875</ele>
        <time>2015-11-10T10:27:51Z</time>
      </trkpt>
      <trkpt lat="43.37745" lon="-1.84885">
        <ele>43.877319335938</ele>
        <time>2015-11-10T10:28:05Z</time>
      </trkpt>
      <trkpt lat="43.37748" lon="-1.8489">
        <ele>44.358032226562</ele>
        <time>2015-11-10T10:28:21Z</time>
      </trkpt>
      <trkpt lat="43.37749" lon="-1.84889">
        <ele>43.396606445312</ele>
        <time>2015-11-10T10:28:39Z</time>
      </trkpt>
      <trkpt lat="43.37748" lon="-1.84893">
        <ele>44.358032226562</ele>
        <time>2015-11-10T10:28:56Z</time>
      </trkpt>
      <trkpt lat="43.3775" lon="-1.84905">
        <ele>43.877319335938</ele>
        <time>2015-11-10T10:29:07Z</time>
      </trkpt>
      <trkpt lat="43.37754" lon="-1.84926">
        <ele>40.993408203125</ele>
        <time>2015-11-10T10:29:24Z</time>
      </trkpt>
      <trkpt lat="43.37755" lon="-1.8494">
        <ele>38.590087890625</ele>
        <time>2015-11-10T10:29:38Z</time>
      </trkpt>
      <trkpt lat="43.37743" lon="-1.8495">
        <ele>36.66748046875</ele>
        <time>2015-11-10T10:29:55Z</time>
      </trkpt>
      <trkpt lat="43.37736" lon="-1.84966">
        <ele>37.628662109375</ele>
        <time>2015-11-10T10:30:10Z</time>
      </trkpt>
      <trkpt lat="43.37734" lon="-1.84983">
        <ele>38.109375</ele>
        <time>2015-11-10T10:30:26Z</time>
      </trkpt>
      <trkpt lat="43.37735" lon="-1.84987">
        <ele>37.628662109375</ele>
        <time>2015-11-10T10:30:41Z</time>
      </trkpt>
      <trkpt lat="43.37733" lon="-1.84992">
        <ele>37.148071289062</ele>
        <time>2015-11-10T10:31:05Z</time>
      </trkpt>
      <trkpt lat="43.37732" lon="-1.84995">
        <ele>37.628662109375</ele>
        <time>2015-11-10T10:31:21Z</time>
      </trkpt>
      <trkpt lat="43.37727" lon="-1.84999">
        <ele>37.628662109375</ele>
        <time>2015-11-10T10:31:54Z</time>
      </trkpt>
      <trkpt lat="43.3772" lon="-1.85">
        <ele>37.148071289062</ele>
        <time>2015-11-10T10:32:06Z</time>
      </trkpt>
      <trkpt lat="43.37712" lon="-1.85004">
        <ele>37.148071289062</ele>
        <time>2015-11-10T10:32:19Z</time>
      </trkpt>
      <trkpt lat="43.37703" lon="-1.85001">
        <ele>38.109375</ele>
        <time>2015-11-10T10:32:32Z</time>
      </trkpt>
      <trkpt lat="43.37698" lon="-1.85004">
        <ele>40.512817382812</ele>
        <time>2015-11-10T10:32:40Z</time>
      </trkpt>
      <trkpt lat="43.3768" lon="-1.85021">
        <ele>40.993408203125</ele>
        <time>2015-11-10T10:33:01Z</time>
      </trkpt>
      <trkpt lat="43.3767" lon="-1.85028">
        <ele>41.473999023438</ele>
        <time>2015-11-10T10:33:12Z</time>
      </trkpt>
      <trkpt lat="43.37661" lon="-1.85036">
        <ele>40.993408203125</ele>
        <time>2015-11-10T10:33:21Z</time>
      </trkpt>
      <trkpt lat="43.37653" lon="-1.8505">
        <ele>43.396606445312</ele>
        <time>2015-11-10T10:33:34Z</time>
      </trkpt>
      <trkpt lat="43.37647" lon="-1.85059">
        <ele>43.877319335938</ele>
        <time>2015-11-10T10:33:43Z</time>
      </trkpt>
      <trkpt lat="43.37628" lon="-1.85081">
        <ele>44.358032226562</ele>
        <time>2015-11-10T10:34:05Z</time>
      </trkpt>
      <trkpt lat="43.37613" lon="-1.85096">
        <ele>43.877319335938</ele>
        <time>2015-11-10T10:34:22Z</time>
      </trkpt>
      <trkpt lat="43.376" lon="-1.85105">
        <ele>43.877319335938</ele>
        <time>2015-11-10T10:34:37Z</time>
      </trkpt>
      <trkpt lat="43.37587" lon="-1.8511">
        <ele>42.916015625</ele>
        <time>2015-11-10T10:34:56Z</time>
      </trkpt>
      <trkpt lat="43.37581" lon="-1.85112">
        <ele>43.396606445312</ele>
        <time>2015-11-10T10:35:04Z</time>
      </trkpt>
      <trkpt lat="43.3757" lon="-1.85119">
        <ele>42.435424804688</ele>
        <time>2015-11-10T10:35:16Z</time>
      </trkpt>
      <trkpt lat="43.37567" lon="-1.85123">
        <ele>40.993408203125</ele>
        <time>2015-11-10T10:35:21Z</time>
      </trkpt>
      <trkpt lat="43.37563" lon="-1.85129">
        <ele>40.032104492188</ele>
        <time>2015-11-10T10:35:27Z</time>
      </trkpt>
      <trkpt lat="43.3756" lon="-1.85132">
        <ele>38.109375</ele>
        <time>2015-11-10T10:35:40Z</time>
      </trkpt>
      <trkpt lat="43.37552" lon="-1.8514">
        <ele>36.66748046875</ele>
        <time>2015-11-10T10:35:54Z</time>
      </trkpt>
      <trkpt lat="43.3755" lon="-1.85157">
        <ele>34.744873046875</ele>
        <time>2015-11-10T10:36:13Z</time>
      </trkpt>
      <trkpt lat="43.3755" lon="-1.85171">
        <ele>32.822265625</ele>
        <time>2015-11-10T10:36:28Z</time>
      </trkpt>
      <trkpt lat="43.37553" lon="-1.85186">
        <ele>30.899536132812</ele>
        <time>2015-11-10T10:36:44Z</time>
      </trkpt>
      <trkpt lat="43.37559" lon="-1.852">
        <ele>28.496215820312</ele>
        <time>2015-11-10T10:37:03Z</time>
      </trkpt>
      <trkpt lat="43.37561" lon="-1.85213">
        <ele>27.054321289062</ele>
        <time>2015-11-10T10:37:18Z</time>
      </trkpt>
      <trkpt lat="43.37562" lon="-1.85223">
        <ele>26.573608398438</ele>
        <time>2015-11-10T10:37:33Z</time>
      </trkpt>
      <trkpt lat="43.37555" lon="-1.85222">
        <ele>26.092895507812</ele>
        <time>2015-11-10T10:37:53Z</time>
      </trkpt>
      <trkpt lat="43.37548" lon="-1.85233">
        <ele>25.6123046875</ele>
        <time>2015-11-10T10:38:10Z</time>
      </trkpt>
      <trkpt lat="43.37543" lon="-1.85244">
        <ele>22.24755859375</ele>
        <time>2015-11-10T10:38:25Z</time>
      </trkpt>
      <trkpt lat="43.37538" lon="-1.85252">
        <ele>20.324951171875</ele>
        <time>2015-11-10T10:38:42Z</time>
      </trkpt>
      <trkpt lat="43.37536" lon="-1.85251">
        <ele>18.883056640625</ele>
        <time>2015-11-10T10:38:57Z</time>
      </trkpt>
      <trkpt lat="43.37533" lon="-1.85251">
        <ele>17.441162109375</ele>
        <time>2015-11-10T10:39:10Z</time>
      </trkpt>
      <trkpt lat="43.37531" lon="-1.85248">
        <ele>16.96044921875</ele>
        <time>2015-11-10T10:39:24Z</time>
      </trkpt>
      <trkpt lat="43.37528" lon="-1.85247">
        <ele>14.557006835938</ele>
        <time>2015-11-10T10:39:38Z</time>
      </trkpt>
      <trkpt lat="43.37522" lon="-1.85259">
        <ele>12.634399414062</ele>
        <time>2015-11-10T10:39:55Z</time>
      </trkpt>
      <trkpt lat="43.37519" lon="-1.85262">
        <ele>11.192504882812</ele>
        <time>2015-11-10T10:40:00Z</time>
      </trkpt>
      <trkpt lat="43.37515" lon="-1.85267">
        <ele>10.711791992188</ele>
        <time>2015-11-10T10:40:11Z</time>
      </trkpt>
      <trkpt lat="43.37513" lon="-1.85272">
        <ele>11.673217773438</ele>
        <time>2015-11-10T10:40:25Z</time>
      </trkpt>
      <trkpt lat="43.37513" lon="-1.85271">
        <ele>11.192504882812</ele>
        <time>2015-11-10T10:40:47Z</time>
      </trkpt>
      <trkpt lat="43.37512" lon="-1.8527">
        <ele>12.634399414062</ele>
        <time>2015-11-10T10:41:13Z</time>
      </trkpt>
      <trkpt lat="43.37508" lon="-1.85264">
        <ele>15.518432617188</ele>
        <time>2015-11-10T10:41:25Z</time>
      </trkpt>
      <trkpt lat="43.37506" lon="-1.85255">
        <ele>18.40234375</ele>
        <time>2015-11-10T10:41:39Z</time>
      </trkpt>
      <trkpt lat="43.37497" lon="-1.85256">
        <ele>20.8056640625</ele>
        <time>2015-11-10T10:41:55Z</time>
      </trkpt>
      <trkpt lat="43.3749" lon="-1.85256">
        <ele>22.24755859375</ele>
        <time>2015-11-10T10:42:17Z</time>
      </trkpt>
      <trkpt lat="43.37484" lon="-1.85248">
        <ele>25.6123046875</ele>
        <time>2015-11-10T10:42:31Z</time>
      </trkpt>
      <trkpt lat="43.37479" lon="-1.8524">
        <ele>27.054321289062</ele>
        <time>2015-11-10T10:42:45Z</time>
      </trkpt>
      <trkpt lat="43.37468" lon="-1.85242">
        <ele>30.418823242188</ele>
        <time>2015-11-10T10:43:01Z</time>
      </trkpt>
      <trkpt lat="43.37461" lon="-1.85249">
        <ele>33.783447265625</ele>
        <time>2015-11-10T10:43:15Z</time>
      </trkpt>
      <trkpt lat="43.37458" lon="-1.8525">
        <ele>34.26416015625</ele>
        <time>2015-11-10T10:43:30Z</time>
      </trkpt>
      <trkpt lat="43.37459" lon="-1.85249">
        <ele>33.783447265625</ele>
        <time>2015-11-10T10:44:02Z</time>
      </trkpt>
      <trkpt lat="43.3745" lon="-1.85256">
        <ele>34.744873046875</ele>
        <time>2015-11-10T10:44:18Z</time>
      </trkpt>
      <trkpt lat="43.37434" lon="-1.8527">
        <ele>33.783447265625</ele>
        <time>2015-11-10T10:44:37Z</time>
      </trkpt>
      <trkpt lat="43.37415" lon="-1.85281">
        <ele>32.341552734375</ele>
        <time>2015-11-10T10:44:58Z</time>
      </trkpt>
      <trkpt lat="43.37412" lon="-1.85283">
        <ele>31.860717773438</ele>
        <time>2015-11-10T10:45:01Z</time>
      </trkpt>
      <trkpt lat="43.37415" lon="-1.85297">
        <ele>34.26416015625</ele>
        <time>2015-11-10T10:45:16Z</time>
      </trkpt>
      <trkpt lat="43.37417" lon="-1.85301">
        <ele>35.225463867188</ele>
        <time>2015-11-10T10:45:23Z</time>
      </trkpt>
      <trkpt lat="43.37424" lon="-1.85318">
        <ele>38.109375</ele>
        <time>2015-11-10T10:45:39Z</time>
      </trkpt>
      <trkpt lat="43.37424" lon="-1.85326">
        <ele>39.070678710938</ele>
        <time>2015-11-10T10:45:46Z</time>
      </trkpt>
      <trkpt lat="43.37421" lon="-1.8533">
        <ele>39.070678710938</ele>
        <time>2015-11-10T10:45:51Z</time>
      </trkpt>
      <trkpt lat="43.37407" lon="-1.85337">
        <ele>42.435424804688</ele>
        <time>2015-11-10T10:46:06Z</time>
      </trkpt>
      <trkpt lat="43.37398" lon="-1.85343">
        <ele>43.877319335938</ele>
        <time>2015-11-10T10:46:20Z</time>
      </trkpt>
      <trkpt lat="43.37394" lon="-1.85359">
        <ele>43.877319335938</ele>
        <time>2015-11-10T10:46:35Z</time>
      </trkpt>
      <trkpt lat="43.37395" lon="-1.85369">
        <ele>42.435424804688</ele>
        <time>2015-11-10T10:46:51Z</time>
      </trkpt>
      <trkpt lat="43.37394" lon="-1.85379">
        <ele>40.993408203125</ele>
        <time>2015-11-10T10:47:08Z</time>
      </trkpt>
      <trkpt lat="43.37394" lon="-1.85379">
        <ele>40.993408203125</ele>
        <time>2015-11-10T10:47:46Z</time>
      </trkpt>
      <trkpt lat="43.37392" lon="-1.85386">
        <ele>40.032104492188</ele>
        <time>2015-11-10T10:48:08Z</time>
      </trkpt>
      <trkpt lat="43.37393" lon="-1.85396">
        <ele>37.628662109375</ele>
        <time>2015-11-10T10:48:23Z</time>
      </trkpt>
      <trkpt lat="43.37393" lon="-1.85405">
        <ele>34.26416015625</ele>
        <time>2015-11-10T10:48:33Z</time>
      </trkpt>
      <trkpt lat="43.3739" lon="-1.85413">
        <ele>33.783447265625</ele>
        <time>2015-11-10T10:48:41Z</time>
      </trkpt>
      <trkpt lat="43.37388" lon="-1.85416">
        <ele>33.302856445312</ele>
        <time>2015-11-10T10:48:44Z</time>
      </trkpt>
      <trkpt lat="43.3738" lon="-1.85433">
        <ele>31.380126953125</ele>
        <time>2015-11-10T10:49:02Z</time>
      </trkpt>
      <trkpt lat="43.3738" lon="-1.8545">
        <ele>28.976928710938</ele>
        <time>2015-11-10T10:49:18Z</time>
      </trkpt>
      <trkpt lat="43.3738" lon="-1.85454">
        <ele>27.534912109375</ele>
        <time>2015-11-10T10:49:21Z</time>
      </trkpt>
      <trkpt lat="43.37376" lon="-1.85469">
        <ele>28.015502929688</ele>
        <time>2015-11-10T10:49:35Z</time>
      </trkpt>
      <trkpt lat="43.37375" lon="-1.85477">
        <ele>26.092895507812</ele>
        <time>2015-11-10T10:49:46Z</time>
      </trkpt>
      <trkpt lat="43.37383" lon="-1.85479">
        <ele>28.496215820312</ele>
        <time>2015-11-10T10:50:00Z</time>
      </trkpt>
      <trkpt lat="43.37392" lon="-1.85479">
        <ele>28.496215820312</ele>
        <time>2015-11-10T10:50:15Z</time>
      </trkpt>
      <trkpt lat="43.37396" lon="-1.85481">
        <ele>28.976928710938</ele>
        <time>2015-11-10T10:50:31Z</time>
      </trkpt>
      <trkpt lat="43.37401" lon="-1.85486">
        <ele>31.860717773438</ele>
        <time>2015-11-10T10:50:46Z</time>
      </trkpt>
      <trkpt lat="43.37406" lon="-1.85494">
        <ele>34.26416015625</ele>
        <time>2015-11-10T10:51:01Z</time>
      </trkpt>
      <trkpt lat="43.37405" lon="-1.85499">
        <ele>36.66748046875</ele>
        <time>2015-11-10T10:51:12Z</time>
      </trkpt>
      <trkpt lat="43.37411" lon="-1.85501">
        <ele>37.628662109375</ele>
        <time>2015-11-10T10:51:25Z</time>
      </trkpt>
      <trkpt lat="43.37413" lon="-1.85503">
        <ele>37.628662109375</ele>
        <time>2015-11-10T10:51:27Z</time>
      </trkpt>
      <trkpt lat="43.37421" lon="-1.85519">
        <ele>40.032104492188</ele>
        <time>2015-11-10T10:51:44Z</time>
      </trkpt>
      <trkpt lat="43.37423" lon="-1.85525">
        <ele>40.032104492188</ele>
        <time>2015-11-10T10:51:49Z</time>
      </trkpt>
      <trkpt lat="43.37423" lon="-1.85549">
        <ele>42.435424804688</ele>
        <time>2015-11-10T10:52:07Z</time>
      </trkpt>
      <trkpt lat="43.37423" lon="-1.8556">
        <ele>41.954711914062</ele>
        <time>2015-11-10T10:52:15Z</time>
      </trkpt>
      <trkpt lat="43.37417" lon="-1.85577">
        <ele>40.512817382812</ele>
        <time>2015-11-10T10:52:29Z</time>
      </trkpt>
      <trkpt lat="43.37417" lon="-1.85583">
        <ele>40.512817382812</ele>
        <time>2015-11-10T10:52:33Z</time>
      </trkpt>
      <trkpt lat="43.37416" lon="-1.85588">
        <ele>39.55126953125</ele>
        <time>2015-11-10T10:52:37Z</time>
      </trkpt>
      <trkpt lat="43.37417" lon="-1.85597">
        <ele>39.55126953125</ele>
        <time>2015-11-10T10:52:45Z</time>
      </trkpt>
      <trkpt lat="43.37437" lon="-1.85605">
        <ele>40.032104492188</ele>
        <time>2015-11-10T10:53:04Z</time>
      </trkpt>
      <trkpt lat="43.37442" lon="-1.85612">
        <ele>40.032104492188</ele>
        <time>2015-11-10T10:53:11Z</time>
      </trkpt>
      <trkpt lat="43.37447" lon="-1.85623">
        <ele>40.032104492188</ele>
        <time>2015-11-10T10:53:22Z</time>
      </trkpt>
      <trkpt lat="43.37449" lon="-1.85642">
        <ele>38.590087890625</ele>
        <time>2015-11-10T10:53:40Z</time>
      </trkpt>
      <trkpt lat="43.37448" lon="-1.85642">
        <ele>38.590087890625</ele>
        <time>2015-11-10T10:54:16Z</time>
      </trkpt>
      <trkpt lat="43.37442" lon="-1.85653">
        <ele>38.109375</ele>
        <time>2015-11-10T10:54:32Z</time>
      </trkpt>
      <trkpt lat="43.37441" lon="-1.85655">
        <ele>37.628662109375</ele>
        <time>2015-11-10T10:54:34Z</time>
      </trkpt>
      <trkpt lat="43.37431" lon="-1.85665">
        <ele>38.109375</ele>
        <time>2015-11-10T10:54:50Z</time>
      </trkpt>
      <trkpt lat="43.3742" lon="-1.85677">
        <ele>37.628662109375</ele>
        <time>2015-11-10T10:55:08Z</time>
      </trkpt>
      <trkpt lat="43.37418" lon="-1.85679">
        <ele>37.628662109375</ele>
        <time>2015-11-10T10:55:20Z</time>
      </trkpt>
      <trkpt lat="43.37412" lon="-1.85686">
        <ele>38.109375</ele>
        <time>2015-11-10T10:55:28Z</time>
      </trkpt>
      <trkpt lat="43.37403" lon="-1.85701">
        <ele>37.148071289062</ele>
        <time>2015-11-10T10:55:46Z</time>
      </trkpt>
      <trkpt lat="43.37405" lon="-1.85705">
        <ele>38.109375</ele>
        <time>2015-11-10T10:56:05Z</time>
      </trkpt>
      <trkpt lat="43.37407" lon="-1.85714">
        <ele>37.628662109375</ele>
        <time>2015-11-10T10:56:19Z</time>
      </trkpt>
      <trkpt lat="43.37404" lon="-1.85715">
        <ele>37.148071289062</ele>
        <time>2015-11-10T10:56:36Z</time>
      </trkpt>
      <trkpt lat="43.37406" lon="-1.85713">
        <ele>37.148071289062</ele>
        <time>2015-11-10T10:57:01Z</time>
      </trkpt>
      <trkpt lat="43.37406" lon="-1.85711">
        <ele>36.66748046875</ele>
        <time>2015-11-10T10:57:19Z</time>
      </trkpt>
      <trkpt lat="43.37404" lon="-1.85702">
        <ele>37.148071289062</ele>
        <time>2015-11-10T10:57:35Z</time>
      </trkpt>
      <trkpt lat="43.37396" lon="-1.8571">
        <ele>33.783447265625</ele>
        <time>2015-11-10T10:57:52Z</time>
      </trkpt>
      <trkpt lat="43.37396" lon="-1.85711">
        <ele>33.302856445312</ele>
        <time>2015-11-10T10:57:53Z</time>
      </trkpt>
      <trkpt lat="43.37392" lon="-1.85718">
        <ele>30.418823242188</ele>
        <time>2015-11-10T10:58:01Z</time>
      </trkpt>
      <trkpt lat="43.37392" lon="-1.8573">
        <ele>27.534912109375</ele>
        <time>2015-11-10T10:58:15Z</time>
      </trkpt>
      <trkpt lat="43.37394" lon="-1.85736">
        <ele>24.651000976562</ele>
        <time>2015-11-10T10:58:23Z</time>
      </trkpt>
      <trkpt lat="43.37395" lon="-1.85738">
        <ele>24.651000976562</ele>
        <time>2015-11-10T10:58:40Z</time>
      </trkpt>
      <trkpt lat="43.37391" lon="-1.85742">
        <ele>23.208984375</ele>
        <time>2015-11-10T10:58:53Z</time>
      </trkpt>
      <trkpt lat="43.37392" lon="-1.85747">
        <ele>21.286376953125</ele>
        <time>2015-11-10T10:58:59Z</time>
      </trkpt>
      <trkpt lat="43.37392" lon="-1.85749">
        <ele>20.8056640625</ele>
        <time>2015-11-10T10:59:19Z</time>
      </trkpt>
      <trkpt lat="43.37392" lon="-1.85755">
        <ele>18.40234375</ele>
        <time>2015-11-10T10:59:32Z</time>
      </trkpt>
      <trkpt lat="43.37392" lon="-1.85761">
        <ele>16.479736328125</ele>
        <time>2015-11-10T10:59:45Z</time>
      </trkpt>
      <trkpt lat="43.37393" lon="-1.85762">
        <ele>16.479736328125</ele>
        <time>2015-11-10T11:00:08Z</time>
      </trkpt>
      <trkpt lat="43.37393" lon="-1.85762">
        <ele>16.479736328125</ele>
        <time>2015-11-10T11:00:53Z</time>
      </trkpt>
      <trkpt lat="43.37394" lon="-1.85762">
        <ele>15.518432617188</ele>
        <time>2015-11-10T11:01:17Z</time>
      </trkpt>
      <trkpt lat="43.37393" lon="-1.85766">
        <ele>14.076416015625</ele>
        <time>2015-11-10T11:01:39Z</time>
      </trkpt>
      <trkpt lat="43.37392" lon="-1.85776">
        <ele>10.711791992188</ele>
        <time>2015-11-10T11:01:54Z</time>
      </trkpt>
      <trkpt lat="43.3739" lon="-1.85776">
        <ele>10.711791992188</ele>
        <time>2015-11-10T11:01:56Z</time>
      </trkpt>
      <trkpt lat="43.37383" lon="-1.85779">
        <ele>14.076416015625</ele>
        <time>2015-11-10T11:02:07Z</time>
      </trkpt>
      <trkpt lat="43.37376" lon="-1.85774">
        <ele>15.037719726562</ele>
        <time>2015-11-10T11:02:22Z</time>
      </trkpt>
      <trkpt lat="43.37371" lon="-1.85767">
        <ele>18.40234375</ele>
        <time>2015-11-10T11:02:35Z</time>
      </trkpt>
      <trkpt lat="43.37363" lon="-1.8576">
        <ele>19.36376953125</ele>
        <time>2015-11-10T11:02:50Z</time>
      </trkpt>
      <trkpt lat="43.37358" lon="-1.85756">
        <ele>22.728271484375</ele>
        <time>2015-11-10T11:03:03Z</time>
      </trkpt>
      <trkpt lat="43.37356" lon="-1.85761">
        <ele>24.651000976562</ele>
        <time>2015-11-10T11:03:17Z</time>
      </trkpt>
      <trkpt lat="43.37352" lon="-1.85758">
        <ele>26.573608398438</ele>
        <time>2015-11-10T11:03:34Z</time>
      </trkpt>
      <trkpt lat="43.3735" lon="-1.85762">
        <ele>29.45751953125</ele>
        <time>2015-11-10T11:03:48Z</time>
      </trkpt>
      <trkpt lat="43.37345" lon="-1.85758">
        <ele>33.302856445312</ele>
        <time>2015-11-10T11:03:59Z</time>
      </trkpt>
      <trkpt lat="43.37342" lon="-1.85764">
        <ele>36.186767578125</ele>
        <time>2015-11-10T11:04:13Z</time>
      </trkpt>
      <trkpt lat="43.37342" lon="-1.85764">
        <ele>34.26416015625</ele>
        <time>2015-11-10T11:04:16Z</time>
      </trkpt>
      <trkpt lat="43.37342" lon="-1.85764">
        <ele>35.7060546875</ele>
        <time>2015-11-10T11:04:18Z</time>
      </trkpt>
      <trkpt lat="43.37332" lon="-1.8576">
        <ele>39.070678710938</ele>
        <time>2015-11-10T11:04:33Z</time>
      </trkpt>
      <trkpt lat="43.3733" lon="-1.85756">
        <ele>39.070678710938</ele>
        <time>2015-11-10T11:04:38Z</time>
      </trkpt>
      <trkpt lat="43.37319" lon="-1.85757">
        <ele>40.032104492188</ele>
        <time>2015-11-10T11:04:53Z</time>
      </trkpt>
      <trkpt lat="43.37316" lon="-1.85774">
        <ele>40.993408203125</ele>
        <time>2015-11-10T11:05:08Z</time>
      </trkpt>
      <trkpt lat="43.37314" lon="-1.85788">
        <ele>41.473999023438</ele>
        <time>2015-11-10T11:05:22Z</time>
      </trkpt>
      <trkpt lat="43.37312" lon="-1.85791">
        <ele>41.473999023438</ele>
        <time>2015-11-10T11:05:26Z</time>
      </trkpt>
      <trkpt lat="43.37303" lon="-1.85801">
        <ele>42.916015625</ele>
        <time>2015-11-10T11:05:42Z</time>
      </trkpt>
      <trkpt lat="43.37292" lon="-1.85809">
        <ele>42.916015625</ele>
        <time>2015-11-10T11:05:58Z</time>
      </trkpt>
      <trkpt lat="43.37276" lon="-1.85824">
        <ele>43.396606445312</ele>
        <time>2015-11-10T11:06:15Z</time>
      </trkpt>
      <trkpt lat="43.37271" lon="-1.85828">
        <ele>42.916015625</ele>
        <time>2015-11-10T11:06:20Z</time>
      </trkpt>
      <trkpt lat="43.37256" lon="-1.85839">
        <ele>41.954711914062</ele>
        <time>2015-11-10T11:06:36Z</time>
      </trkpt>
      <trkpt lat="43.37251" lon="-1.85844">
        <ele>41.473999023438</ele>
        <time>2015-11-10T11:06:42Z</time>
      </trkpt>
      <trkpt lat="43.37251" lon="-1.85858">
        <ele>43.396606445312</ele>
        <time>2015-11-10T11:06:57Z</time>
      </trkpt>
      <trkpt lat="43.37255" lon="-1.85865">
        <ele>45.319213867188</ele>
        <time>2015-11-10T11:07:13Z</time>
      </trkpt>
      <trkpt lat="43.37259" lon="-1.85879">
        <ele>44.838623046875</ele>
        <time>2015-11-10T11:07:28Z</time>
      </trkpt>
      <trkpt lat="43.37256" lon="-1.85884">
        <ele>45.319213867188</ele>
        <time>2015-11-10T11:07:44Z</time>
      </trkpt>
      <trkpt lat="43.37255" lon="-1.85881">
        <ele>45.319213867188</ele>
        <time>2015-11-10T11:08:11Z</time>
      </trkpt>
      <trkpt lat="43.37254" lon="-1.8588">
        <ele>43.877319335938</ele>
        <time>2015-11-10T11:08:33Z</time>
      </trkpt>
      <trkpt lat="43.37264" lon="-1.8588">
        <ele>42.916015625</ele>
        <time>2015-11-10T11:08:48Z</time>
      </trkpt>
      <trkpt lat="43.37271" lon="-1.85878">
        <ele>42.916015625</ele>
        <time>2015-11-10T11:09:03Z</time>
      </trkpt>
      <trkpt lat="43.37273" lon="-1.85881">
        <ele>42.435424804688</ele>
        <time>2015-11-10T11:09:38Z</time>
      </trkpt>
      <trkpt lat="43.37277" lon="-1.85884">
        <ele>41.954711914062</ele>
        <time>2015-11-10T11:09:53Z</time>
      </trkpt>
      <trkpt lat="43.37281" lon="-1.85886">
        <ele>40.032104492188</ele>
        <time>2015-11-10T11:10:12Z</time>
      </trkpt>
      <trkpt lat="43.37287" lon="-1.85891">
        <ele>38.109375</ele>
        <time>2015-11-10T11:10:26Z</time>
      </trkpt>
      <trkpt lat="43.37292" lon="-1.85898">
        <ele>38.109375</ele>
        <time>2015-11-10T11:10:42Z</time>
      </trkpt>
      <trkpt lat="43.37295" lon="-1.85904">
        <ele>36.186767578125</ele>
        <time>2015-11-10T11:10:55Z</time>
      </trkpt>
      <trkpt lat="43.373" lon="-1.85906">
        <ele>36.66748046875</ele>
        <time>2015-11-10T11:11:10Z</time>
      </trkpt>
      <trkpt lat="43.373" lon="-1.85905">
        <ele>37.628662109375</ele>
        <time>2015-11-10T11:11:17Z</time>
      </trkpt>
      <trkpt lat="43.37299" lon="-1.85904">
        <ele>36.66748046875</ele>
        <time>2015-11-10T11:11:35Z</time>
      </trkpt>
      <trkpt lat="43.373" lon="-1.85905">
        <ele>36.186767578125</ele>
        <time>2015-11-10T11:13:09Z</time>
      </trkpt>
      <trkpt lat="43.37299" lon="-1.85904">
        <ele>34.744873046875</ele>
        <time>2015-11-10T11:14:36Z</time>
      </trkpt>
      <trkpt lat="43.37299" lon="-1.85905">
        <ele>36.186767578125</ele>
        <time>2015-11-10T11:27:39Z</time>
      </trkpt>
      <trkpt lat="43.37299" lon="-1.85904">
        <ele>35.7060546875</ele>
        <time>2015-11-10T11:31:54Z</time>
      </trkpt>
      <trkpt lat="43.37299" lon="-1.85904">
        <ele>35.7060546875</ele>
        <time>2015-11-10T11:32:38Z</time>
      </trkpt>
      <trkpt lat="43.37299" lon="-1.85904">
        <ele>35.7060546875</ele>
        <time>2015-11-10T11:33:42Z</time>
      </trkpt>
      <trkpt lat="43.37299" lon="-1.85903">
        <ele>35.225463867188</ele>
        <time>2015-11-10T11:34:48Z</time>
      </trkpt>
      <trkpt lat="43.37299" lon="-1.85903">
        <ele>36.186767578125</ele>
        <time>2015-11-10T11:35:44Z</time>
      </trkpt>
      <trkpt lat="43.37299" lon="-1.85904">
        <ele>35.7060546875</ele>
        <time>2015-11-10T11:36:43Z</time>
      </trkpt>
      <trkpt lat="43.37299" lon="-1.85904">
        <ele>36.66748046875</ele>
        <time>2015-11-10T11:37:29Z</time>
      </trkpt>
      <trkpt lat="43.37299" lon="-1.85904">
        <ele>36.66748046875</ele>
        <time>2015-11-10T11:38:42Z</time>
      </trkpt>
      <trkpt lat="43.37299" lon="-1.85904">
        <ele>36.66748046875</ele>
        <time>2015-11-10T11:39:23Z</time>
      </trkpt>
      <trkpt lat="43.37298" lon="-1.85904">
        <ele>36.66748046875</ele>
        <time>2015-11-10T11:39:57Z</time>
      </trkpt>
      <trkpt lat="43.37298" lon="-1.85905">
        <ele>38.109375</ele>
        <time>2015-11-10T11:40:31Z</time>
      </trkpt>
      <trkpt lat="43.37298" lon="-1.85904">
        <ele>37.148071289062</ele>
        <time>2015-11-10T11:45:44Z</time>
      </trkpt>
      <trkpt lat="43.37299" lon="-1.85905">
        <ele>36.186767578125</ele>
        <time>2015-11-10T11:46:14Z</time>
      </trkpt>
      <trkpt lat="43.37298" lon="-1.85904">
        <ele>37.628662109375</ele>
        <time>2015-11-10T11:46:38Z</time>
      </trkpt>
      <trkpt lat="43.37301" lon="-1.859">
        <ele>37.628662109375</ele>
        <time>2015-11-10T11:46:59Z</time>
      </trkpt>
      <trkpt lat="43.37299" lon="-1.85891">
        <ele>39.55126953125</ele>
        <time>2015-11-10T11:47:12Z</time>
      </trkpt>
      <trkpt lat="43.37293" lon="-1.85885">
        <ele>41.473999023438</ele>
        <time>2015-11-10T11:47:28Z</time>
      </trkpt>
      <trkpt lat="43.37288" lon="-1.85882">
        <ele>41.473999023438</ele>
        <time>2015-11-10T11:47:41Z</time>
      </trkpt>
      <trkpt lat="43.37283" lon="-1.85879">
        <ele>42.435424804688</ele>
        <time>2015-11-10T11:47:57Z</time>
      </trkpt>
      <trkpt lat="43.37275" lon="-1.85876">
        <ele>42.435424804688</ele>
        <time>2015-11-10T11:48:10Z</time>
      </trkpt>
      <trkpt lat="43.37264" lon="-1.85876">
        <ele>43.396606445312</ele>
        <time>2015-11-10T11:48:25Z</time>
      </trkpt>
      <trkpt lat="43.37257" lon="-1.85874">
        <ele>43.396606445312</ele>
        <time>2015-11-10T11:48:34Z</time>
      </trkpt>
      <trkpt lat="43.3724" lon="-1.85872">
        <ele>46.280639648438</ele>
        <time>2015-11-10T11:48:53Z</time>
      </trkpt>
      <trkpt lat="43.37233" lon="-1.8587">
        <ele>47.722534179688</ele>
        <time>2015-11-10T11:49:02Z</time>
      </trkpt>
      <trkpt lat="43.37218" lon="-1.85865">
        <ele>47.722534179688</ele>
        <time>2015-11-10T11:49:19Z</time>
      </trkpt>
      <trkpt lat="43.37201" lon="-1.85866">
        <ele>48.683959960938</ele>
        <time>2015-11-10T11:49:38Z</time>
      </trkpt>
      <trkpt lat="43.37186" lon="-1.85866">
        <ele>51.087158203125</ele>
        <time>2015-11-10T11:49:54Z</time>
      </trkpt>
      <trkpt lat="43.37177" lon="-1.85867">
        <ele>52.048583984375</ele>
        <time>2015-11-10T11:50:05Z</time>
      </trkpt>
      <trkpt lat="43.37165" lon="-1.85872">
        <ele>52.529174804688</ele>
        <time>2015-11-10T11:50:20Z</time>
      </trkpt>
      <trkpt lat="43.3716" lon="-1.85873">
        <ele>52.529174804688</ele>
        <time>2015-11-10T11:50:25Z</time>
      </trkpt>
      <trkpt lat="43.37148" lon="-1.85872">
        <ele>54.932373046875</ele>
        <time>2015-11-10T11:50:40Z</time>
      </trkpt>
      <trkpt lat="43.37134" lon="-1.85869">
        <ele>58.297119140625</ele>
        <time>2015-11-10T11:50:57Z</time>
      </trkpt>
      <trkpt lat="43.37123" lon="-1.85858">
        <ele>59.739135742188</ele>
        <time>2015-11-10T11:51:13Z</time>
      </trkpt>
      <trkpt lat="43.37112" lon="-1.85851">
        <ele>60.700317382812</ele>
        <time>2015-11-10T11:51:26Z</time>
      </trkpt>
      <trkpt lat="43.37106" lon="-1.85857">
        <ele>59.258422851562</ele>
        <time>2015-11-10T11:51:37Z</time>
      </trkpt>
      <trkpt lat="43.37098" lon="-1.85865">
        <ele>58.297119140625</ele>
        <time>2015-11-10T11:51:54Z</time>
      </trkpt>
      <trkpt lat="43.37092" lon="-1.8587">
        <ele>55.4130859375</ele>
        <time>2015-11-10T11:52:05Z</time>
      </trkpt>
      <trkpt lat="43.37079" lon="-1.85882">
        <ele>54.451782226562</ele>
        <time>2015-11-10T11:52:22Z</time>
      </trkpt>
      <trkpt lat="43.37073" lon="-1.859">
        <ele>53.97119140625</ele>
        <time>2015-11-10T11:52:39Z</time>
      </trkpt>
      <trkpt lat="43.37067" lon="-1.85912">
        <ele>52.048583984375</ele>
        <time>2015-11-10T11:52:51Z</time>
      </trkpt>
      <trkpt lat="43.37057" lon="-1.85927">
        <ele>50.606567382812</ele>
        <time>2015-11-10T11:53:06Z</time>
      </trkpt>
      <trkpt lat="43.37048" lon="-1.85935">
        <ele>49.16455078125</ele>
        <time>2015-11-10T11:53:19Z</time>
      </trkpt>
      <trkpt lat="43.37038" lon="-1.85941">
        <ele>46.76123046875</ele>
        <time>2015-11-10T11:53:32Z</time>
      </trkpt>
      <trkpt lat="43.37038" lon="-1.85943">
        <ele>46.76123046875</ele>
        <time>2015-11-10T11:53:33Z</time>
      </trkpt>
      <trkpt lat="43.37028" lon="-1.85956">
        <ele>47.722534179688</ele>
        <time>2015-11-10T11:53:47Z</time>
      </trkpt>
      <trkpt lat="43.37022" lon="-1.85965">
        <ele>46.76123046875</ele>
        <time>2015-11-10T11:53:55Z</time>
      </trkpt>
      <trkpt lat="43.37015" lon="-1.85975">
        <ele>44.838623046875</ele>
        <time>2015-11-10T11:54:07Z</time>
      </trkpt>
      <trkpt lat="43.37005" lon="-1.85989">
        <ele>43.396606445312</ele>
        <time>2015-11-10T11:54:22Z</time>
      </trkpt>
      <trkpt lat="43.36996" lon="-1.86001">
        <ele>40.512817382812</ele>
        <time>2015-11-10T11:54:35Z</time>
      </trkpt>
      <trkpt lat="43.3699" lon="-1.86006">
        <ele>38.109375</ele>
        <time>2015-11-10T11:54:45Z</time>
      </trkpt>
      <trkpt lat="43.36979" lon="-1.86014">
        <ele>36.186767578125</ele>
        <time>2015-11-10T11:54:57Z</time>
      </trkpt>
      <trkpt lat="43.36964" lon="-1.86024">
        <ele>36.186767578125</ele>
        <time>2015-11-10T11:55:13Z</time>
      </trkpt>
      <trkpt lat="43.3695" lon="-1.86034">
        <ele>35.7060546875</ele>
        <time>2015-11-10T11:55:31Z</time>
      </trkpt>
      <trkpt lat="43.36945" lon="-1.8604">
        <ele>35.7060546875</ele>
        <time>2015-11-10T11:55:51Z</time>
      </trkpt>
      <trkpt lat="43.36931" lon="-1.86042">
        <ele>36.66748046875</ele>
        <time>2015-11-10T11:56:08Z</time>
      </trkpt>
      <trkpt lat="43.3693" lon="-1.86041">
        <ele>37.148071289062</ele>
        <time>2015-11-10T11:56:09Z</time>
      </trkpt>
      <trkpt lat="43.36925" lon="-1.86041">
        <ele>37.628662109375</ele>
        <time>2015-11-10T11:56:15Z</time>
      </trkpt>
      <trkpt lat="43.36909" lon="-1.8605">
        <ele>38.109375</ele>
        <time>2015-11-10T11:56:33Z</time>
      </trkpt>
      <trkpt lat="43.36897" lon="-1.86052">
        <ele>37.628662109375</ele>
        <time>2015-11-10T11:56:46Z</time>
      </trkpt>
      <trkpt lat="43.36883" lon="-1.86056">
        <ele>37.148071289062</ele>
        <time>2015-11-10T11:57:02Z</time>
      </trkpt>
      <trkpt lat="43.36869" lon="-1.86073">
        <ele>36.186767578125</ele>
        <time>2015-11-10T11:57:22Z</time>
      </trkpt>
      <trkpt lat="43.36858" lon="-1.86089">
        <ele>34.744873046875</ele>
        <time>2015-11-10T11:57:39Z</time>
      </trkpt>
      <trkpt lat="43.36843" lon="-1.86103">
        <ele>33.302856445312</ele>
        <time>2015-11-10T11:57:57Z</time>
      </trkpt>
      <trkpt lat="43.36824" lon="-1.86111">
        <ele>32.341552734375</ele>
        <time>2015-11-10T11:58:15Z</time>
      </trkpt>
      <trkpt lat="43.36806" lon="-1.86115">
        <ele>30.899536132812</ele>
        <time>2015-11-10T11:58:34Z</time>
      </trkpt>
      <trkpt lat="43.36805" lon="-1.86115">
        <ele>31.860717773438</ele>
        <time>2015-11-10T11:58:36Z</time>
      </trkpt>
      <trkpt lat="43.36796" lon="-1.86106">
        <ele>30.418823242188</ele>
        <time>2015-11-10T11:58:51Z</time>
      </trkpt>
      <trkpt lat="43.36786" lon="-1.86102">
        <ele>28.496215820312</ele>
        <time>2015-11-10T11:59:04Z</time>
      </trkpt>
      <trkpt lat="43.36774" lon="-1.86098">
        <ele>28.015502929688</ele>
        <time>2015-11-10T11:59:18Z</time>
      </trkpt>
      <trkpt lat="43.36767" lon="-1.86109">
        <ele>27.534912109375</ele>
        <time>2015-11-10T11:59:34Z</time>
      </trkpt>
      <trkpt lat="43.36764" lon="-1.86107">
        <ele>28.496215820312</ele>
        <time>2015-11-10T11:59:49Z</time>
      </trkpt>
      <trkpt lat="43.36758" lon="-1.861">
        <ele>28.496215820312</ele>
        <time>2015-11-10T12:00:02Z</time>
      </trkpt>
      <trkpt lat="43.36754" lon="-1.861">
        <ele>28.496215820312</ele>
        <time>2015-11-10T12:00:06Z</time>
      </trkpt>
      <trkpt lat="43.36748" lon="-1.86099">
        <ele>28.976928710938</ele>
        <time>2015-11-10T12:00:12Z</time>
      </trkpt>
      <trkpt lat="43.36733" lon="-1.86103">
        <ele>31.380126953125</ele>
        <time>2015-11-10T12:00:29Z</time>
      </trkpt>
      <trkpt lat="43.36718" lon="-1.861">
        <ele>32.341552734375</ele>
        <time>2015-11-10T12:00:42Z</time>
      </trkpt>
      <trkpt lat="43.36714" lon="-1.86096">
        <ele>32.822265625</ele>
        <time>2015-11-10T12:00:47Z</time>
      </trkpt>
      <trkpt lat="43.367" lon="-1.86092">
        <ele>32.822265625</ele>
        <time>2015-11-10T12:01:03Z</time>
      </trkpt>
      <trkpt lat="43.36692" lon="-1.86083">
        <ele>30.899536132812</ele>
        <time>2015-11-10T12:01:18Z</time>
      </trkpt>
      <trkpt lat="43.3669" lon="-1.86088">
        <ele>30.899536132812</ele>
        <time>2015-11-10T12:01:30Z</time>
      </trkpt>
      <trkpt lat="43.36687" lon="-1.86093">
        <ele>29.45751953125</ele>
        <time>2015-11-10T12:01:43Z</time>
      </trkpt>
      <trkpt lat="43.36684" lon="-1.86099">
        <ele>30.418823242188</ele>
        <time>2015-11-10T12:01:56Z</time>
      </trkpt>
      <trkpt lat="43.3668" lon="-1.86104">
        <ele>31.860717773438</ele>
        <time>2015-11-10T12:02:09Z</time>
      </trkpt>
      <trkpt lat="43.36683" lon="-1.86118">
        <ele>31.380126953125</ele>
        <time>2015-11-10T12:02:22Z</time>
      </trkpt>
      <trkpt lat="43.36689" lon="-1.86131">
        <ele>32.341552734375</ele>
        <time>2015-11-10T12:02:34Z</time>
      </trkpt>
      <trkpt lat="43.36695" lon="-1.8614">
        <ele>35.225463867188</ele>
        <time>2015-11-10T12:02:49Z</time>
      </trkpt>
      <trkpt lat="43.367" lon="-1.86147">
        <ele>38.109375</ele>
        <time>2015-11-10T12:03:04Z</time>
      </trkpt>
      <trkpt lat="43.36707" lon="-1.86154">
        <ele>41.473999023438</ele>
        <time>2015-11-10T12:03:20Z</time>
      </trkpt>
      <trkpt lat="43.36711" lon="-1.86157">
        <ele>43.877319335938</ele>
        <time>2015-11-10T12:03:35Z</time>
      </trkpt>
      <trkpt lat="43.3672" lon="-1.86159">
        <ele>45.319213867188</ele>
        <time>2015-11-10T12:03:47Z</time>
      </trkpt>
      <trkpt lat="43.36727" lon="-1.86163">
        <ele>45.799926757812</ele>
        <time>2015-11-10T12:04:00Z</time>
      </trkpt>
      <trkpt lat="43.36737" lon="-1.86164">
        <ele>46.280639648438</ele>
        <time>2015-11-10T12:04:21Z</time>
      </trkpt>
      <trkpt lat="43.36747" lon="-1.86172">
        <ele>49.16455078125</ele>
        <time>2015-11-10T12:04:36Z</time>
      </trkpt>
      <trkpt lat="43.36747" lon="-1.86175">
        <ele>48.683959960938</ele>
        <time>2015-11-10T12:04:54Z</time>
      </trkpt>
      <trkpt lat="43.36751" lon="-1.86174">
        <ele>50.1259765625</ele>
        <time>2015-11-10T12:05:16Z</time>
      </trkpt>
      <trkpt lat="43.36753" lon="-1.86179">
        <ele>51.087158203125</ele>
        <time>2015-11-10T12:05:33Z</time>
      </trkpt>
      <trkpt lat="43.3676" lon="-1.86185">
        <ele>52.529174804688</ele>
        <time>2015-11-10T12:05:52Z</time>
      </trkpt>
      <trkpt lat="43.36767" lon="-1.86194">
        <ele>54.932373046875</ele>
        <time>2015-11-10T12:06:08Z</time>
      </trkpt>
      <trkpt lat="43.36772" lon="-1.86199">
        <ele>53.490478515625</ele>
        <time>2015-11-10T12:06:18Z</time>
      </trkpt>
      <trkpt lat="43.36785" lon="-1.86207">
        <ele>53.97119140625</ele>
        <time>2015-11-10T12:06:33Z</time>
      </trkpt>
      <trkpt lat="43.36795" lon="-1.86218">
        <ele>56.37451171875</ele>
        <time>2015-11-10T12:06:50Z</time>
      </trkpt>
      <trkpt lat="43.36803" lon="-1.86226">
        <ele>58.297119140625</ele>
        <time>2015-11-10T12:07:01Z</time>
      </trkpt>
      <trkpt lat="43.36809" lon="-1.8623">
        <ele>59.739135742188</ele>
        <time>2015-11-10T12:07:14Z</time>
      </trkpt>
      <trkpt lat="43.36816" lon="-1.86231">
        <ele>62.142333984375</ele>
        <time>2015-11-10T12:07:32Z</time>
      </trkpt>
      <trkpt lat="43.36821" lon="-1.86233">
        <ele>63.103637695312</ele>
        <time>2015-11-10T12:07:45Z</time>
      </trkpt>
      <trkpt lat="43.36823" lon="-1.86234">
        <ele>64.065063476562</ele>
        <time>2015-11-10T12:08:06Z</time>
      </trkpt>
      <trkpt lat="43.36831" lon="-1.8624">
        <ele>66.46826171875</ele>
        <time>2015-11-10T12:08:22Z</time>
      </trkpt>
      <trkpt lat="43.36834" lon="-1.86247">
        <ele>69.352294921875</ele>
        <time>2015-11-10T12:08:33Z</time>
      </trkpt>
      <trkpt lat="43.3684" lon="-1.86251">
        <ele>70.794189453125</ele>
        <time>2015-11-10T12:08:48Z</time>
      </trkpt>
      <trkpt lat="43.36851" lon="-1.86255">
        <ele>72.236206054688</ele>
        <time>2015-11-10T12:09:06Z</time>
      </trkpt>
      <trkpt lat="43.36854" lon="-1.86257">
        <ele>74.158813476562</ele>
        <time>2015-11-10T12:09:11Z</time>
      </trkpt>
      <trkpt lat="43.36861" lon="-1.86264">
        <ele>75.120239257812</ele>
        <time>2015-11-10T12:09:25Z</time>
      </trkpt>
      <trkpt lat="43.36868" lon="-1.86267">
        <ele>74.639526367188</ele>
        <time>2015-11-10T12:09:35Z</time>
      </trkpt>
      <trkpt lat="43.36884" lon="-1.86272">
        <ele>75.600830078125</ele>
        <time>2015-11-10T12:09:54Z</time>
      </trkpt>
      <trkpt lat="43.36888" lon="-1.86275">
        <ele>75.600830078125</ele>
        <time>2015-11-10T12:10:06Z</time>
      </trkpt>
      <trkpt lat="43.3689" lon="-1.86276">
        <ele>77.042846679688</ele>
        <time>2015-11-10T12:10:08Z</time>
      </trkpt>
      <trkpt lat="43.36892" lon="-1.86277">
        <ele>76.081420898438</ele>
        <time>2015-11-10T12:10:10Z</time>
      </trkpt>
      <trkpt lat="43.36896" lon="-1.86278">
        <ele>77.5234375</ele>
        <time>2015-11-10T12:10:15Z</time>
      </trkpt>
      <trkpt lat="43.36898" lon="-1.86278">
        <ele>78.965454101562</ele>
        <time>2015-11-10T12:10:20Z</time>
      </trkpt>
      <trkpt lat="43.36898" lon="-1.86281">
        <ele>81.368774414062</ele>
        <time>2015-11-10T12:10:32Z</time>
      </trkpt>
      <trkpt lat="43.36887" lon="-1.86286">
        <ele>84.7333984375</ele>
        <time>2015-11-10T12:10:49Z</time>
      </trkpt>
      <trkpt lat="43.36885" lon="-1.86292">
        <ele>87.136596679688</ele>
        <time>2015-11-10T12:11:01Z</time>
      </trkpt>
      <trkpt lat="43.36889" lon="-1.86292">
        <ele>88.098022460938</ele>
        <time>2015-11-10T12:11:17Z</time>
      </trkpt>
      <trkpt lat="43.36889" lon="-1.86289">
        <ele>88.578735351562</ele>
        <time>2015-11-10T12:11:19Z</time>
      </trkpt>
      <trkpt lat="43.36889" lon="-1.86285">
        <ele>88.098022460938</ele>
        <time>2015-11-10T12:11:21Z</time>
      </trkpt>
      <trkpt lat="43.36901" lon="-1.86283">
        <ele>86.656005859375</ele>
        <time>2015-11-10T12:11:46Z</time>
      </trkpt>
      <trkpt lat="43.36902" lon="-1.8628">
        <ele>87.136596679688</ele>
        <time>2015-11-10T12:11:48Z</time>
      </trkpt>
      <trkpt lat="43.36906" lon="-1.86292">
        <ele>87.136596679688</ele>
        <time>2015-11-10T12:11:59Z</time>
      </trkpt>
      <trkpt lat="43.36905" lon="-1.86287">
        <ele>87.6171875</ele>
        <time>2015-11-10T12:12:40Z</time>
      </trkpt>
      <trkpt lat="43.36902" lon="-1.86285">
        <ele>87.6171875</ele>
        <time>2015-11-10T12:13:00Z</time>
      </trkpt>
      <trkpt lat="43.36907" lon="-1.86304">
        <ele>88.098022460938</ele>
        <time>2015-11-10T12:13:11Z</time>
      </trkpt>
      <trkpt lat="43.36902" lon="-1.86302">
        <ele>88.098022460938</ele>
        <time>2015-11-10T12:13:27Z</time>
      </trkpt>
      <trkpt lat="43.36903" lon="-1.86299">
        <ele>88.098022460938</ele>
        <time>2015-11-10T12:13:42Z</time>
      </trkpt>
      <trkpt lat="43.36908" lon="-1.86287">
        <ele>88.098022460938</ele>
        <time>2015-11-10T12:14:24Z</time>
      </trkpt>
      <trkpt lat="43.36912" lon="-1.86288">
        <ele>89.059326171875</ele>
        <time>2015-11-10T12:14:36Z</time>
      </trkpt>
      <trkpt lat="43.36918" lon="-1.86287">
        <ele>87.6171875</ele>
        <time>2015-11-10T12:14:47Z</time>
      </trkpt>
      <trkpt lat="43.36929" lon="-1.863">
        <ele>88.578735351562</ele>
        <time>2015-11-10T12:14:59Z</time>
      </trkpt>
      <trkpt lat="43.36929" lon="-1.86292">
        <ele>88.578735351562</ele>
        <time>2015-11-10T12:15:14Z</time>
      </trkpt>
      <trkpt lat="43.36926" lon="-1.86275">
        <ele>89.539916992188</ele>
        <time>2015-11-10T12:15:35Z</time>
      </trkpt>
      <trkpt lat="43.36928" lon="-1.86287">
        <ele>89.539916992188</ele>
        <time>2015-11-10T12:15:47Z</time>
      </trkpt>
      <trkpt lat="43.36928" lon="-1.86285">
        <ele>90.020629882812</ele>
        <time>2015-11-10T12:16:04Z</time>
      </trkpt>
      <trkpt lat="43.36936" lon="-1.86289">
        <ele>90.98193359375</ele>
        <time>2015-11-10T12:16:17Z</time>
      </trkpt>
      <trkpt lat="43.36942" lon="-1.86293">
        <ele>93.865844726562</ele>
        <time>2015-11-10T12:16:29Z</time>
      </trkpt>
      <trkpt lat="43.36953" lon="-1.86294">
        <ele>94.8271484375</ele>
        <time>2015-11-10T12:16:43Z</time>
      </trkpt>
      <trkpt lat="43.36964" lon="-1.86291">
        <ele>95.307739257812</ele>
        <time>2015-11-10T12:16:55Z</time>
      </trkpt>
      <trkpt lat="43.36968" lon="-1.86291">
        <ele>95.307739257812</ele>
        <time>2015-11-10T12:17:10Z</time>
      </trkpt>
      <trkpt lat="43.36972" lon="-1.86286">
        <ele>96.269287109375</ele>
        <time>2015-11-10T12:17:22Z</time>
      </trkpt>
      <trkpt lat="43.36981" lon="-1.86282">
        <ele>98.19189453125</ele>
        <time>2015-11-10T12:17:32Z</time>
      </trkpt>
      <trkpt lat="43.3699" lon="-1.86293">
        <ele>97.711181640625</ele>
        <time>2015-11-10T12:17:48Z</time>
      </trkpt>
      <trkpt lat="43.3699" lon="-1.86293">
        <ele>97.711181640625</ele>
        <time>2015-11-10T12:18:02Z</time>
      </trkpt>
      <trkpt lat="43.36992" lon="-1.86303">
        <ele>95.307739257812</ele>
        <time>2015-11-10T12:18:23Z</time>
      </trkpt>
      <trkpt lat="43.36992" lon="-1.86303">
        <ele>95.307739257812</ele>
        <time>2015-11-10T12:18:24Z</time>
      </trkpt>
      <trkpt lat="43.36997" lon="-1.86309">
        <ele>91.943237304688</ele>
        <time>2015-11-10T12:18:39Z</time>
      </trkpt>
      <trkpt lat="43.36997" lon="-1.86311">
        <ele>91.943237304688</ele>
        <time>2015-11-10T12:18:41Z</time>
      </trkpt>
      <trkpt lat="43.36991" lon="-1.86335">
        <ele>92.423950195312</ele>
        <time>2015-11-10T12:19:02Z</time>
      </trkpt>
      <trkpt lat="43.3699" lon="-1.86339">
        <ele>91.462524414062</ele>
        <time>2015-11-10T12:19:21Z</time>
      </trkpt>
      <trkpt lat="43.36993" lon="-1.86351">
        <ele>88.578735351562</ele>
        <time>2015-11-10T12:19:39Z</time>
      </trkpt>
      <trkpt lat="43.36994" lon="-1.86363">
        <ele>85.694580078125</ele>
        <time>2015-11-10T12:19:53Z</time>
      </trkpt>
      <trkpt lat="43.36986" lon="-1.86384">
        <ele>83.77197265625</ele>
        <time>2015-11-10T12:20:10Z</time>
      </trkpt>
      <trkpt lat="43.3698" lon="-1.86403">
        <ele>82.810791015625</ele>
        <time>2015-11-10T12:20:27Z</time>
      </trkpt>
      <trkpt lat="43.3698" lon="-1.86407">
        <ele>80.407470703125</ele>
        <time>2015-11-10T12:20:31Z</time>
      </trkpt>
      <trkpt lat="43.36981" lon="-1.86411">
        <ele>79.446044921875</ele>
        <time>2015-11-10T12:20:35Z</time>
      </trkpt>
      <trkpt lat="43.36977" lon="-1.86428">
        <ele>78.004028320312</ele>
        <time>2015-11-10T12:20:53Z</time>
      </trkpt>
      <trkpt lat="43.36976" lon="-1.86444">
        <ele>75.600830078125</ele>
        <time>2015-11-10T12:21:07Z</time>
      </trkpt>
      <trkpt lat="43.36967" lon="-1.8647">
        <ele>74.639526367188</ele>
        <time>2015-11-10T12:21:26Z</time>
      </trkpt>
      <trkpt lat="43.36952" lon="-1.86485">
        <ele>74.639526367188</ele>
        <time>2015-11-10T12:21:42Z</time>
      </trkpt>
      <trkpt lat="43.36943" lon="-1.86489">
        <ele>75.120239257812</ele>
        <time>2015-11-10T12:21:57Z</time>
      </trkpt>
      <trkpt lat="43.36939" lon="-1.86489">
        <ele>74.639526367188</ele>
        <time>2015-11-10T12:22:16Z</time>
      </trkpt>
      <trkpt lat="43.36932" lon="-1.86487">
        <ele>78.004028320312</ele>
        <time>2015-11-10T12:22:28Z</time>
      </trkpt>
      <trkpt lat="43.36928" lon="-1.86485">
        <ele>78.004028320312</ele>
        <time>2015-11-10T12:22:40Z</time>
      </trkpt>
      <trkpt lat="43.3692" lon="-1.86484">
        <ele>79.926635742188</ele>
        <time>2015-11-10T12:22:54Z</time>
      </trkpt>
      <trkpt lat="43.36911" lon="-1.86477">
        <ele>82.330078125</ele>
        <time>2015-11-10T12:23:09Z</time>
      </trkpt>
      <trkpt lat="43.36904" lon="-1.86468">
        <ele>85.694580078125</ele>
        <time>2015-11-10T12:23:23Z</time>
      </trkpt>
      <trkpt lat="43.36904" lon="-1.86468">
        <ele>85.694580078125</ele>
        <time>2015-11-10T12:23:24Z</time>
      </trkpt>
      <trkpt lat="43.36898" lon="-1.86465">
        <ele>87.6171875</ele>
        <time>2015-11-10T12:23:39Z</time>
      </trkpt>
      <trkpt lat="43.36887" lon="-1.86459">
        <ele>90.501342773438</ele>
        <time>2015-11-10T12:23:55Z</time>
      </trkpt>
      <trkpt lat="43.36878" lon="-1.86458">
        <ele>92.904541015625</ele>
        <time>2015-11-10T12:24:09Z</time>
      </trkpt>
      <trkpt lat="43.36866" lon="-1.86462">
        <ele>95.788452148438</ele>
        <time>2015-11-10T12:24:26Z</time>
      </trkpt>
      <trkpt lat="43.36855" lon="-1.86465">
        <ele>96.749877929688</ele>
        <time>2015-11-10T12:24:42Z</time>
      </trkpt>
      <trkpt lat="43.3685" lon="-1.86466">
        <ele>97.23046875</ele>
        <time>2015-11-10T12:24:56Z</time>
      </trkpt>
      <trkpt lat="43.36839" lon="-1.86465">
        <ele>98.19189453125</ele>
        <time>2015-11-10T12:25:10Z</time>
      </trkpt>
      <trkpt lat="43.36828" lon="-1.86464">
        <ele>100.11450195312</ele>
        <time>2015-11-10T12:25:24Z</time>
      </trkpt>
      <trkpt lat="43.36826" lon="-1.86463">
        <ele>99.6337890625</ele>
        <time>2015-11-10T12:25:26Z</time>
      </trkpt>
      <trkpt lat="43.36814" lon="-1.86454">
        <ele>99.6337890625</ele>
        <time>2015-11-10T12:25:41Z</time>
      </trkpt>
      <trkpt lat="43.36813" lon="-1.86453">
        <ele>99.6337890625</ele>
        <time>2015-11-10T12:25:43Z</time>
      </trkpt>
      <trkpt lat="43.36802" lon="-1.8645">
        <ele>102.037109375</ele>
        <time>2015-11-10T12:26:00Z</time>
      </trkpt>
      <trkpt lat="43.36801" lon="-1.86446">
        <ele>104.92102050781</ele>
        <time>2015-11-10T12:26:08Z</time>
      </trkpt>
      <trkpt lat="43.36799" lon="-1.86441">
        <ele>106.36303710938</ele>
        <time>2015-11-10T12:26:23Z</time>
      </trkpt>
      <trkpt lat="43.36793" lon="-1.86429">
        <ele>109.72766113281</ele>
        <time>2015-11-10T12:26:39Z</time>
      </trkpt>
      <trkpt lat="43.3679" lon="-1.86419">
        <ele>112.13098144531</ele>
        <time>2015-11-10T12:26:52Z</time>
      </trkpt>
      <trkpt lat="43.36784" lon="-1.86413">
        <ele>115.01489257812</ele>
        <time>2015-11-10T12:27:08Z</time>
      </trkpt>
      <trkpt lat="43.36784" lon="-1.86411">
        <ele>115.49560546875</ele>
        <time>2015-11-10T12:27:10Z</time>
      </trkpt>
      <trkpt lat="43.36783" lon="-1.86406">
        <ele>116.45678710938</ele>
        <time>2015-11-10T12:27:23Z</time>
      </trkpt>
      <trkpt lat="43.36785" lon="-1.86402">
        <ele>119.3408203125</ele>
        <time>2015-11-10T12:27:37Z</time>
      </trkpt>
      <trkpt lat="43.36787" lon="-1.86401">
        <ele>120.78283691406</ele>
        <time>2015-11-10T12:27:55Z</time>
      </trkpt>
      <trkpt lat="43.36783" lon="-1.86392">
        <ele>121.26354980469</ele>
        <time>2015-11-10T12:28:12Z</time>
      </trkpt>
      <trkpt lat="43.3678" lon="-1.86384">
        <ele>123.66674804688</ele>
        <time>2015-11-10T12:28:29Z</time>
      </trkpt>
      <trkpt lat="43.36777" lon="-1.86376">
        <ele>126.55065917969</ele>
        <time>2015-11-10T12:28:42Z</time>
      </trkpt>
      <trkpt lat="43.36777" lon="-1.86372">
        <ele>126.55065917969</ele>
        <time>2015-11-10T12:28:56Z</time>
      </trkpt>
      <trkpt lat="43.36775" lon="-1.86363">
        <ele>128.47338867188</ele>
        <time>2015-11-10T12:29:12Z</time>
      </trkpt>
      <trkpt lat="43.36773" lon="-1.8636">
        <ele>130.39599609375</ele>
        <time>2015-11-10T12:29:17Z</time>
      </trkpt>
      <trkpt lat="43.36766" lon="-1.86358">
        <ele>131.35729980469</ele>
        <time>2015-11-10T12:29:33Z</time>
      </trkpt>
      <trkpt lat="43.36763" lon="-1.8635">
        <ele>134.2412109375</ele>
        <time>2015-11-10T12:29:44Z</time>
      </trkpt>
      <trkpt lat="43.3676" lon="-1.86342">
        <ele>135.68310546875</ele>
        <time>2015-11-10T12:30:00Z</time>
      </trkpt>
      <trkpt lat="43.36761" lon="-1.86343">
        <ele>135.20251464844</ele>
        <time>2015-11-10T12:30:14Z</time>
      </trkpt>
      <trkpt lat="43.36759" lon="-1.86344">
        <ele>136.16394042969</ele>
        <time>2015-11-10T12:30:53Z</time>
      </trkpt>
      <trkpt lat="43.36758" lon="-1.86344">
        <ele>135.20251464844</ele>
        <time>2015-11-10T12:31:58Z</time>
      </trkpt>
      <trkpt lat="43.36758" lon="-1.86344">
        <ele>135.20251464844</ele>
        <time>2015-11-10T12:32:08Z</time>
      </trkpt>
      <trkpt lat="43.36759" lon="-1.86341">
        <ele>136.16394042969</ele>
        <time>2015-11-10T12:33:22Z</time>
      </trkpt>
      <trkpt lat="43.3675" lon="-1.86346">
        <ele>137.12524414062</ele>
        <time>2015-11-10T12:33:40Z</time>
      </trkpt>
      <trkpt lat="43.36736" lon="-1.86349">
        <ele>139.0478515625</ele>
        <time>2015-11-10T12:34:01Z</time>
      </trkpt>
      <trkpt lat="43.36731" lon="-1.86351">
        <ele>139.52844238281</ele>
        <time>2015-11-10T12:34:07Z</time>
      </trkpt>
      <trkpt lat="43.36715" lon="-1.86361">
        <ele>140.97045898438</ele>
        <time>2015-11-10T12:34:25Z</time>
      </trkpt>
      <trkpt lat="43.3671" lon="-1.86367">
        <ele>142.41247558594</ele>
        <time>2015-11-10T12:34:34Z</time>
      </trkpt>
      <trkpt lat="43.36696" lon="-1.86379">
        <ele>141.45104980469</ele>
        <time>2015-11-10T12:34:51Z</time>
      </trkpt>
      <trkpt lat="43.36681" lon="-1.86381">
        <ele>142.89306640625</ele>
        <time>2015-11-10T12:35:07Z</time>
      </trkpt>
      <trkpt lat="43.36673" lon="-1.86385">
        <ele>143.37365722656</ele>
        <time>2015-11-10T12:35:21Z</time>
      </trkpt>
      <trkpt lat="43.36674" lon="-1.86384">
        <ele>142.41247558594</ele>
        <time>2015-11-10T12:35:35Z</time>
      </trkpt>
      <trkpt lat="43.36674" lon="-1.8638">
        <ele>142.89306640625</ele>
        <time>2015-11-10T12:36:09Z</time>
      </trkpt>
      <trkpt lat="43.36675" lon="-1.86379">
        <ele>143.85437011719</ele>
        <time>2015-11-10T12:36:11Z</time>
      </trkpt>
      <trkpt lat="43.36677" lon="-1.86366">
        <ele>146.73840332031</ele>
        <time>2015-11-10T12:36:25Z</time>
      </trkpt>
      <trkpt lat="43.36677" lon="-1.86366">
        <ele>147.21899414062</ele>
        <time>2015-11-10T12:36:26Z</time>
      </trkpt>
      <trkpt lat="43.36682" lon="-1.86355">
        <ele>149.1416015625</ele>
        <time>2015-11-10T12:36:36Z</time>
      </trkpt>
      <trkpt lat="43.36682" lon="-1.86351">
        <ele>150.58361816406</ele>
        <time>2015-11-10T12:36:40Z</time>
      </trkpt>
      <trkpt lat="43.36682" lon="-1.86336">
        <ele>152.98693847656</ele>
        <time>2015-11-10T12:36:55Z</time>
      </trkpt>
      <trkpt lat="43.36679" lon="-1.86334">
        <ele>153.46765136719</ele>
        <time>2015-11-10T12:36:58Z</time>
      </trkpt>
      <trkpt lat="43.36667" lon="-1.86328">
        <ele>156.3515625</ele>
        <time>2015-11-10T12:37:13Z</time>
      </trkpt>
      <trkpt lat="43.3666" lon="-1.86327">
        <ele>156.83215332031</ele>
        <time>2015-11-10T12:37:21Z</time>
      </trkpt>
      <trkpt lat="43.36656" lon="-1.8633">
        <ele>158.27416992188</ele>
        <time>2015-11-10T12:37:34Z</time>
      </trkpt>
      <trkpt lat="43.36651" lon="-1.86327">
        <ele>157.31286621094</ele>
        <time>2015-11-10T12:37:51Z</time>
      </trkpt>
      <trkpt lat="43.36644" lon="-1.86336">
        <ele>158.27416992188</ele>
        <time>2015-11-10T12:38:07Z</time>
      </trkpt>
      <trkpt lat="43.36638" lon="-1.86339">
        <ele>157.31286621094</ele>
        <time>2015-11-10T12:38:35Z</time>
      </trkpt>
      <trkpt lat="43.36625" lon="-1.86345">
        <ele>156.83215332031</ele>
        <time>2015-11-10T12:38:52Z</time>
      </trkpt>
      <trkpt lat="43.36625" lon="-1.86346">
        <ele>157.31286621094</ele>
        <time>2015-11-10T12:39:17Z</time>
      </trkpt>
      <trkpt lat="43.36621" lon="-1.86349">
        <ele>156.83215332031</ele>
        <time>2015-11-10T12:39:23Z</time>
      </trkpt>
      <trkpt lat="43.36617" lon="-1.86351">
        <ele>156.83215332031</ele>
        <time>2015-11-10T12:39:36Z</time>
      </trkpt>
      <trkpt lat="43.36616" lon="-1.86352">
        <ele>156.83215332031</ele>
        <time>2015-11-10T12:39:38Z</time>
      </trkpt>
      <trkpt lat="43.36602" lon="-1.86359">
        <ele>155.87097167969</ele>
        <time>2015-11-10T12:39:54Z</time>
      </trkpt>
      <trkpt lat="43.366" lon="-1.8636">
        <ele>155.87097167969</ele>
        <time>2015-11-10T12:39:56Z</time>
      </trkpt>
      <trkpt lat="43.36596" lon="-1.86357">
        <ele>156.83215332031</ele>
        <time>2015-11-10T12:40:00Z</time>
      </trkpt>
      <trkpt lat="43.36581" lon="-1.86361">
        <ele>157.31286621094</ele>
        <time>2015-11-10T12:40:15Z</time>
      </trkpt>
      <trkpt lat="43.36571" lon="-1.86365">
        <ele>157.79357910156</ele>
        <time>2015-11-10T12:40:26Z</time>
      </trkpt>
      <trkpt lat="43.36567" lon="-1.86365">
        <ele>157.79357910156</ele>
        <time>2015-11-10T12:40:30Z</time>
      </trkpt>
      <trkpt lat="43.36564" lon="-1.86364">
        <ele>158.75476074219</ele>
        <time>2015-11-10T12:40:34Z</time>
      </trkpt>
      <trkpt lat="43.36549" lon="-1.86368">
        <ele>160.19689941406</ele>
        <time>2015-11-10T12:40:49Z</time>
      </trkpt>
      <trkpt lat="43.36534" lon="-1.86361">
        <ele>162.11950683594</ele>
        <time>2015-11-10T12:41:05Z</time>
      </trkpt>
      <trkpt lat="43.36521" lon="-1.86355">
        <ele>164.04211425781</ele>
        <time>2015-11-10T12:41:19Z</time>
      </trkpt>
      <trkpt lat="43.36511" lon="-1.86349">
        <ele>166.92602539062</ele>
        <time>2015-11-10T12:41:35Z</time>
      </trkpt>
      <trkpt lat="43.36498" lon="-1.86352">
        <ele>168.84875488281</ele>
        <time>2015-11-10T12:41:50Z</time>
      </trkpt>
      <trkpt lat="43.36488" lon="-1.86357">
        <ele>169.32946777344</ele>
        <time>2015-11-10T12:42:00Z</time>
      </trkpt>
      <trkpt lat="43.36481" lon="-1.86357">
        <ele>169.81005859375</ele>
        <time>2015-11-10T12:42:06Z</time>
      </trkpt>
      <trkpt lat="43.36466" lon="-1.86362">
        <ele>169.32946777344</ele>
        <time>2015-11-10T12:42:20Z</time>
      </trkpt>
      <trkpt lat="43.36449" lon="-1.86355">
        <ele>169.32946777344</ele>
        <time>2015-11-10T12:42:36Z</time>
      </trkpt>
      <trkpt lat="43.36434" lon="-1.86347">
        <ele>169.32946777344</ele>
        <time>2015-11-10T12:42:52Z</time>
      </trkpt>
      <trkpt lat="43.36413" lon="-1.86339">
        <ele>169.32946777344</ele>
        <time>2015-11-10T12:43:11Z</time>
      </trkpt>
      <trkpt lat="43.36395" lon="-1.86337">
        <ele>170.29064941406</ele>
        <time>2015-11-10T12:43:29Z</time>
      </trkpt>
      <trkpt lat="43.36374" lon="-1.86328">
        <ele>172.21325683594</ele>
        <time>2015-11-10T12:43:48Z</time>
      </trkpt>
      <trkpt lat="43.36354" lon="-1.86321">
        <ele>174.13586425781</ele>
        <time>2015-11-10T12:44:05Z</time>
      </trkpt>
      <trkpt lat="43.36339" lon="-1.86316">
        <ele>174.61657714844</ele>
        <time>2015-11-10T12:44:20Z</time>
      </trkpt>
      <trkpt lat="43.36321" lon="-1.8631">
        <ele>175.09729003906</ele>
        <time>2015-11-10T12:44:35Z</time>
      </trkpt>
      <trkpt lat="43.36295" lon="-1.863">
        <ele>176.53930664062</ele>
        <time>2015-11-10T12:44:57Z</time>
      </trkpt>
      <trkpt lat="43.36278" lon="-1.86298">
        <ele>176.53930664062</ele>
        <time>2015-11-10T12:45:14Z</time>
      </trkpt>
      <trkpt lat="43.36259" lon="-1.86292">
        <ele>177.98120117188</ele>
        <time>2015-11-10T12:45:31Z</time>
      </trkpt>
      <trkpt lat="43.3624" lon="-1.86279">
        <ele>180.38452148438</ele>
        <time>2015-11-10T12:45:48Z</time>
      </trkpt>
      <trkpt lat="43.36224" lon="-1.86264">
        <ele>182.78784179688</ele>
        <time>2015-11-10T12:46:06Z</time>
      </trkpt>
      <trkpt lat="43.36213" lon="-1.86249">
        <ele>186.15246582031</ele>
        <time>2015-11-10T12:46:23Z</time>
      </trkpt>
      <trkpt lat="43.36196" lon="-1.86236">
        <ele>189.03637695312</ele>
        <time>2015-11-10T12:46:44Z</time>
      </trkpt>
      <trkpt lat="43.3618" lon="-1.8622">
        <ele>192.40112304688</ele>
        <time>2015-11-10T12:47:02Z</time>
      </trkpt>
      <trkpt lat="43.36175" lon="-1.86218">
        <ele>192.88171386719</ele>
        <time>2015-11-10T12:47:08Z</time>
      </trkpt>
      <trkpt lat="43.36163" lon="-1.86212">
        <ele>194.32373046875</ele>
        <time>2015-11-10T12:47:24Z</time>
      </trkpt>
      <trkpt lat="43.36158" lon="-1.8621">
        <ele>195.765625</ele>
        <time>2015-11-10T12:47:31Z</time>
      </trkpt>
      <trkpt lat="43.3614" lon="-1.86198">
        <ele>196.24633789062</ele>
        <time>2015-11-10T12:47:50Z</time>
      </trkpt>
      <trkpt lat="43.36123" lon="-1.8619">
        <ele>197.68823242188</ele>
        <time>2015-11-10T12:48:08Z</time>
      </trkpt>
      <trkpt lat="43.36108" lon="-1.86182">
        <ele>198.1689453125</ele>
        <time>2015-11-10T12:48:25Z</time>
      </trkpt>
      <trkpt lat="43.36103" lon="-1.86176">
        <ele>199.61083984375</ele>
        <time>2015-11-10T12:48:33Z</time>
      </trkpt>
      <trkpt lat="43.36096" lon="-1.86176">
        <ele>198.64953613281</ele>
        <time>2015-11-10T12:48:46Z</time>
      </trkpt>
      <trkpt lat="43.36079" lon="-1.86174">
        <ele>198.1689453125</ele>
        <time>2015-11-10T12:49:03Z</time>
      </trkpt>
      <trkpt lat="43.36066" lon="-1.86171">
        <ele>197.68823242188</ele>
        <time>2015-11-10T12:49:22Z</time>
      </trkpt>
      <trkpt lat="43.3605" lon="-1.86168">
        <ele>198.1689453125</ele>
        <time>2015-11-10T12:49:39Z</time>
      </trkpt>
      <trkpt lat="43.36046" lon="-1.86168">
        <ele>198.1689453125</ele>
        <time>2015-11-10T12:49:43Z</time>
      </trkpt>
      <trkpt lat="43.36042" lon="-1.86168">
        <ele>198.64953613281</ele>
        <time>2015-11-10T12:49:47Z</time>
      </trkpt>
      <trkpt lat="43.36039" lon="-1.86171">
        <ele>199.13012695312</ele>
        <time>2015-11-10T12:49:52Z</time>
      </trkpt>
      <trkpt lat="43.36035" lon="-1.86172">
        <ele>198.64953613281</ele>
        <time>2015-11-10T12:49:56Z</time>
      </trkpt>
      <trkpt lat="43.3602" lon="-1.86179">
        <ele>200.09167480469</ele>
        <time>2015-11-10T12:50:14Z</time>
      </trkpt>
      <trkpt lat="43.36009" lon="-1.86177">
        <ele>201.05285644531</ele>
        <time>2015-11-10T12:50:28Z</time>
      </trkpt>
      <trkpt lat="43.36002" lon="-1.8617">
        <ele>203.93688964844</ele>
        <time>2015-11-10T12:50:39Z</time>
      </trkpt>
      <trkpt lat="43.36" lon="-1.86165">
        <ele>204.41748046875</ele>
        <time>2015-11-10T12:50:52Z</time>
      </trkpt>
      <trkpt lat="43.3599" lon="-1.86137">
        <ele>204.89807128906</ele>
        <time>2015-11-10T12:51:13Z</time>
      </trkpt>
      <trkpt lat="43.3599" lon="-1.86112">
        <ele>206.82067871094</ele>
        <time>2015-11-10T12:51:31Z</time>
      </trkpt>
      <trkpt lat="43.35991" lon="-1.86091">
        <ele>208.26281738281</ele>
        <time>2015-11-10T12:51:48Z</time>
      </trkpt>
      <trkpt lat="43.3599" lon="-1.8609">
        <ele>208.74340820312</ele>
        <time>2015-11-10T12:51:49Z</time>
      </trkpt>
      <trkpt lat="43.35987" lon="-1.86066">
        <ele>209.70483398438</ele>
        <time>2015-11-10T12:52:08Z</time>
      </trkpt>
      <trkpt lat="43.35982" lon="-1.86043">
        <ele>211.14672851562</ele>
        <time>2015-11-10T12:52:25Z</time>
      </trkpt>
      <trkpt lat="43.35971" lon="-1.86034">
        <ele>213.0693359375</ele>
        <time>2015-11-10T12:52:38Z</time>
      </trkpt>
      <trkpt lat="43.35953" lon="-1.86032">
        <ele>214.03063964844</ele>
        <time>2015-11-10T12:52:56Z</time>
      </trkpt>
      <trkpt lat="43.35943" lon="-1.86019">
        <ele>215.95324707031</ele>
        <time>2015-11-10T12:53:14Z</time>
      </trkpt>
      <trkpt lat="43.3593" lon="-1.8601">
        <ele>216.91467285156</ele>
        <time>2015-11-10T12:53:31Z</time>
      </trkpt>
      <trkpt lat="43.35918" lon="-1.86004">
        <ele>218.35656738281</ele>
        <time>2015-11-10T12:53:46Z</time>
      </trkpt>
      <trkpt lat="43.35911" lon="-1.85991">
        <ele>220.75988769531</ele>
        <time>2015-11-10T12:54:02Z</time>
      </trkpt>
      <trkpt lat="43.359" lon="-1.85982">
        <ele>222.68249511719</ele>
        <time>2015-11-10T12:54:20Z</time>
      </trkpt>
      <trkpt lat="43.35892" lon="-1.85971">
        <ele>224.12451171875</ele>
        <time>2015-11-10T12:54:36Z</time>
      </trkpt>
      <trkpt lat="43.3589" lon="-1.85965">
        <ele>227.00854492188</ele>
        <time>2015-11-10T12:54:44Z</time>
      </trkpt>
      <trkpt lat="43.3588" lon="-1.85952">
        <ele>229.41174316406</ele>
        <time>2015-11-10T12:55:05Z</time>
      </trkpt>
      <trkpt lat="43.35876" lon="-1.85947">
        <ele>231.33435058594</ele>
        <time>2015-11-10T12:55:21Z</time>
      </trkpt>
      <trkpt lat="43.35873" lon="-1.85938">
        <ele>232.29577636719</ele>
        <time>2015-11-10T12:55:37Z</time>
      </trkpt>
      <trkpt lat="43.35869" lon="-1.85926">
        <ele>234.21838378906</ele>
        <time>2015-11-10T12:55:56Z</time>
      </trkpt>
      <trkpt lat="43.35867" lon="-1.85921">
        <ele>236.62170410156</ele>
        <time>2015-11-10T12:56:03Z</time>
      </trkpt>
      <trkpt lat="43.35858" lon="-1.85908">
        <ele>239.50549316406</ele>
        <time>2015-11-10T12:56:21Z</time>
      </trkpt>
      <trkpt lat="43.35852" lon="-1.85898">
        <ele>240.46704101562</ele>
        <time>2015-11-10T12:56:36Z</time>
      </trkpt>
      <trkpt lat="43.35843" lon="-1.8589">
        <ele>242.3896484375</ele>
        <time>2015-11-10T12:56:53Z</time>
      </trkpt>
      <trkpt lat="43.35836" lon="-1.85884">
        <ele>245.2734375</ele>
        <time>2015-11-10T12:57:09Z</time>
      </trkpt>
      <trkpt lat="43.35828" lon="-1.85878">
        <ele>246.71545410156</ele>
        <time>2015-11-10T12:57:24Z</time>
      </trkpt>
      <trkpt lat="43.35825" lon="-1.85876">
        <ele>247.19604492188</ele>
        <time>2015-11-10T12:57:28Z</time>
      </trkpt>
      <trkpt lat="43.35815" lon="-1.85872">
        <ele>250.08020019531</ele>
        <time>2015-11-10T12:57:45Z</time>
      </trkpt>
      <trkpt lat="43.35808" lon="-1.85868">
        <ele>252.00280761719</ele>
        <time>2015-11-10T12:57:59Z</time>
      </trkpt>
      <trkpt lat="43.358" lon="-1.85863">
        <ele>253.92541503906</ele>
        <time>2015-11-10T12:58:13Z</time>
      </trkpt>
      <trkpt lat="43.35789" lon="-1.85854">
        <ele>256.80932617188</ele>
        <time>2015-11-10T12:58:28Z</time>
      </trkpt>
      <trkpt lat="43.35789" lon="-1.85853">
        <ele>256.80932617188</ele>
        <time>2015-11-10T12:58:29Z</time>
      </trkpt>
      <trkpt lat="43.35784" lon="-1.85848">
        <ele>257.77075195312</ele>
        <time>2015-11-10T12:58:36Z</time>
      </trkpt>
      <trkpt lat="43.35773" lon="-1.85839">
        <ele>260.65454101562</ele>
        <time>2015-11-10T12:58:53Z</time>
      </trkpt>
      <trkpt lat="43.35765" lon="-1.85837">
        <ele>262.09655761719</ele>
        <time>2015-11-10T12:59:08Z</time>
      </trkpt>
      <trkpt lat="43.35757" lon="-1.85833">
        <ele>265.46130371094</ele>
        <time>2015-11-10T12:59:23Z</time>
      </trkpt>
      <trkpt lat="43.35745" lon="-1.85827">
        <ele>267.38391113281</ele>
        <time>2015-11-10T12:59:44Z</time>
      </trkpt>
      <trkpt lat="43.35737" lon="-1.85823">
        <ele>269.30651855469</ele>
        <time>2015-11-10T13:00:02Z</time>
      </trkpt>
      <trkpt lat="43.35729" lon="-1.85819">
        <ele>270.74841308594</ele>
        <time>2015-11-10T13:00:17Z</time>
      </trkpt>
      <trkpt lat="43.35722" lon="-1.85813">
        <ele>273.15185546875</ele>
        <time>2015-11-10T13:00:35Z</time>
      </trkpt>
      <trkpt lat="43.35716" lon="-1.85807">
        <ele>274.59375</ele>
        <time>2015-11-10T13:00:49Z</time>
      </trkpt>
      <trkpt lat="43.35706" lon="-1.85802">
        <ele>277.47766113281</ele>
        <time>2015-11-10T13:01:07Z</time>
      </trkpt>
      <trkpt lat="43.35702" lon="-1.85798">
        <ele>278.43896484375</ele>
        <time>2015-11-10T13:01:25Z</time>
      </trkpt>
      <trkpt lat="43.35695" lon="-1.85793">
        <ele>280.36169433594</ele>
        <time>2015-11-10T13:01:47Z</time>
      </trkpt>
      <trkpt lat="43.35685" lon="-1.85792">
        <ele>282.76501464844</ele>
        <time>2015-11-10T13:02:05Z</time>
      </trkpt>
      <trkpt lat="43.35677" lon="-1.85801">
        <ele>285.16821289062</ele>
        <time>2015-11-10T13:02:23Z</time>
      </trkpt>
      <trkpt lat="43.3567" lon="-1.85809">
        <ele>287.57141113281</ele>
        <time>2015-11-10T13:02:38Z</time>
      </trkpt>
      <trkpt lat="43.35662" lon="-1.85818">
        <ele>289.494140625</ele>
        <time>2015-11-10T13:02:54Z</time>
      </trkpt>
      <trkpt lat="43.35648" lon="-1.85818">
        <ele>291.8974609375</ele>
        <time>2015-11-10T13:03:12Z</time>
      </trkpt>
      <trkpt lat="43.35641" lon="-1.85813">
        <ele>295.26196289062</ele>
        <time>2015-11-10T13:03:24Z</time>
      </trkpt>
      <trkpt lat="43.35631" lon="-1.85808">
        <ele>295.74267578125</ele>
        <time>2015-11-10T13:03:40Z</time>
      </trkpt>
      <trkpt lat="43.35623" lon="-1.85804">
        <ele>297.18469238281</ele>
        <time>2015-11-10T13:03:57Z</time>
      </trkpt>
      <trkpt lat="43.35616" lon="-1.85798">
        <ele>298.14611816406</ele>
        <time>2015-11-10T13:04:13Z</time>
      </trkpt>
      <trkpt lat="43.35608" lon="-1.85794">
        <ele>301.51062011719</ele>
        <time>2015-11-10T13:04:28Z</time>
      </trkpt>
      <trkpt lat="43.35598" lon="-1.8579">
        <ele>303.43322753906</ele>
        <time>2015-11-10T13:04:45Z</time>
      </trkpt>
      <trkpt lat="43.35591" lon="-1.85789">
        <ele>305.83666992188</ele>
        <time>2015-11-10T13:05:00Z</time>
      </trkpt>
      <trkpt lat="43.35583" lon="-1.85788">
        <ele>307.27856445312</ele>
        <time>2015-11-10T13:05:16Z</time>
      </trkpt>
      <trkpt lat="43.35573" lon="-1.85789">
        <ele>309.68188476562</ele>
        <time>2015-11-10T13:05:32Z</time>
      </trkpt>
      <trkpt lat="43.35569" lon="-1.8579">
        <ele>311.12377929688</ele>
        <time>2015-11-10T13:05:38Z</time>
      </trkpt>
      <trkpt lat="43.3556" lon="-1.8579">
        <ele>313.52722167969</ele>
        <time>2015-11-10T13:05:55Z</time>
      </trkpt>
      <trkpt lat="43.35549" lon="-1.85788">
        <ele>315.44982910156</ele>
        <time>2015-11-10T13:06:11Z</time>
      </trkpt>
      <trkpt lat="43.35543" lon="-1.85778">
        <ele>316.89172363281</ele>
        <time>2015-11-10T13:06:27Z</time>
      </trkpt>
      <trkpt lat="43.35542" lon="-1.85769">
        <ele>317.85302734375</ele>
        <time>2015-11-10T13:06:44Z</time>
      </trkpt>
      <trkpt lat="43.35542" lon="-1.85759">
        <ele>319.29504394531</ele>
        <time>2015-11-10T13:07:00Z</time>
      </trkpt>
      <trkpt lat="43.35545" lon="-1.85747">
        <ele>322.17895507812</ele>
        <time>2015-11-10T13:07:18Z</time>
      </trkpt>
      <trkpt lat="43.35548" lon="-1.8574">
        <ele>323.14038085938</ele>
        <time>2015-11-10T13:07:35Z</time>
      </trkpt>
      <trkpt lat="43.35551" lon="-1.85727">
        <ele>325.54357910156</ele>
        <time>2015-11-10T13:07:53Z</time>
      </trkpt>
      <trkpt lat="43.35552" lon="-1.8572">
        <ele>327.46618652344</ele>
        <time>2015-11-10T13:08:10Z</time>
      </trkpt>
      <trkpt lat="43.35551" lon="-1.85707">
        <ele>328.90832519531</ele>
        <time>2015-11-10T13:08:26Z</time>
      </trkpt>
      <trkpt lat="43.35551" lon="-1.85698">
        <ele>329.38891601562</ele>
        <time>2015-11-10T13:08:40Z</time>
      </trkpt>
      <trkpt lat="43.35546" lon="-1.85677">
        <ele>329.86950683594</ele>
        <time>2015-11-10T13:08:59Z</time>
      </trkpt>
      <trkpt lat="43.35539" lon="-1.8566">
        <ele>331.3115234375</ele>
        <time>2015-11-10T13:09:16Z</time>
      </trkpt>
      <trkpt lat="43.35533" lon="-1.85645">
        <ele>332.27282714844</ele>
        <time>2015-11-10T13:09:31Z</time>
      </trkpt>
      <trkpt lat="43.35531" lon="-1.8564">
        <ele>333.23413085938</ele>
        <time>2015-11-10T13:09:35Z</time>
      </trkpt>
      <trkpt lat="43.35525" lon="-1.85624">
        <ele>335.15673828125</ele>
        <time>2015-11-10T13:09:49Z</time>
      </trkpt>
      <trkpt lat="43.35524" lon="-1.85621">
        <ele>335.63732910156</ele>
        <time>2015-11-10T13:10:03Z</time>
      </trkpt>
      <trkpt lat="43.35522" lon="-1.85601">
        <ele>336.59887695312</ele>
        <time>2015-11-10T13:10:20Z</time>
      </trkpt>
      <trkpt lat="43.3552" lon="-1.85582">
        <ele>338.521484375</ele>
        <time>2015-11-10T13:10:37Z</time>
      </trkpt>
      <trkpt lat="43.3552" lon="-1.85576">
        <ele>339.48266601562</ele>
        <time>2015-11-10T13:10:53Z</time>
      </trkpt>
      <trkpt lat="43.35518" lon="-1.85564">
        <ele>341.4052734375</ele>
        <time>2015-11-10T13:11:06Z</time>
      </trkpt>
      <trkpt lat="43.35516" lon="-1.85542">
        <ele>342.36669921875</ele>
        <time>2015-11-10T13:11:24Z</time>
      </trkpt>
      <trkpt lat="43.35515" lon="-1.85524">
        <ele>343.80859375</ele>
        <time>2015-11-10T13:11:41Z</time>
      </trkpt>
      <trkpt lat="43.35512" lon="-1.85504">
        <ele>346.69262695312</ele>
        <time>2015-11-10T13:11:58Z</time>
      </trkpt>
      <trkpt lat="43.3551" lon="-1.85485">
        <ele>348.13464355469</ele>
        <time>2015-11-10T13:12:15Z</time>
      </trkpt>
      <trkpt lat="43.35513" lon="-1.85482">
        <ele>347.65393066406</ele>
        <time>2015-11-10T13:12:37Z</time>
      </trkpt>
      <trkpt lat="43.3551" lon="-1.8547">
        <ele>348.13464355469</ele>
        <time>2015-11-10T13:13:18Z</time>
      </trkpt>
      <trkpt lat="43.35506" lon="-1.85443">
        <ele>351.01843261719</ele>
        <time>2015-11-10T13:13:39Z</time>
      </trkpt>
      <trkpt lat="43.35509" lon="-1.85435">
        <ele>351.49914550781</ele>
        <time>2015-11-10T13:13:46Z</time>
      </trkpt>
      <trkpt lat="43.35516" lon="-1.85421">
        <ele>352.46057128906</ele>
        <time>2015-11-10T13:14:00Z</time>
      </trkpt>
      <trkpt lat="43.35527" lon="-1.85406">
        <ele>353.421875</ele>
        <time>2015-11-10T13:14:17Z</time>
      </trkpt>
      <trkpt lat="43.35534" lon="-1.8539">
        <ele>355.34448242188</ele>
        <time>2015-11-10T13:14:33Z</time>
      </trkpt>
      <trkpt lat="43.35544" lon="-1.85372">
        <ele>357.26708984375</ele>
        <time>2015-11-10T13:14:52Z</time>
      </trkpt>
      <trkpt lat="43.35552" lon="-1.85357">
        <ele>357.26708984375</ele>
        <time>2015-11-10T13:15:07Z</time>
      </trkpt>
      <trkpt lat="43.35559" lon="-1.8534">
        <ele>359.18969726562</ele>
        <time>2015-11-10T13:15:23Z</time>
      </trkpt>
      <trkpt lat="43.35563" lon="-1.85327">
        <ele>359.18969726562</ele>
        <time>2015-11-10T13:15:37Z</time>
      </trkpt>
      <trkpt lat="43.35569" lon="-1.85303">
        <ele>360.15112304688</ele>
        <time>2015-11-10T13:15:55Z</time>
      </trkpt>
      <trkpt lat="43.35569" lon="-1.85294">
        <ele>361.11242675781</ele>
        <time>2015-11-10T13:16:01Z</time>
      </trkpt>
      <trkpt lat="43.35567" lon="-1.85284">
        <ele>361.11242675781</ele>
        <time>2015-11-10T13:16:11Z</time>
      </trkpt>
      <trkpt lat="43.35558" lon="-1.85276">
        <ele>361.11242675781</ele>
        <time>2015-11-10T13:16:24Z</time>
      </trkpt>
      <trkpt lat="43.35552" lon="-1.85268">
        <ele>361.11242675781</ele>
        <time>2015-11-10T13:16:40Z</time>
      </trkpt>
      <trkpt lat="43.3554" lon="-1.8526">
        <ele>360.63171386719</ele>
        <time>2015-11-10T13:16:57Z</time>
      </trkpt>
      <trkpt lat="43.35525" lon="-1.85248">
        <ele>360.63171386719</ele>
        <time>2015-11-10T13:17:14Z</time>
      </trkpt>
      <trkpt lat="43.35518" lon="-1.85243">
        <ele>360.63171386719</ele>
        <time>2015-11-10T13:17:21Z</time>
      </trkpt>
      <trkpt lat="43.35517" lon="-1.85244">
        <ele>360.63171386719</ele>
        <time>2015-11-10T13:17:23Z</time>
      </trkpt>
      <trkpt lat="43.35496" lon="-1.85228">
        <ele>359.18969726562</ele>
        <time>2015-11-10T13:17:44Z</time>
      </trkpt>
      <trkpt lat="43.35478" lon="-1.85215">
        <ele>359.67041015625</ele>
        <time>2015-11-10T13:18:03Z</time>
      </trkpt>
      <trkpt lat="43.35458" lon="-1.85203">
        <ele>359.18969726562</ele>
        <time>2015-11-10T13:18:23Z</time>
      </trkpt>
      <trkpt lat="43.3544" lon="-1.85193">
        <ele>359.18969726562</ele>
        <time>2015-11-10T13:18:42Z</time>
      </trkpt>
      <trkpt lat="43.35421" lon="-1.85184">
        <ele>359.67041015625</ele>
        <time>2015-11-10T13:19:00Z</time>
      </trkpt>
      <trkpt lat="43.35409" lon="-1.85176">
        <ele>361.11242675781</ele>
        <time>2015-11-10T13:19:13Z</time>
      </trkpt>
      <trkpt lat="43.35393" lon="-1.85163">
        <ele>363.51574707031</ele>
        <time>2015-11-10T13:19:31Z</time>
      </trkpt>
      <trkpt lat="43.35381" lon="-1.85152">
        <ele>364.47692871094</ele>
        <time>2015-11-10T13:19:46Z</time>
      </trkpt>
      <trkpt lat="43.35363" lon="-1.85133">
        <ele>363.99633789062</ele>
        <time>2015-11-10T13:20:05Z</time>
      </trkpt>
      <trkpt lat="43.35341" lon="-1.85118">
        <ele>363.03503417969</ele>
        <time>2015-11-10T13:20:26Z</time>
      </trkpt>
      <trkpt lat="43.35322" lon="-1.85105">
        <ele>363.03503417969</ele>
        <time>2015-11-10T13:20:44Z</time>
      </trkpt>
      <trkpt lat="43.35307" lon="-1.85089">
        <ele>365.43835449219</ele>
        <time>2015-11-10T13:21:03Z</time>
      </trkpt>
      <trkpt lat="43.35296" lon="-1.85066">
        <ele>366.39953613281</ele>
        <time>2015-11-10T13:21:24Z</time>
      </trkpt>
      <trkpt lat="43.35289" lon="-1.85046">
        <ele>367.84155273438</ele>
        <time>2015-11-10T13:21:40Z</time>
      </trkpt>
      <trkpt lat="43.3528" lon="-1.85021">
        <ele>368.322265625</ele>
        <time>2015-11-10T13:21:59Z</time>
      </trkpt>
      <trkpt lat="43.35277" lon="-1.84998">
        <ele>369.28369140625</ele>
        <time>2015-11-10T13:22:16Z</time>
      </trkpt>
      <trkpt lat="43.35278" lon="-1.84975">
        <ele>370.7255859375</ele>
        <time>2015-11-10T13:22:33Z</time>
      </trkpt>
      <trkpt lat="43.35284" lon="-1.84955">
        <ele>372.16748046875</ele>
        <time>2015-11-10T13:22:49Z</time>
      </trkpt>
      <trkpt lat="43.35288" lon="-1.84937">
        <ele>374.09008789062</ele>
        <time>2015-11-10T13:23:04Z</time>
      </trkpt>
      <trkpt lat="43.35292" lon="-1.84924">
        <ele>375.05151367188</ele>
        <time>2015-11-10T13:23:15Z</time>
      </trkpt>
      <trkpt lat="43.35297" lon="-1.84915">
        <ele>376.49353027344</ele>
        <time>2015-11-10T13:23:23Z</time>
      </trkpt>
      <trkpt lat="43.35301" lon="-1.84903">
        <ele>376.49353027344</ele>
        <time>2015-11-10T13:23:32Z</time>
      </trkpt>
      <trkpt lat="43.35303" lon="-1.84898">
        <ele>376.97424316406</ele>
        <time>2015-11-10T13:23:36Z</time>
      </trkpt>
      <trkpt lat="43.3531" lon="-1.84878">
        <ele>378.89685058594</ele>
        <time>2015-11-10T13:23:51Z</time>
      </trkpt>
      <trkpt lat="43.35311" lon="-1.84862">
        <ele>378.89685058594</ele>
        <time>2015-11-10T13:24:02Z</time>
      </trkpt>
      <trkpt lat="43.35311" lon="-1.84859">
        <ele>379.37744140625</ele>
        <time>2015-11-10T13:24:04Z</time>
      </trkpt>
      <trkpt lat="43.35311" lon="-1.84832">
        <ele>380.81945800781</ele>
        <time>2015-11-10T13:24:22Z</time>
      </trkpt>
      <trkpt lat="43.35308" lon="-1.84808">
        <ele>381.78063964844</ele>
        <time>2015-11-10T13:24:39Z</time>
      </trkpt>
      <trkpt lat="43.35296" lon="-1.84792">
        <ele>383.70324707031</ele>
        <time>2015-11-10T13:24:55Z</time>
      </trkpt>
      <trkpt lat="43.35285" lon="-1.84784">
        <ele>384.66479492188</ele>
        <time>2015-11-10T13:25:10Z</time>
      </trkpt>
      <trkpt lat="43.3527" lon="-1.84776">
        <ele>387.06799316406</ele>
        <time>2015-11-10T13:25:25Z</time>
      </trkpt>
      <trkpt lat="43.35251" lon="-1.8477">
        <ele>387.54858398438</ele>
        <time>2015-11-10T13:25:43Z</time>
      </trkpt>
      <trkpt lat="43.35234" lon="-1.84767">
        <ele>387.06799316406</ele>
        <time>2015-11-10T13:26:00Z</time>
      </trkpt>
      <trkpt lat="43.35223" lon="-1.84767">
        <ele>386.58740234375</ele>
        <time>2015-11-10T13:26:18Z</time>
      </trkpt>
      <trkpt lat="43.35222" lon="-1.84767">
        <ele>386.58740234375</ele>
        <time>2015-11-10T13:26:19Z</time>
      </trkpt>
      <trkpt lat="43.35203" lon="-1.84773">
        <ele>386.58740234375</ele>
        <time>2015-11-10T13:26:37Z</time>
      </trkpt>
      <trkpt lat="43.35194" lon="-1.84775">
        <ele>386.10668945312</ele>
        <time>2015-11-10T13:26:46Z</time>
      </trkpt>
      <trkpt lat="43.35191" lon="-1.84772">
        <ele>386.10668945312</ele>
        <time>2015-11-10T13:26:49Z</time>
      </trkpt>
      <trkpt lat="43.35189" lon="-1.84768">
        <ele>386.10668945312</ele>
        <time>2015-11-10T13:26:53Z</time>
      </trkpt>
      <trkpt lat="43.35195" lon="-1.84746">
        <ele>388.029296875</ele>
        <time>2015-11-10T13:27:08Z</time>
      </trkpt>
      <trkpt lat="43.35196" lon="-1.84745">
        <ele>388.029296875</ele>
        <time>2015-11-10T13:27:09Z</time>
      </trkpt>
      <trkpt lat="43.35198" lon="-1.84735">
        <ele>388.99060058594</ele>
        <time>2015-11-10T13:27:15Z</time>
      </trkpt>
      <trkpt lat="43.35203" lon="-1.84703">
        <ele>389.95190429688</ele>
        <time>2015-11-10T13:27:35Z</time>
      </trkpt>
      <trkpt lat="43.35204" lon="-1.84679">
        <ele>390.91320800781</ele>
        <time>2015-11-10T13:27:50Z</time>
      </trkpt>
      <trkpt lat="43.35215" lon="-1.84656">
        <ele>392.35534667969</ele>
        <time>2015-11-10T13:28:08Z</time>
      </trkpt>
      <trkpt lat="43.35226" lon="-1.84633">
        <ele>394.27795410156</ele>
        <time>2015-11-10T13:28:26Z</time>
      </trkpt>
      <trkpt lat="43.35236" lon="-1.84609">
        <ele>396.68115234375</ele>
        <time>2015-11-10T13:28:44Z</time>
      </trkpt>
      <trkpt lat="43.35237" lon="-1.84594">
        <ele>397.64245605469</ele>
        <time>2015-11-10T13:28:54Z</time>
      </trkpt>
      <trkpt lat="43.35232" lon="-1.84573">
        <ele>398.12316894531</ele>
        <time>2015-11-10T13:29:09Z</time>
      </trkpt>
      <trkpt lat="43.35228" lon="-1.84546">
        <ele>400.52648925781</ele>
        <time>2015-11-10T13:29:27Z</time>
      </trkpt>
      <trkpt lat="43.35222" lon="-1.84516">
        <ele>400.0458984375</ele>
        <time>2015-11-10T13:29:47Z</time>
      </trkpt>
      <trkpt lat="43.35219" lon="-1.84497">
        <ele>403.89111328125</ele>
        <time>2015-11-10T13:30:00Z</time>
      </trkpt>
      <trkpt lat="43.35216" lon="-1.84478">
        <ele>404.37170410156</ele>
        <time>2015-11-10T13:30:14Z</time>
      </trkpt>
      <trkpt lat="43.35215" lon="-1.84459">
        <ele>405.3330078125</ele>
        <time>2015-11-10T13:30:30Z</time>
      </trkpt>
      <trkpt lat="43.35215" lon="-1.84447">
        <ele>405.81372070312</ele>
        <time>2015-11-10T13:30:47Z</time>
      </trkpt>
      <trkpt lat="43.35215" lon="-1.84444">
        <ele>406.29431152344</ele>
        <time>2015-11-10T13:31:00Z</time>
      </trkpt>
      <trkpt lat="43.35212" lon="-1.84428">
        <ele>407.736328125</ele>
        <time>2015-11-10T13:31:15Z</time>
      </trkpt>
      <trkpt lat="43.35212" lon="-1.84425">
        <ele>408.21704101562</ele>
        <time>2015-11-10T13:31:18Z</time>
      </trkpt>
      <trkpt lat="43.35221" lon="-1.84403">
        <ele>405.81372070312</ele>
        <time>2015-11-10T13:31:37Z</time>
      </trkpt>
      <trkpt lat="43.35226" lon="-1.84374">
        <ele>404.85229492188</ele>
        <time>2015-11-10T13:31:56Z</time>
      </trkpt>
      <trkpt lat="43.35237" lon="-1.84346">
        <ele>403.89111328125</ele>
        <time>2015-11-10T13:32:17Z</time>
      </trkpt>
      <trkpt lat="43.35246" lon="-1.84323">
        <ele>403.89111328125</ele>
        <time>2015-11-10T13:32:34Z</time>
      </trkpt>
      <trkpt lat="43.35248" lon="-1.84312">
        <ele>403.41040039062</ele>
        <time>2015-11-10T13:32:41Z</time>
      </trkpt>
      <trkpt lat="43.35247" lon="-1.84306">
        <ele>404.37170410156</ele>
        <time>2015-11-10T13:32:53Z</time>
      </trkpt>
      <trkpt lat="43.3525" lon="-1.84285">
        <ele>405.81372070312</ele>
        <time>2015-11-10T13:33:10Z</time>
      </trkpt>
      <trkpt lat="43.35255" lon="-1.84279">
        <ele>405.81372070312</ele>
        <time>2015-11-10T13:33:18Z</time>
      </trkpt>
      <trkpt lat="43.35265" lon="-1.84266">
        <ele>406.77490234375</ele>
        <time>2015-11-10T13:33:32Z</time>
      </trkpt>
      <trkpt lat="43.35274" lon="-1.84241">
        <ele>406.29431152344</ele>
        <time>2015-11-10T13:33:51Z</time>
      </trkpt>
      <trkpt lat="43.35276" lon="-1.84232">
        <ele>407.25561523438</ele>
        <time>2015-11-10T13:33:57Z</time>
      </trkpt>
      <trkpt lat="43.35277" lon="-1.84225">
        <ele>407.25561523438</ele>
        <time>2015-11-10T13:34:02Z</time>
      </trkpt>
      <trkpt lat="43.3528" lon="-1.84221">
        <ele>407.25561523438</ele>
        <time>2015-11-10T13:34:06Z</time>
      </trkpt>
      <trkpt lat="43.35291" lon="-1.84209">
        <ele>409.65905761719</ele>
        <time>2015-11-10T13:34:24Z</time>
      </trkpt>
      <trkpt lat="43.35294" lon="-1.84209">
        <ele>409.65905761719</ele>
        <time>2015-11-10T13:34:29Z</time>
      </trkpt>
      <trkpt lat="43.35296" lon="-1.84204">
        <ele>410.1396484375</ele>
        <time>2015-11-10T13:34:33Z</time>
      </trkpt>
      <trkpt lat="43.35303" lon="-1.84181">
        <ele>409.17834472656</ele>
        <time>2015-11-10T13:34:52Z</time>
      </trkpt>
      <trkpt lat="43.35316" lon="-1.84164">
        <ele>409.17834472656</ele>
        <time>2015-11-10T13:35:12Z</time>
      </trkpt>
      <trkpt lat="43.35312" lon="-1.84157">
        <ele>408.69763183594</ele>
        <time>2015-11-10T13:35:33Z</time>
      </trkpt>
      <trkpt lat="43.3531" lon="-1.84154">
        <ele>409.17834472656</ele>
        <time>2015-11-10T13:36:13Z</time>
      </trkpt>
      <trkpt lat="43.35313" lon="-1.84154">
        <ele>407.736328125</ele>
        <time>2015-11-10T13:36:30Z</time>
      </trkpt>
      <trkpt lat="43.35313" lon="-1.84156">
        <ele>408.21704101562</ele>
        <time>2015-11-10T13:36:54Z</time>
      </trkpt>
      <trkpt lat="43.35314" lon="-1.84157">
        <ele>409.65905761719</ele>
        <time>2015-11-10T13:37:25Z</time>
      </trkpt>
      <trkpt lat="43.35314" lon="-1.84159">
        <ele>408.69763183594</ele>
        <time>2015-11-10T13:37:34Z</time>
      </trkpt>
      <trkpt lat="43.35316" lon="-1.84164">
        <ele>409.17834472656</ele>
        <time>2015-11-10T13:37:38Z</time>
      </trkpt>
      <trkpt lat="43.35331" lon="-1.84185">
        <ele>409.17834472656</ele>
        <time>2015-11-10T13:37:58Z</time>
      </trkpt>
      <trkpt lat="43.35342" lon="-1.84202">
        <ele>408.69763183594</ele>
        <time>2015-11-10T13:38:15Z</time>
      </trkpt>
      <trkpt lat="43.35339" lon="-1.84191">
        <ele>409.17834472656</ele>
        <time>2015-11-10T13:38:59Z</time>
      </trkpt>
      <trkpt lat="43.35323" lon="-1.84172">
        <ele>409.17834472656</ele>
        <time>2015-11-10T13:39:20Z</time>
      </trkpt>
      <trkpt lat="43.35315" lon="-1.84161">
        <ele>407.25561523438</ele>
        <time>2015-11-10T13:39:42Z</time>
      </trkpt>
      <trkpt lat="43.35316" lon="-1.84161">
        <ele>406.77490234375</ele>
        <time>2015-11-10T13:39:58Z</time>
      </trkpt>
      <trkpt lat="43.35317" lon="-1.84165">
        <ele>407.736328125</ele>
        <time>2015-11-10T13:40:20Z</time>
      </trkpt>
      <trkpt lat="43.35327" lon="-1.84175">
        <ele>408.69763183594</ele>
        <time>2015-11-10T13:40:33Z</time>
      </trkpt>
      <trkpt lat="43.35329" lon="-1.84171">
        <ele>408.69763183594</ele>
        <time>2015-11-10T13:40:37Z</time>
      </trkpt>
      <trkpt lat="43.3533" lon="-1.84163">
        <ele>409.17834472656</ele>
        <time>2015-11-10T13:40:43Z</time>
      </trkpt>
      <trkpt lat="43.3533" lon="-1.84161">
        <ele>408.69763183594</ele>
        <time>2015-11-10T13:40:45Z</time>
      </trkpt>
      <trkpt lat="43.3533" lon="-1.84156">
        <ele>408.69763183594</ele>
        <time>2015-11-10T13:40:49Z</time>
      </trkpt>
      <trkpt lat="43.35335" lon="-1.84144">
        <ele>410.62023925781</ele>
        <time>2015-11-10T13:41:03Z</time>
      </trkpt>
      <trkpt lat="43.35345" lon="-1.84123">
        <ele>412.06225585938</ele>
        <time>2015-11-10T13:41:22Z</time>
      </trkpt>
      <trkpt lat="43.35356" lon="-1.84105">
        <ele>413.02355957031</ele>
        <time>2015-11-10T13:41:39Z</time>
      </trkpt>
      <trkpt lat="43.35361" lon="-1.84094">
        <ele>413.50427246094</ele>
        <time>2015-11-10T13:41:55Z</time>
      </trkpt>
      <trkpt lat="43.35362" lon="-1.84094">
        <ele>413.98486328125</ele>
        <time>2015-11-10T13:42:19Z</time>
      </trkpt>
      <trkpt lat="43.35362" lon="-1.84092">
        <ele>413.50427246094</ele>
        <time>2015-11-10T13:42:39Z</time>
      </trkpt>
      <trkpt lat="43.35365" lon="-1.84095">
        <ele>412.54284667969</ele>
        <time>2015-11-10T13:43:43Z</time>
      </trkpt>
      <trkpt lat="43.35375" lon="-1.84093">
        <ele>411.58166503906</ele>
        <time>2015-11-10T13:43:59Z</time>
      </trkpt>
      <trkpt lat="43.35384" lon="-1.84089">
        <ele>409.65905761719</ele>
        <time>2015-11-10T13:44:14Z</time>
      </trkpt>
      <trkpt lat="43.35388" lon="-1.84088">
        <ele>409.17834472656</ele>
        <time>2015-11-10T13:44:26Z</time>
      </trkpt>
      <trkpt lat="43.35392" lon="-1.84085">
        <ele>408.21704101562</ele>
        <time>2015-11-10T13:44:38Z</time>
      </trkpt>
      <trkpt lat="43.35404" lon="-1.84079">
        <ele>405.81372070312</ele>
        <time>2015-11-10T13:44:54Z</time>
      </trkpt>
      <trkpt lat="43.35409" lon="-1.84076">
        <ele>405.81372070312</ele>
        <time>2015-11-10T13:44:59Z</time>
      </trkpt>
      <trkpt lat="43.35418" lon="-1.84069">
        <ele>405.3330078125</ele>
        <time>2015-11-10T13:45:18Z</time>
      </trkpt>
      <trkpt lat="43.35426" lon="-1.84062">
        <ele>404.37170410156</ele>
        <time>2015-11-10T13:45:32Z</time>
      </trkpt>
      <trkpt lat="43.35438" lon="-1.84059">
        <ele>401.96850585938</ele>
        <time>2015-11-10T13:45:47Z</time>
      </trkpt>
      <trkpt lat="43.35453" lon="-1.84052">
        <ele>400.0458984375</ele>
        <time>2015-11-10T13:46:05Z</time>
      </trkpt>
      <trkpt lat="43.35469" lon="-1.84042">
        <ele>399.08435058594</ele>
        <time>2015-11-10T13:46:22Z</time>
      </trkpt>
      <trkpt lat="43.35488" lon="-1.84031">
        <ele>397.16174316406</ele>
        <time>2015-11-10T13:46:42Z</time>
      </trkpt>
      <trkpt lat="43.35505" lon="-1.84023">
        <ele>397.16174316406</ele>
        <time>2015-11-10T13:47:00Z</time>
      </trkpt>
      <trkpt lat="43.35519" lon="-1.84018">
        <ele>397.64245605469</ele>
        <time>2015-11-10T13:47:15Z</time>
      </trkpt>
      <trkpt lat="43.35525" lon="-1.84016">
        <ele>396.68115234375</ele>
        <time>2015-11-10T13:47:20Z</time>
      </trkpt>
      <trkpt lat="43.35543" lon="-1.84006">
        <ele>395.23913574219</ele>
        <time>2015-11-10T13:47:38Z</time>
      </trkpt>
      <trkpt lat="43.35562" lon="-1.83993">
        <ele>392.8359375</ele>
        <time>2015-11-10T13:47:57Z</time>
      </trkpt>
      <trkpt lat="43.35583" lon="-1.83978">
        <ele>393.31652832031</ele>
        <time>2015-11-10T13:48:18Z</time>
      </trkpt>
      <trkpt lat="43.35603" lon="-1.83961">
        <ele>392.35534667969</ele>
        <time>2015-11-10T13:48:39Z</time>
      </trkpt>
      <trkpt lat="43.35624" lon="-1.83949">
        <ele>391.87451171875</ele>
        <time>2015-11-10T13:48:59Z</time>
      </trkpt>
      <trkpt lat="43.35645" lon="-1.83935">
        <ele>391.39379882812</ele>
        <time>2015-11-10T13:49:20Z</time>
      </trkpt>
      <trkpt lat="43.35665" lon="-1.83918">
        <ele>391.39379882812</ele>
        <time>2015-11-10T13:49:41Z</time>
      </trkpt>
      <trkpt lat="43.35681" lon="-1.83904">
        <ele>392.35534667969</ele>
        <time>2015-11-10T13:49:58Z</time>
      </trkpt>
      <trkpt lat="43.35696" lon="-1.8389">
        <ele>392.8359375</ele>
        <time>2015-11-10T13:50:16Z</time>
      </trkpt>
      <trkpt lat="43.35696" lon="-1.83889">
        <ele>393.31652832031</ele>
        <time>2015-11-10T13:50:17Z</time>
      </trkpt>
      <trkpt lat="43.35707" lon="-1.8387">
        <ele>393.79724121094</ele>
        <time>2015-11-10T13:50:33Z</time>
      </trkpt>
      <trkpt lat="43.35715" lon="-1.83854">
        <ele>395.23913574219</ele>
        <time>2015-11-10T13:50:48Z</time>
      </trkpt>
      <trkpt lat="43.35725" lon="-1.83836">
        <ele>394.75854492188</ele>
        <time>2015-11-10T13:51:03Z</time>
      </trkpt>
      <trkpt lat="43.35731" lon="-1.83816">
        <ele>394.27795410156</ele>
        <time>2015-11-10T13:51:20Z</time>
      </trkpt>
      <trkpt lat="43.35731" lon="-1.83813">
        <ele>394.27795410156</ele>
        <time>2015-11-10T13:51:22Z</time>
      </trkpt>
      <trkpt lat="43.35736" lon="-1.83805">
        <ele>394.27795410156</ele>
        <time>2015-11-10T13:51:29Z</time>
      </trkpt>
      <trkpt lat="43.35738" lon="-1.83803">
        <ele>393.79724121094</ele>
        <time>2015-11-10T13:51:31Z</time>
      </trkpt>
      <trkpt lat="43.35748" lon="-1.83776">
        <ele>394.75854492188</ele>
        <time>2015-11-10T13:51:51Z</time>
      </trkpt>
      <trkpt lat="43.35758" lon="-1.83754">
        <ele>395.23913574219</ele>
        <time>2015-11-10T13:52:08Z</time>
      </trkpt>
      <trkpt lat="43.35771" lon="-1.83729">
        <ele>394.75854492188</ele>
        <time>2015-11-10T13:52:28Z</time>
      </trkpt>
      <trkpt lat="43.35779" lon="-1.83709">
        <ele>396.20056152344</ele>
        <time>2015-11-10T13:52:44Z</time>
      </trkpt>
      <trkpt lat="43.35782" lon="-1.83704">
        <ele>396.68115234375</ele>
        <time>2015-11-10T13:52:48Z</time>
      </trkpt>
      <trkpt lat="43.3579" lon="-1.83677">
        <ele>395.71984863281</ele>
        <time>2015-11-10T13:53:08Z</time>
      </trkpt>
      <trkpt lat="43.35792" lon="-1.83659">
        <ele>394.75854492188</ele>
        <time>2015-11-10T13:53:24Z</time>
      </trkpt>
      <trkpt lat="43.35794" lon="-1.83637">
        <ele>391.39379882812</ele>
        <time>2015-11-10T13:53:41Z</time>
      </trkpt>
      <trkpt lat="43.35802" lon="-1.83614">
        <ele>388.99060058594</ele>
        <time>2015-11-10T13:53:58Z</time>
      </trkpt>
      <trkpt lat="43.3581" lon="-1.83589">
        <ele>386.10668945312</ele>
        <time>2015-11-10T13:54:16Z</time>
      </trkpt>
      <trkpt lat="43.35813" lon="-1.8358">
        <ele>384.66479492188</ele>
        <time>2015-11-10T13:54:23Z</time>
      </trkpt>
      <trkpt lat="43.35827" lon="-1.8356">
        <ele>381.30004882812</ele>
        <time>2015-11-10T13:54:41Z</time>
      </trkpt>
      <trkpt lat="43.35842" lon="-1.83542">
        <ele>378.89685058594</ele>
        <time>2015-11-10T13:54:59Z</time>
      </trkpt>
      <trkpt lat="43.35857" lon="-1.83519">
        <ele>379.85803222656</ele>
        <time>2015-11-10T13:55:18Z</time>
      </trkpt>
      <trkpt lat="43.35869" lon="-1.83493">
        <ele>380.33874511719</ele>
        <time>2015-11-10T13:55:38Z</time>
      </trkpt>
      <trkpt lat="43.35873" lon="-1.83476">
        <ele>378.41613769531</ele>
        <time>2015-11-10T13:55:52Z</time>
      </trkpt>
      <trkpt lat="43.35885" lon="-1.83456">
        <ele>378.89685058594</ele>
        <time>2015-11-10T13:56:09Z</time>
      </trkpt>
      <trkpt lat="43.359" lon="-1.83438">
        <ele>379.37744140625</ele>
        <time>2015-11-10T13:56:27Z</time>
      </trkpt>
      <trkpt lat="43.35905" lon="-1.83417">
        <ele>377.45483398438</ele>
        <time>2015-11-10T13:56:46Z</time>
      </trkpt>
      <trkpt lat="43.35906" lon="-1.83416">
        <ele>376.01281738281</ele>
        <time>2015-11-10T13:56:48Z</time>
      </trkpt>
      <trkpt lat="43.35911" lon="-1.83404">
        <ele>373.12890625</ele>
        <time>2015-11-10T13:57:00Z</time>
      </trkpt>
      <trkpt lat="43.35926" lon="-1.83378">
        <ele>370.7255859375</ele>
        <time>2015-11-10T13:57:23Z</time>
      </trkpt>
      <trkpt lat="43.3594" lon="-1.83355">
        <ele>369.76428222656</ele>
        <time>2015-11-10T13:57:41Z</time>
      </trkpt>
      <trkpt lat="43.35951" lon="-1.83335">
        <ele>367.84155273438</ele>
        <time>2015-11-10T13:57:57Z</time>
      </trkpt>
      <trkpt lat="43.35968" lon="-1.83312">
        <ele>369.76428222656</ele>
        <time>2015-11-10T13:58:17Z</time>
      </trkpt>
      <trkpt lat="43.35981" lon="-1.83288">
        <ele>371.68688964844</ele>
        <time>2015-11-10T13:58:38Z</time>
      </trkpt>
      <trkpt lat="43.35982" lon="-1.83285">
        <ele>372.16748046875</ele>
        <time>2015-11-10T13:58:40Z</time>
      </trkpt>
      <trkpt lat="43.35994" lon="-1.83262">
        <ele>373.12890625</ele>
        <time>2015-11-10T13:58:59Z</time>
      </trkpt>
      <trkpt lat="43.36003" lon="-1.83237">
        <ele>373.60949707031</ele>
        <time>2015-11-10T13:59:18Z</time>
      </trkpt>
      <trkpt lat="43.36014" lon="-1.83214">
        <ele>374.09008789062</ele>
        <time>2015-11-10T13:59:36Z</time>
      </trkpt>
      <trkpt lat="43.36027" lon="-1.83192">
        <ele>374.57080078125</ele>
        <time>2015-11-10T13:59:55Z</time>
      </trkpt>
      <trkpt lat="43.36044" lon="-1.83172">
        <ele>376.01281738281</ele>
        <time>2015-11-10T14:00:15Z</time>
      </trkpt>
      <trkpt lat="43.36061" lon="-1.83152">
        <ele>376.49353027344</ele>
        <time>2015-11-10T14:00:36Z</time>
      </trkpt>
      <trkpt lat="43.36062" lon="-1.83151">
        <ele>376.97424316406</ele>
        <time>2015-11-10T14:00:37Z</time>
      </trkpt>
      <trkpt lat="43.3608" lon="-1.83137">
        <ele>378.41613769531</ele>
        <time>2015-11-10T14:00:55Z</time>
      </trkpt>
      <trkpt lat="43.36093" lon="-1.83121">
        <ele>379.37744140625</ele>
        <time>2015-11-10T14:01:12Z</time>
      </trkpt>
      <trkpt lat="43.36108" lon="-1.83103">
        <ele>382.26135253906</ele>
        <time>2015-11-10T14:01:31Z</time>
      </trkpt>
      <trkpt lat="43.36124" lon="-1.83082">
        <ele>382.74206542969</ele>
        <time>2015-11-10T14:01:50Z</time>
      </trkpt>
      <trkpt lat="43.36137" lon="-1.83052">
        <ele>382.74206542969</ele>
        <time>2015-11-10T14:02:12Z</time>
      </trkpt>
      <trkpt lat="43.36146" lon="-1.83024">
        <ele>379.37744140625</ele>
        <time>2015-11-10T14:02:33Z</time>
      </trkpt>
      <trkpt lat="43.36145" lon="-1.83019">
        <ele>381.78063964844</ele>
        <time>2015-11-10T14:02:38Z</time>
      </trkpt>
      <trkpt lat="43.36144" lon="-1.83005">
        <ele>382.74206542969</ele>
        <time>2015-11-10T14:02:54Z</time>
      </trkpt>
      <trkpt lat="43.36142" lon="-1.83003">
        <ele>383.22265625</ele>
        <time>2015-11-10T14:03:08Z</time>
      </trkpt>
      <trkpt lat="43.36142" lon="-1.83002">
        <ele>382.74206542969</ele>
        <time>2015-11-10T14:03:37Z</time>
      </trkpt>
      <trkpt lat="43.36143" lon="-1.83003">
        <ele>382.74206542969</ele>
        <time>2015-11-10T14:04:56Z</time>
      </trkpt>
      <trkpt lat="43.36143" lon="-1.83002">
        <ele>381.30004882812</ele>
        <time>2015-11-10T14:05:44Z</time>
      </trkpt>
      <trkpt lat="43.36142" lon="-1.83004">
        <ele>380.81945800781</ele>
        <time>2015-11-10T14:07:18Z</time>
      </trkpt>
      <trkpt lat="43.36142" lon="-1.83005">
        <ele>382.26135253906</ele>
        <time>2015-11-10T14:08:19Z</time>
      </trkpt>
      <trkpt lat="43.36142" lon="-1.83007">
        <ele>381.78063964844</ele>
        <time>2015-11-10T14:08:33Z</time>
      </trkpt>
      <trkpt lat="43.36143" lon="-1.83011">
        <ele>381.78063964844</ele>
        <time>2015-11-10T14:09:08Z</time>
      </trkpt>
      <trkpt lat="43.36146" lon="-1.83012">
        <ele>380.81945800781</ele>
        <time>2015-11-10T14:09:21Z</time>
      </trkpt>
      <trkpt lat="43.36148" lon="-1.83022">
        <ele>379.37744140625</ele>
        <time>2015-11-10T14:09:37Z</time>
      </trkpt>
      <trkpt lat="43.36157" lon="-1.83011">
        <ele>377.45483398438</ele>
        <time>2015-11-10T14:09:54Z</time>
      </trkpt>
      <trkpt lat="43.36161" lon="-1.82997">
        <ele>375.53210449219</ele>
        <time>2015-11-10T14:10:08Z</time>
      </trkpt>
      <trkpt lat="43.36165" lon="-1.82977">
        <ele>373.12890625</ele>
        <time>2015-11-10T14:10:28Z</time>
      </trkpt>
      <trkpt lat="43.3617" lon="-1.82963">
        <ele>370.24487304688</ele>
        <time>2015-11-10T14:10:43Z</time>
      </trkpt>
      <trkpt lat="43.36174" lon="-1.82951">
        <ele>367.36096191406</ele>
        <time>2015-11-10T14:10:59Z</time>
      </trkpt>
      <trkpt lat="43.36183" lon="-1.82937">
        <ele>364.47692871094</ele>
        <time>2015-11-10T14:11:16Z</time>
      </trkpt>
      <trkpt lat="43.36193" lon="-1.82926">
        <ele>361.11242675781</ele>
        <time>2015-11-10T14:11:34Z</time>
      </trkpt>
      <trkpt lat="43.36203" lon="-1.82912">
        <ele>359.18969726562</ele>
        <time>2015-11-10T14:11:51Z</time>
      </trkpt>
      <trkpt lat="43.36207" lon="-1.82907">
        <ele>356.30578613281</ele>
        <time>2015-11-10T14:11:58Z</time>
      </trkpt>
      <trkpt lat="43.36218" lon="-1.82894">
        <ele>352.94116210938</ele>
        <time>2015-11-10T14:12:16Z</time>
      </trkpt>
      <trkpt lat="43.36232" lon="-1.82884">
        <ele>351.97985839844</ele>
        <time>2015-11-10T14:12:33Z</time>
      </trkpt>
      <trkpt lat="43.36252" lon="-1.82873">
        <ele>350.05725097656</ele>
        <time>2015-11-10T14:12:55Z</time>
      </trkpt>
      <trkpt lat="43.36261" lon="-1.82867">
        <ele>346.69262695312</ele>
        <time>2015-11-10T14:13:07Z</time>
      </trkpt>
      <trkpt lat="43.3627" lon="-1.8286">
        <ele>343.80859375</ele>
        <time>2015-11-10T14:13:21Z</time>
      </trkpt>
      <trkpt lat="43.3628" lon="-1.82853">
        <ele>340.44409179688</ele>
        <time>2015-11-10T14:13:35Z</time>
      </trkpt>
      <trkpt lat="43.3629" lon="-1.82847">
        <ele>337.07946777344</ele>
        <time>2015-11-10T14:13:51Z</time>
      </trkpt>
      <trkpt lat="43.36303" lon="-1.82839">
        <ele>333.23413085938</ele>
        <time>2015-11-10T14:14:06Z</time>
      </trkpt>
      <trkpt lat="43.36315" lon="-1.82829">
        <ele>329.38891601562</ele>
        <time>2015-11-10T14:14:23Z</time>
      </trkpt>
      <trkpt lat="43.36331" lon="-1.82816">
        <ele>326.98559570312</ele>
        <time>2015-11-10T14:14:43Z</time>
      </trkpt>
      <trkpt lat="43.36344" lon="-1.82795">
        <ele>324.58227539062</ele>
        <time>2015-11-10T14:15:04Z</time>
      </trkpt>
      <trkpt lat="43.36364" lon="-1.82774">
        <ele>322.17895507812</ele>
        <time>2015-11-10T14:15:27Z</time>
      </trkpt>
      <trkpt lat="43.36381" lon="-1.82759">
        <ele>319.77563476562</ele>
        <time>2015-11-10T14:15:49Z</time>
      </trkpt>
      <trkpt lat="43.36391" lon="-1.82759">
        <ele>316.41101074219</ele>
        <time>2015-11-10T14:16:00Z</time>
      </trkpt>
      <trkpt lat="43.364" lon="-1.82743">
        <ele>315.93041992188</ele>
        <time>2015-11-10T14:16:16Z</time>
      </trkpt>
      <trkpt lat="43.36412" lon="-1.82718">
        <ele>313.52722167969</ele>
        <time>2015-11-10T14:16:37Z</time>
      </trkpt>
      <trkpt lat="43.36424" lon="-1.82696">
        <ele>310.64306640625</ele>
        <time>2015-11-10T14:16:58Z</time>
      </trkpt>
      <trkpt lat="43.36428" lon="-1.82692">
        <ele>310.64306640625</ele>
        <time>2015-11-10T14:17:14Z</time>
      </trkpt>
      <trkpt lat="43.36433" lon="-1.82689">
        <ele>310.64306640625</ele>
        <time>2015-11-10T14:17:40Z</time>
      </trkpt>
      <trkpt lat="43.36439" lon="-1.82678">
        <ele>308.23986816406</ele>
        <time>2015-11-10T14:17:58Z</time>
      </trkpt>
      <trkpt lat="43.36441" lon="-1.82667">
        <ele>305.35595703125</ele>
        <time>2015-11-10T14:18:12Z</time>
      </trkpt>
      <trkpt lat="43.36442" lon="-1.82658">
        <ele>302.95251464844</ele>
        <time>2015-11-10T14:18:26Z</time>
      </trkpt>
      <trkpt lat="43.3644" lon="-1.82651">
        <ele>300.06872558594</ele>
        <time>2015-11-10T14:18:44Z</time>
      </trkpt>
      <trkpt lat="43.36441" lon="-1.82641">
        <ele>296.7041015625</ele>
        <time>2015-11-10T14:18:59Z</time>
      </trkpt>
      <trkpt lat="43.36443" lon="-1.8264">
        <ele>295.74267578125</ele>
        <time>2015-11-10T14:19:01Z</time>
      </trkpt>
      <trkpt lat="43.36451" lon="-1.82638">
        <ele>292.85876464844</ele>
        <time>2015-11-10T14:19:14Z</time>
      </trkpt>
      <trkpt lat="43.36454" lon="-1.8263">
        <ele>289.494140625</ele>
        <time>2015-11-10T14:19:27Z</time>
      </trkpt>
      <trkpt lat="43.36455" lon="-1.82625">
        <ele>287.0908203125</ele>
        <time>2015-11-10T14:19:32Z</time>
      </trkpt>
      <trkpt lat="43.3646" lon="-1.82623">
        <ele>286.61022949219</ele>
        <time>2015-11-10T14:19:50Z</time>
      </trkpt>
      <trkpt lat="43.36462" lon="-1.82619">
        <ele>284.68762207031</ele>
        <time>2015-11-10T14:19:54Z</time>
      </trkpt>
      <trkpt lat="43.36464" lon="-1.82612">
        <ele>281.32299804688</ele>
        <time>2015-11-10T14:20:04Z</time>
      </trkpt>
      <trkpt lat="43.36464" lon="-1.82604">
        <ele>279.880859375</ele>
        <time>2015-11-10T14:20:18Z</time>
      </trkpt>
      <trkpt lat="43.36468" lon="-1.82596">
        <ele>277.47766113281</ele>
        <time>2015-11-10T14:20:35Z</time>
      </trkpt>
      <trkpt lat="43.36473" lon="-1.82593">
        <ele>274.11303710938</ele>
        <time>2015-11-10T14:20:43Z</time>
      </trkpt>
      <trkpt lat="43.36476" lon="-1.82593">
        <ele>273.15185546875</ele>
        <time>2015-11-10T14:20:47Z</time>
      </trkpt>
      <trkpt lat="43.36478" lon="-1.82591">
        <ele>271.70971679688</ele>
        <time>2015-11-10T14:20:52Z</time>
      </trkpt>
      <trkpt lat="43.36482" lon="-1.82584">
        <ele>268.34509277344</ele>
        <time>2015-11-10T14:21:08Z</time>
      </trkpt>
      <trkpt lat="43.3648" lon="-1.82575">
        <ele>264.98059082031</ele>
        <time>2015-11-10T14:21:23Z</time>
      </trkpt>
      <trkpt lat="43.36483" lon="-1.82573">
        <ele>262.5771484375</ele>
        <time>2015-11-10T14:21:31Z</time>
      </trkpt>
      <trkpt lat="43.36484" lon="-1.82571">
        <ele>261.13525390625</ele>
        <time>2015-11-10T14:21:33Z</time>
      </trkpt>
      <trkpt lat="43.36483" lon="-1.82563">
        <ele>258.73193359375</ele>
        <time>2015-11-10T14:21:44Z</time>
      </trkpt>
      <trkpt lat="43.36489" lon="-1.82554">
        <ele>255.36730957031</ele>
        <time>2015-11-10T14:22:00Z</time>
      </trkpt>
      <trkpt lat="43.36492" lon="-1.8255">
        <ele>253.44470214844</ele>
        <time>2015-11-10T14:22:05Z</time>
      </trkpt>
      <trkpt lat="43.36496" lon="-1.82543">
        <ele>250.08020019531</ele>
        <time>2015-11-10T14:22:17Z</time>
      </trkpt>
      <trkpt lat="43.365" lon="-1.82537">
        <ele>247.6767578125</ele>
        <time>2015-11-10T14:22:27Z</time>
      </trkpt>
      <trkpt lat="43.36504" lon="-1.82527">
        <ele>243.83154296875</ele>
        <time>2015-11-10T14:22:38Z</time>
      </trkpt>
      <trkpt lat="43.36511" lon="-1.82515">
        <ele>241.42822265625</ele>
        <time>2015-11-10T14:22:55Z</time>
      </trkpt>
      <trkpt lat="43.36514" lon="-1.82511">
        <ele>239.02490234375</ele>
        <time>2015-11-10T14:23:00Z</time>
      </trkpt>
      <trkpt lat="43.36516" lon="-1.82506">
        <ele>236.62170410156</ele>
        <time>2015-11-10T14:23:06Z</time>
      </trkpt>
      <trkpt lat="43.36523" lon="-1.82499">
        <ele>234.69909667969</ele>
        <time>2015-11-10T14:23:22Z</time>
      </trkpt>
      <trkpt lat="43.36531" lon="-1.82483">
        <ele>231.81494140625</ele>
        <time>2015-11-10T14:23:41Z</time>
      </trkpt>
      <trkpt lat="43.36542" lon="-1.82473">
        <ele>228.45043945312</ele>
        <time>2015-11-10T14:23:55Z</time>
      </trkpt>
      <trkpt lat="43.36552" lon="-1.82466">
        <ele>225.56652832031</ele>
        <time>2015-11-10T14:24:11Z</time>
      </trkpt>
      <trkpt lat="43.36555" lon="-1.8246">
        <ele>222.20178222656</ele>
        <time>2015-11-10T14:24:25Z</time>
      </trkpt>
      <trkpt lat="43.3656" lon="-1.82453">
        <ele>221.24060058594</ele>
        <time>2015-11-10T14:24:41Z</time>
      </trkpt>
      <trkpt lat="43.36562" lon="-1.82453">
        <ele>221.72119140625</ele>
        <time>2015-11-10T14:25:16Z</time>
      </trkpt>
      <trkpt lat="43.36567" lon="-1.82451">
        <ele>219.31799316406</ele>
        <time>2015-11-10T14:26:24Z</time>
      </trkpt>
      <trkpt lat="43.36571" lon="-1.82444">
        <ele>216.43395996094</ele>
        <time>2015-11-10T14:26:36Z</time>
      </trkpt>
      <trkpt lat="43.36576" lon="-1.8244">
        <ele>214.03063964844</ele>
        <time>2015-11-10T14:26:51Z</time>
      </trkpt>
      <trkpt lat="43.3658" lon="-1.82437">
        <ele>212.58862304688</ele>
        <time>2015-11-10T14:27:08Z</time>
      </trkpt>
      <trkpt lat="43.3658" lon="-1.82436">
        <ele>212.10803222656</ele>
        <time>2015-11-10T14:27:38Z</time>
      </trkpt>
      <trkpt lat="43.36582" lon="-1.82431">
        <ele>212.10803222656</ele>
        <time>2015-11-10T14:27:42Z</time>
      </trkpt>
      <trkpt lat="43.36593" lon="-1.82401">
        <ele>210.666015625</ele>
        <time>2015-11-10T14:28:04Z</time>
      </trkpt>
      <trkpt lat="43.36604" lon="-1.82371">
        <ele>209.70483398438</ele>
        <time>2015-11-10T14:28:25Z</time>
      </trkpt>
      <trkpt lat="43.36616" lon="-1.82342">
        <ele>208.74340820312</ele>
        <time>2015-11-10T14:28:45Z</time>
      </trkpt>
      <trkpt lat="43.36621" lon="-1.82329">
        <ele>208.74340820312</ele>
        <time>2015-11-10T14:28:57Z</time>
      </trkpt>
      <trkpt lat="43.36621" lon="-1.82328">
        <ele>208.26281738281</ele>
        <time>2015-11-10T14:28:58Z</time>
      </trkpt>
      <trkpt lat="43.36629" lon="-1.82314">
        <ele>208.26281738281</ele>
        <time>2015-11-10T14:29:17Z</time>
      </trkpt>
      <trkpt lat="43.36633" lon="-1.82303">
        <ele>207.30139160156</ele>
        <time>2015-11-10T14:30:05Z</time>
      </trkpt>
      <trkpt lat="43.36636" lon="-1.8229">
        <ele>207.30139160156</ele>
        <time>2015-11-10T14:30:14Z</time>
      </trkpt>
      <trkpt lat="43.36638" lon="-1.82279">
        <ele>206.34008789062</ele>
        <time>2015-11-10T14:30:21Z</time>
      </trkpt>
      <trkpt lat="43.3665" lon="-1.82242">
        <ele>203.93688964844</ele>
        <time>2015-11-10T14:30:45Z</time>
      </trkpt>
      <trkpt lat="43.36654" lon="-1.8222">
        <ele>201.05285644531</ele>
        <time>2015-11-10T14:31:00Z</time>
      </trkpt>
      <trkpt lat="43.36665" lon="-1.82193">
        <ele>200.09167480469</ele>
        <time>2015-11-10T14:31:20Z</time>
      </trkpt>
      <trkpt lat="43.36666" lon="-1.82193">
        <ele>200.09167480469</ele>
        <time>2015-11-10T14:31:21Z</time>
      </trkpt>
      <trkpt lat="43.36672" lon="-1.82185">
        <ele>199.13012695312</ele>
        <time>2015-11-10T14:31:32Z</time>
      </trkpt>
      <trkpt lat="43.36671" lon="-1.82181">
        <ele>198.64953613281</ele>
        <time>2015-11-10T14:31:35Z</time>
      </trkpt>
      <trkpt lat="43.36673" lon="-1.82158">
        <ele>196.24633789062</ele>
        <time>2015-11-10T14:31:52Z</time>
      </trkpt>
      <trkpt lat="43.36679" lon="-1.82142">
        <ele>193.84301757812</ele>
        <time>2015-11-10T14:32:10Z</time>
      </trkpt>
      <trkpt lat="43.36681" lon="-1.8214">
        <ele>193.84301757812</ele>
        <time>2015-11-10T14:32:13Z</time>
      </trkpt>
      <trkpt lat="43.36691" lon="-1.82122">
        <ele>192.40112304688</ele>
        <time>2015-11-10T14:32:32Z</time>
      </trkpt>
      <trkpt lat="43.36692" lon="-1.82111">
        <ele>192.40112304688</ele>
        <time>2015-11-10T14:32:46Z</time>
      </trkpt>
      <trkpt lat="43.36692" lon="-1.82096">
        <ele>192.40112304688</ele>
        <time>2015-11-10T14:33:01Z</time>
      </trkpt>
      <trkpt lat="43.36692" lon="-1.82093">
        <ele>192.40112304688</ele>
        <time>2015-11-10T14:33:31Z</time>
      </trkpt>
      <trkpt lat="43.36699" lon="-1.82096">
        <ele>192.40112304688</ele>
        <time>2015-11-10T14:33:48Z</time>
      </trkpt>
      <trkpt lat="43.367" lon="-1.82097">
        <ele>192.40112304688</ele>
        <time>2015-11-10T14:34:06Z</time>
      </trkpt>
      <trkpt lat="43.36699" lon="-1.821">
        <ele>192.40112304688</ele>
        <time>2015-11-10T14:34:20Z</time>
      </trkpt>
      <trkpt lat="43.36693" lon="-1.82093">
        <ele>192.88171386719</ele>
        <time>2015-11-10T14:34:43Z</time>
      </trkpt>
      <trkpt lat="43.36687" lon="-1.82091">
        <ele>192.40112304688</ele>
        <time>2015-11-10T14:35:02Z</time>
      </trkpt>
      <trkpt lat="43.36682" lon="-1.8209">
        <ele>192.40112304688</ele>
        <time>2015-11-10T14:35:25Z</time>
      </trkpt>
      <trkpt lat="43.36682" lon="-1.82096">
        <ele>191.43957519531</ele>
        <time>2015-11-10T14:35:44Z</time>
      </trkpt>
      <trkpt lat="43.36686" lon="-1.82105">
        <ele>191.92028808594</ele>
        <time>2015-11-10T14:35:59Z</time>
      </trkpt>
      <trkpt lat="43.36687" lon="-1.82117">
        <ele>192.88171386719</ele>
        <time>2015-11-10T14:36:13Z</time>
      </trkpt>
      <trkpt lat="43.36687" lon="-1.82135">
        <ele>193.3623046875</ele>
        <time>2015-11-10T14:36:29Z</time>
      </trkpt>
      <trkpt lat="43.36695" lon="-1.82136">
        <ele>195.28491210938</ele>
        <time>2015-11-10T14:36:44Z</time>
      </trkpt>
      <trkpt lat="43.36703" lon="-1.82133">
        <ele>195.28491210938</ele>
        <time>2015-11-10T14:36:57Z</time>
      </trkpt>
      <trkpt lat="43.36715" lon="-1.82133">
        <ele>195.28491210938</ele>
        <time>2015-11-10T14:37:12Z</time>
      </trkpt>
      <trkpt lat="43.36727" lon="-1.82133">
        <ele>195.28491210938</ele>
        <time>2015-11-10T14:37:28Z</time>
      </trkpt>
      <trkpt lat="43.36739" lon="-1.82128">
        <ele>196.24633789062</ele>
        <time>2015-11-10T14:37:43Z</time>
      </trkpt>
      <trkpt lat="43.36754" lon="-1.82124">
        <ele>196.72692871094</ele>
        <time>2015-11-10T14:38:01Z</time>
      </trkpt>
      <trkpt lat="43.36763" lon="-1.82121">
        <ele>196.72692871094</ele>
        <time>2015-11-10T14:38:15Z</time>
      </trkpt>
      <trkpt lat="43.36773" lon="-1.82117">
        <ele>197.68823242188</ele>
        <time>2015-11-10T14:38:32Z</time>
      </trkpt>
      <trkpt lat="43.36783" lon="-1.82121">
        <ele>196.24633789062</ele>
        <time>2015-11-10T14:38:47Z</time>
      </trkpt>
      <trkpt lat="43.36792" lon="-1.82131">
        <ele>196.24633789062</ele>
        <time>2015-11-10T14:39:03Z</time>
      </trkpt>
      <trkpt lat="43.36792" lon="-1.82131">
        <ele>195.765625</ele>
        <time>2015-11-10T14:39:05Z</time>
      </trkpt>
    </trkseg>
  </trk>
</gpx>